Provisional Data: South Branch Tunkhannock Creek near La Plume, PA


Please select a monitoring station.
Please select start date.
Please select start date.

Toggle Unit: C/F Toggle Unit: C/F
Sample Time Temperature (C) Temperature (F) Specific Conductivity (mS/cm) pH   Turbidity (NTU+) DO (mg/L)
10/22/2021 12:00:00 AM 14.62 58.316 0.237 7.51 2.08 8.81
10/22/2021 12:15:00 AM 14.58 58.244 0.237 7.51 1.81 8.83
10/22/2021 12:30:00 AM 14.56 58.208 0.237 7.5 1.78 8.85
10/22/2021 12:45:00 AM 14.53 58.154 0.236 7.51 1.93 8.83
10/22/2021 1:00:00 AM 14.51 58.118 0.236 7.53 1.82 8.82
10/22/2021 1:15:00 AM 14.49 58.082 0.236 7.53 1.76 8.81
10/22/2021 1:30:00 AM 14.48 58.064 0.235 7.49 1.84 8.81
10/22/2021 1:45:00 AM 14.46 58.028 0.235 7.51 1.78 8.81
10/22/2021 2:00:00 AM 14.44 57.992 0.235 7.51 1.89 8.83
10/22/2021 2:15:00 AM 14.41 57.938 0.235 7.51 1.93 8.86
10/22/2021 2:30:00 AM 14.37 57.866 0.235 7.5 1.85 8.92
10/22/2021 2:45:00 AM 14.33 57.794 0.234 7.5 1.82 8.88
10/22/2021 3:00:00 AM 14.28 57.704 0.234 7.5 1.89 8.96
10/22/2021 3:15:00 AM 14.25 57.65 0.234 7.49 1.77 8.86
10/22/2021 3:30:00 AM 14.21 57.578 0.234 7.48 1.89 8.79
10/22/2021 3:45:00 AM 14.17 57.506 0.234 7.47 1.86 8.91
10/22/2021 4:00:00 AM 14.15 57.47 0.233 7.47 1.75 8.96
10/22/2021 4:15:00 AM 14.12 57.416 0.233 7.46 1.96 8.99
10/22/2021 4:30:00 AM 14.08 57.344 0.233 7.48 1.77 8.95
10/22/2021 4:45:00 AM 14.03 57.254 0.233 7.47 2.23 8.95
10/22/2021 5:00:00 AM 13.99 57.182 0.232 7.47 1.94 8.98
10/22/2021 5:15:00 AM 13.95 57.11 0.232 7.47 1.82 8.95
10/22/2021 5:30:00 AM 13.9 57.02 0.232 7.47 1.87 9
10/22/2021 5:45:00 AM 13.86 56.948 0.232 7.48 2.02 9.09
10/22/2021 6:00:00 AM 13.81 56.858 0.232 7.48 1.89 9.14
10/22/2021 6:15:00 AM 13.76 56.768 0.232 7.48 1.93 9.17
10/22/2021 6:30:00 AM 13.71 56.678 0.232 7.48 1.9 9.19
10/22/2021 6:45:00 AM 13.66 56.588 0.232 7.49 1.9 9.21
10/22/2021 7:00:00 AM 13.61 56.498 0.232 7.48 2.1 9.22
10/22/2021 7:15:00 AM 13.58 56.444 0.232 7.47 1.9 9.22
10/22/2021 7:30:00 AM 13.55 56.39 0.232 7.47 1.79 9.25
10/22/2021 7:45:00 AM 13.54 56.372 0.232 7.48 1.89 9.27
10/22/2021 8:00:00 AM 13.53 56.354 0.232 7.49 2.29 9.34
10/22/2021 8:15:00 AM 13.54 56.372 0.232 7.5 1.88 9.44
10/22/2021 8:30:00 AM 13.55 56.39 0.232 7.52 1.79 9.64
10/22/2021 8:45:00 AM 13.57 56.426 0.231 7.54 1.81 9.74
10/22/2021 9:00:00 AM 13.59 56.462 0.231 7.56 1.74 9.9
10/22/2021 9:15:00 AM 13.62 56.516 0.231 7.59 1.96 10.03
10/22/2021 9:30:00 AM 13.66 56.588 0.231 7.63 1.77 10.22
10/22/2021 9:45:00 AM 13.7 56.66 0.231 7.65 2.1 10.33
10/22/2021 10:00:00 AM 13.74 56.732 0.231 7.7 1.9 10.52
10/22/2021 10:15:00 AM 13.77 56.786 0.231 7.7 1.77 10.39
10/22/2021 10:30:00 AM 13.79 56.822 0.231 7.73 1.9 10.42
10/22/2021 10:45:00 AM 13.81 56.858 0.231 7.74 1.83 10.45
10/22/2021 11:00:00 AM 13.84 56.912 0.231 7.76 1.81 10.56
10/22/2021 11:15:00 AM 13.89 57.002 0.231 7.8 1.88 10.64
10/22/2021 11:30:00 AM 13.9 57.02 0.23 7.81 1.83 10.6
10/22/2021 11:45:00 AM 13.93 57.074 0.23 7.81 1.87 10.68
10/22/2021 12:00:00 PM 13.96 57.128 0.23 7.84 1.84 10.74
10/22/2021 12:15:00 PM 13.98 57.164 0.23 7.86 1.84 10.71
10/22/2021 12:30:00 PM 14 57.2 0.229 7.83 1.85 10.67
10/22/2021 12:45:00 PM 14.03 57.254 0.229 7.87 1.89 10.75
10/22/2021 1:00:00 PM 14.09 57.362 0.228 7.91 1.85 10.91
10/22/2021 1:15:00 PM 14.17 57.506 0.228 7.95 1.74 11.1
10/22/2021 1:30:00 PM 14.22 57.596 0.228 8 1.95 11.12
10/22/2021 1:45:00 PM 14.26 57.668 0.227 8.01 1.84 11.13
10/22/2021 2:00:00 PM 14.27 57.686 0.227 8.01 2.37 11.03
10/22/2021 2:15:00 PM 14.25 57.65 0.228 8.03 1.83 10.88
10/22/2021 2:30:00 PM 14.26 57.668 0.228 8.01 1.93 10.77
10/22/2021 2:45:00 PM 14.25 57.65 0.228 8 1.88 10.7
10/22/2021 3:00:00 PM 14.25 57.65 0.228 7.92 1.9 10.62
10/22/2021 3:15:00 PM 14.25 57.65 0.229 7.9 1.88 10.49
10/22/2021 3:30:00 PM 14.25 57.65 0.229 7.84 1.87 10.38
10/22/2021 3:45:00 PM 14.25 57.65 0.229 7.89 1.95 10.38
10/22/2021 4:00:00 PM 14.26 57.668 0.229 7.92 2.22 10.51
10/22/2021 4:15:00 PM 14.28 57.704 0.229 7.92 1.84 10.56
10/22/2021 4:30:00 PM 14.29 57.722 0.229 7.91 1.81 10.58
10/22/2021 4:45:00 PM 14.29 57.722 0.23 7.89 1.8 10.51
10/22/2021 5:00:00 PM 14.28 57.704 0.23 7.89 1.82 10.45
10/22/2021 5:15:00 PM 14.26 57.668 0.23 7.85 1.85 10.27
10/22/2021 5:30:00 PM 14.25 57.65 0.23 7.81 1.94 10.18
10/22/2021 5:45:00 PM 14.24 57.632 0.231 7.79 1.85 10.08
10/22/2021 6:00:00 PM 14.22 57.596 0.231 7.76 1.83 9.96
10/22/2021 6:15:00 PM 14.18 57.524 0.231 7.72 1.93 9.81
10/22/2021 6:30:00 PM 14.13 57.434 0.232 7.69 1.82 9.66
10/22/2021 6:45:00 PM 14.08 57.344 0.233 7.66 1.83 9.57
10/22/2021 7:00:00 PM 14.04 57.272 0.233 7.62 1.92 9.5
10/22/2021 7:15:00 PM 14 57.2 0.234 7.61 1.95 9.45
10/22/2021 7:30:00 PM 13.97 57.146 0.235 7.57 1.96 9.39
10/22/2021 7:45:00 PM 13.94 57.092 0.235 7.57 1.82 9.34
10/22/2021 8:00:00 PM 13.89 57.002 0.236 7.57 2.03 9.34
10/22/2021 8:15:00 PM 13.85 56.93 0.236 7.56 1.88 9.36
10/22/2021 8:30:00 PM 13.82 56.876 0.237 7.55 1.92 9.34
10/22/2021 8:45:00 PM 13.79 56.822 0.237 7.55 1.89 9.35
10/22/2021 9:00:00 PM 13.75 56.75 0.238 7.55 1.85 9.34
10/22/2021 9:15:00 PM 13.72 56.696 0.238 7.54 1.83 9.3
10/22/2021 9:30:00 PM 13.69 56.642 0.238 7.52 1.76 9.31
10/22/2021 9:45:00 PM 13.65 56.57 0.238 7.53 1.84 9.33
10/22/2021 10:00:00 PM 13.6 56.48 0.239 7.52 1.83 9.27
10/22/2021 10:15:00 PM 13.54 56.372 0.239 7.52 1.78 9.28
10/22/2021 10:30:00 PM 13.49 56.282 0.239 7.53 1.92 9.34
10/22/2021 10:45:00 PM 13.44 56.192 0.239 7.52 1.93 9.35
10/22/2021 11:00:00 PM 13.4 56.12 0.239 7.52 1.79 9.37
10/22/2021 11:15:00 PM 13.34 56.012 0.239 7.51 1.8 9.33
10/22/2021 11:30:00 PM 13.27 55.886 0.24 7.52 1.92 9.39
10/22/2021 11:45:00 PM 13.2 55.76 0.239 7.5 1.83 9.43
10/23/2021 12:00:00 AM 13.12 55.616 0.239 7.5 1.87 9.43
10/23/2021 12:15:00 AM 13.04 55.472 0.239 7.51 1.83 9.48
10/23/2021 12:30:00 AM 12.97 55.346 0.239 7.51 1.79 9.47
10/23/2021 12:45:00 AM 12.9 55.22 0.239 7.51 1.81 9.51
10/23/2021 1:00:00 AM 12.82 55.076 0.239 7.5 1.85 9.47
10/23/2021 1:15:00 AM 12.75 54.95 0.239 7.48 1.8 9.53
10/23/2021 1:30:00 AM 12.7 54.86 0.239 7.5 1.73 9.52
10/23/2021 1:45:00 AM 12.66 54.788 0.239 7.5 1.75 9.55
10/23/2021 2:00:00 AM 12.61 54.698 0.239 7.5 1.75 9.56
10/23/2021 2:15:00 AM 12.57 54.626 0.239 7.49 1.69 9.57
10/23/2021 2:30:00 AM 12.53 54.554 0.238 7.46 1.73 9.62
10/23/2021 2:45:00 AM 12.48 54.464 0.238 7.5 1.9 9.65
10/23/2021 3:00:00 AM 12.44 54.392 0.238 7.5 1.8 9.69
10/23/2021 3:15:00 AM 12.4 54.32 0.238 7.5 1.8 9.68
10/23/2021 3:30:00 AM 12.36 54.248 0.238 7.51 1.72 9.69
10/23/2021 3:45:00 AM 12.32 54.176 0.238 7.52 1.76 9.7
10/23/2021 4:00:00 AM 12.28 54.104 0.238 7.52 1.74 9.7
10/23/2021 4:15:00 AM 12.24 54.032 0.238 7.52 2.02 9.73
10/23/2021 4:30:00 AM 12.19 53.942 0.238 7.51 1.81 9.74
10/23/2021 4:45:00 AM 12.15 53.87 0.238 7.51 1.79 9.73
10/23/2021 5:00:00 AM 12.1 53.78 0.238 7.5 2.12 9.75
10/23/2021 5:15:00 AM 12.06 53.708 0.238 7.5 2.09 9.78
10/23/2021 5:30:00 AM 12.03 53.654 0.238 7.51 1.87 9.79
10/23/2021 5:45:00 AM 11.99 53.582 0.238 7.51 1.83 9.8
10/23/2021 6:00:00 AM 11.95 53.51 0.238 7.51 1.85 9.79
10/23/2021 6:15:00 AM 11.91 53.438 0.238 7.51 1.82 9.83
10/23/2021 6:30:00 AM 11.88 53.384 0.238 7.52 1.91 9.83
10/23/2021 6:45:00 AM 11.85 53.33 0.238 7.51 1.84 9.85
10/23/2021 7:00:00 AM 11.82 53.276 0.238 7.51 1.84 9.85
10/23/2021 7:15:00 AM 11.8 53.24 0.238 7.51 2.25 9.86
10/23/2021 7:30:00 AM 11.77 53.186 0.238 7.52 1.75 9.88
10/23/2021 7:45:00 AM 11.74 53.132 0.238 7.49 1.77 9.9
10/23/2021 8:00:00 AM 11.73 53.114 0.238 7.53 1.79 9.96
10/23/2021 8:15:00 AM 11.72 53.096 0.238 7.53 1.78 10.03
10/23/2021 8:30:00 AM 11.71 53.078 0.237 7.56 1.8 10.13
10/23/2021 8:45:00 AM 11.71 53.078 0.237 7.57 1.75 10.25
10/23/2021 9:00:00 AM 11.71 53.078 0.237 7.59 1.81 10.39
10/23/2021 9:15:00 AM 11.73 53.114 0.236 7.64 1.76 10.62
10/23/2021 9:30:00 AM 11.76 53.168 0.236 7.65 1.76 10.83
10/23/2021 9:45:00 AM 11.79 53.222 0.235 7.7 1.73 11.04
10/23/2021 10:00:00 AM 11.83 53.294 0.235 7.76 1.76 11.21
10/23/2021 10:15:00 AM 11.89 53.402 0.234 7.81 1.79 11.38
10/23/2021 10:30:00 AM 11.92 53.456 0.234 7.85 1.84 11.45
10/23/2021 10:45:00 AM 11.97 53.546 0.234 7.88 1.71 11.57
10/23/2021 11:00:00 AM 12.04 53.672 0.234 7.97 1.71 11.74
10/23/2021 11:15:00 AM 12.13 53.834 0.233 8.02 1.75 11.86
10/23/2021 11:30:00 AM 12.18 53.924 0.233 8.06 1.72 11.95
10/23/2021 11:45:00 AM 12.24 54.032 0.233 8.12 1.78 11.98
10/23/2021 12:00:00 PM 12.31 54.158 0.233 8.17 1.7 12.06
10/23/2021 12:15:00 PM 12.36 54.248 0.233 8.24 1.76 12.11
10/23/2021 12:30:00 PM 12.41 54.338 0.232 8.26 1.75 12.14
10/23/2021 12:45:00 PM 12.45 54.41 0.232 8.29 1.71 12.07
10/23/2021 1:00:00 PM 12.49 54.482 0.232 8.32 1.7 12.09
10/23/2021 1:15:00 PM 12.54 54.572 0.232 8.36 1.76 12.08
10/23/2021 1:30:00 PM 12.56 54.608 0.232 8.34 1.78 11.97
10/23/2021 1:45:00 PM 12.59 54.662 0.232 8.33 1.72 11.98
10/23/2021 2:00:00 PM 12.6 54.68 0.232 8.34 1.7 11.82
10/23/2021 2:15:00 PM 12.6 54.68 0.232 8.29 1.68 11.67
10/23/2021 2:30:00 PM 12.61 54.698 0.232 8.28 1.66 11.6
10/23/2021 2:45:00 PM 12.63 54.734 0.232 8.24 1.76 11.55
10/23/2021 3:00:00 PM 12.66 54.788 0.232 8.24 1.72 11.54
10/23/2021 3:15:00 PM 12.65 54.77 0.233 8.2 1.77 11.37
10/23/2021 3:30:00 PM 12.66 54.788 0.233 8.14 1.83 11.29
10/23/2021 3:45:00 PM 12.66 54.788 0.233 8.09 1.73 11.17
10/23/2021 4:00:00 PM 12.66 54.788 0.233 8.06 1.73 11.06
10/23/2021 4:15:00 PM 12.67 54.806 0.233 8.02 1.65 10.97
10/23/2021 4:30:00 PM 12.66 54.788 0.234 7.99 2.11 10.87
10/23/2021 4:45:00 PM 12.66 54.788 0.234 7.95 1.72 10.76
10/23/2021 5:00:00 PM 12.66 54.788 0.235 7.89 1.68 10.62
10/23/2021 5:15:00 PM 12.65 54.77 0.235 7.87 1.76 10.52
10/23/2021 5:30:00 PM 12.64 54.752 0.236 7.83 1.76 10.39
10/23/2021 5:45:00 PM 12.63 54.734 0.236 7.8 1.77 10.26
10/23/2021 6:00:00 PM 12.62 54.716 0.236 7.76 1.73 10.15
10/23/2021 6:15:00 PM 12.62 54.716 0.236 7.73 1.69 10.05
10/23/2021 6:30:00 PM 12.6 54.68 0.237 7.72 1.75 9.97
10/23/2021 6:45:00 PM 12.58 54.644 0.237 7.69 1.82 9.91
10/23/2021 7:00:00 PM 12.54 54.572 0.237 7.67 1.87 9.84
10/23/2021 7:15:00 PM 12.52 54.536 0.238 7.65 1.77 9.82
10/23/2021 7:30:00 PM 12.51 54.518 0.238 7.61 1.86 9.78
10/23/2021 7:45:00 PM 12.5 54.5 0.238 7.61 1.79 9.75
10/23/2021 8:00:00 PM 12.48 54.464 0.238 7.62 1.76 9.74
10/23/2021 8:15:00 PM 12.46 54.428 0.239 7.62 1.76 9.73
10/23/2021 8:30:00 PM 12.44 54.392 0.239 7.61 1.75 9.72
10/23/2021 8:45:00 PM 12.41 54.338 0.239 7.6 1.71 9.72
10/23/2021 9:00:00 PM 12.37 54.266 0.239 7.58 1.8 9.72
10/23/2021 9:15:00 PM 12.32 54.176 0.239 7.6 1.81 9.72
10/23/2021 9:30:00 PM 12.26 54.068 0.239 7.56 1.76 9.7
10/23/2021 9:45:00 PM 12.21 53.978 0.24 7.55 1.83 9.73
10/23/2021 10:00:00 PM 12.17 53.906 0.24 7.57 1.89 9.75
10/23/2021 10:15:00 PM 12.13 53.834 0.24 7.57 1.77 9.77
10/23/2021 10:30:00 PM 12.1 53.78 0.24 7.57 1.85 9.8
10/23/2021 10:45:00 PM 12.08 53.744 0.24 7.56 1.74 9.79
10/23/2021 11:00:00 PM 12.05 53.69 0.24 7.56 1.79 9.8
10/23/2021 11:15:00 PM 12.03 53.654 0.24 7.56 1.73 9.81
10/23/2021 11:30:00 PM 12.01 53.618 0.24 7.56 1.77 9.8
10/23/2021 11:45:00 PM 11.98 53.564 0.24 7.56 1.83 9.81
10/24/2021 12:00:00 AM 11.95 53.51 0.24 7.56 1.85 9.81
10/24/2021 12:15:00 AM 11.92 53.456 0.241 7.56 1.73 9.85
10/24/2021 12:30:00 AM 11.9 53.42 0.241 7.55 1.87 9.83
10/24/2021 12:45:00 AM 11.87 53.366 0.241 7.55 1.97 9.84
10/24/2021 1:00:00 AM 11.84 53.312 0.241 7.55 1.72 9.86
10/24/2021 1:15:00 AM 11.83 53.294 0.241 7.55 1.77 9.87
10/24/2021 1:30:00 AM 11.8 53.24 0.241 7.55 1.82 9.88
10/24/2021 1:45:00 AM 11.78 53.204 0.241 7.55 1.88 9.87
10/24/2021 2:00:00 AM 11.76 53.168 0.241 7.55 1.83 9.86
10/24/2021 2:15:00 AM 11.74 53.132 0.241 7.53 1.87 9.9
10/24/2021 2:30:00 AM 11.72 53.096 0.241 7.55 1.82 9.9
10/24/2021 2:45:00 AM 11.71 53.078 0.241 7.55 1.86 9.9
10/24/2021 3:00:00 AM 11.68 53.024 0.241 7.55 1.76 9.91
10/24/2021 3:15:00 AM 11.67 53.006 0.24 7.55 1.74 9.9
10/24/2021 3:30:00 AM 11.65 52.97 0.24 7.54 1.8 9.9
10/24/2021 3:45:00 AM 11.63 52.934 0.24 7.55 1.75 9.92
10/24/2021 4:00:00 AM 11.62 52.916 0.24 7.54 1.82 9.9
10/24/2021 4:15:00 AM 11.6 52.88 0.24 7.54 1.83 9.94
10/24/2021 4:30:00 AM 11.56 52.808 0.239 7.54 1.83 9.94
10/24/2021 4:45:00 AM 11.54 52.772 0.239 7.54 1.85 9.96
10/24/2021 5:00:00 AM 11.53 52.754 0.239 7.54 1.78 9.96
10/24/2021 5:15:00 AM 11.53 52.754 0.239 7.55 1.78 9.94
10/24/2021 5:30:00 AM 11.52 52.736 0.239 7.55 1.81 9.97
10/24/2021 5:45:00 AM 11.5 52.7 0.239 7.55 1.76 9.97
10/24/2021 6:00:00 AM 11.49 52.682 0.24 7.55 2.05 9.98
10/24/2021 6:15:00 AM 11.49 52.682 0.24 7.55 1.83 10
10/24/2021 6:30:00 AM 11.47 52.646 0.24 7.54 2.02 9.98
10/24/2021 6:45:00 AM 11.45 52.61 0.24 7.56 1.73 9.95
10/24/2021 7:00:00 AM 11.43 52.574 0.24 7.53 1.73 9.96
10/24/2021 7:15:00 AM 11.41 52.538 0.24 7.56 1.79 9.97
10/24/2021 7:30:00 AM 11.39 52.502 0.24 7.55 1.71 10.01
10/24/2021 7:45:00 AM 11.38 52.484 0.24 7.56 1.76 9.99
10/24/2021 8:00:00 AM 11.36 52.448 0.24 7.54 1.74 10.03
10/24/2021 8:15:00 AM 11.36 52.448 0.24 7.58 1.76 10.11
10/24/2021 8:30:00 AM 11.35 52.43 0.239 7.55 1.77 10.16
10/24/2021 8:45:00 AM 11.35 52.43 0.239 7.61 1.83 10.3
10/24/2021 9:00:00 AM 11.36 52.448 0.239 7.62 1.7 10.45
10/24/2021 9:15:00 AM 11.37 52.466 0.239 7.65 1.71 10.61
10/24/2021 9:30:00 AM 11.39 52.502 0.239 7.68 1.75 10.75
10/24/2021 9:45:00 AM 11.42 52.556 0.238 7.71 1.68 10.97
10/24/2021 10:00:00 AM 11.46 52.628 0.238 7.75 1.7 11.17
10/24/2021 10:15:00 AM 11.49 52.682 0.238 7.79 1.75 11.24
10/24/2021 10:30:00 AM 11.54 52.772 0.237 7.84 1.72 11.42
10/24/2021 10:45:00 AM 11.6 52.88 0.237 7.88 1.69 11.62
10/24/2021 11:00:00 AM 11.65 52.97 0.237 7.9 1.67 11.69
10/24/2021 11:15:00 AM 11.71 53.078 0.237 7.99 1.71 11.85
10/24/2021 11:30:00 AM 11.77 53.186 0.236 8.04 1.63 11.92
10/24/2021 11:45:00 AM 11.86 53.348 0.236 8.1 1.73 12.06
10/24/2021 12:00:00 PM 11.94 53.492 0.236 8.18 1.71 12.16
10/24/2021 12:15:00 PM 11.99 53.582 0.235 8.21 1.68 12.19
10/24/2021 12:30:00 PM 12.05 53.69 0.235 8.27 1.65 12.22
10/24/2021 12:45:00 PM 12.1 53.78 0.235 8.3 1.64 12.2
10/24/2021 1:00:00 PM 12.14 53.852 0.235 8.33 1.68 12.16
10/24/2021 1:15:00 PM 12.19 53.942 0.234 8.31 1.68 12.09
10/24/2021 1:30:00 PM 12.25 54.05 0.234 8.35 1.73 12.11
10/24/2021 1:45:00 PM 12.28 54.104 0.234 8.35 1.67 12.02
10/24/2021 2:00:00 PM 12.3 54.14 0.234 8.32 1.68 11.9
10/24/2021 2:15:00 PM 12.31 54.158 0.234 8.3 1.76 11.8
10/24/2021 2:30:00 PM 12.32 54.176 0.234 8.28 1.6 11.66
10/24/2021 2:45:00 PM 12.32 54.176 0.234 8.23 1.62 11.51
10/24/2021 3:00:00 PM 12.32 54.176 0.235 8.18 1.65 11.36
10/24/2021 3:15:00 PM 12.32 54.176 0.235 8.1 1.6 11.15
10/24/2021 3:30:00 PM 12.33 54.194 0.235 8.07 1.7 11.05
10/24/2021 3:45:00 PM 12.34 54.212 0.235 8.02 1.66 10.9
10/24/2021 4:00:00 PM 12.34 54.212 0.236 7.97 1.66 10.76
10/24/2021 4:15:00 PM 12.35 54.23 0.236 7.94 1.61 10.74
10/24/2021 4:30:00 PM 12.37 54.266 0.236 7.95 1.65 10.7
10/24/2021 4:45:00 PM 12.38 54.284 0.237 7.92 1.58 10.69
10/24/2021 5:00:00 PM 12.38 54.284 0.237 7.89 1.71 10.6
10/24/2021 5:15:00 PM 12.39 54.302 0.237 7.88 1.65 10.53
10/24/2021 5:30:00 PM 12.4 54.32 0.238 7.84 1.6 10.4
10/24/2021 5:45:00 PM 12.4 54.32 0.238 7.83 1.6 10.31
10/24/2021 6:00:00 PM 12.4 54.32 0.238 7.8 1.79 10.21
10/24/2021 6:15:00 PM 12.4 54.32 0.239 7.78 1.68 10.11
10/24/2021 6:30:00 PM 12.4 54.32 0.24 7.76 2.02 10.01
10/24/2021 6:45:00 PM 12.41 54.338 0.24 7.72 1.71 9.96
10/24/2021 7:00:00 PM 12.41 54.338 0.24 7.72 1.7 9.9
10/24/2021 7:15:00 PM 12.41 54.338 0.24 7.72 1.62 9.87
10/24/2021 7:30:00 PM 12.41 54.338 0.241 7.7 1.63 9.82
10/24/2021 7:45:00 PM 12.4 54.32 0.241 7.69 1.7 9.79
10/24/2021 8:00:00 PM 12.4 54.32 0.241 7.68 1.65 9.78
10/24/2021 8:15:00 PM 12.39 54.302 0.241 7.68 1.67 9.76
10/24/2021 8:30:00 PM 12.39 54.302 0.241 7.66 1.67 9.73
10/24/2021 8:45:00 PM 12.38 54.284 0.241 7.67 1.69 9.74
10/24/2021 9:00:00 PM 12.37 54.266 0.241 7.67 1.72 9.75
10/24/2021 9:15:00 PM 12.36 54.248 0.241 7.65 1.75 9.71
10/24/2021 9:30:00 PM 12.35 54.23 0.241 7.65 1.75 9.72
10/24/2021 9:45:00 PM 12.34 54.212 0.241 7.65 1.75 9.72
10/24/2021 10:00:00 PM 12.32 54.176 0.241 7.62 1.65 9.71
10/24/2021 10:15:00 PM 12.3 54.14 0.241 7.64 1.7 9.73
10/24/2021 10:30:00 PM 12.29 54.122 0.241 7.64 1.67 9.74
10/24/2021 10:45:00 PM 12.28 54.104 0.241 7.63 1.78 9.74
10/24/2021 11:00:00 PM 12.27 54.086 0.241 7.62 1.75 9.72
10/24/2021 11:15:00 PM 12.26 54.068 0.242 7.63 1.74 9.71
10/24/2021 11:30:00 PM 12.25 54.05 0.242 7.63 1.89 9.7
10/24/2021 11:45:00 PM 12.24 54.032 0.242 7.64 1.81 9.69
10/25/2021 12:00:00 AM 12.24 54.032 0.242 7.62 1.83 9.65
10/25/2021 12:15:00 AM 12.23 54.014 0.242 7.62 1.7 9.62
10/25/2021 12:30:00 AM 12.23 54.014 0.242 7.62 1.69 9.69
10/25/2021 12:45:00 AM 12.23 54.014 0.242 7.6 1.73 9.68
10/25/2021 1:00:00 AM 12.23 54.014 0.243 7.63 1.75 9.68
10/25/2021 1:15:00 AM 12.22 53.996 0.242 7.63 1.78 9.7
10/25/2021 1:30:00 AM 12.22 53.996 0.242 7.62 1.83 9.68
10/25/2021 1:45:00 AM 12.22 53.996 0.242 7.61 1.84 9.66
10/25/2021 2:00:00 AM 12.21 53.978 0.243 7.62 1.83 9.68
10/25/2021 2:15:00 AM 12.21 53.978 0.243 7.63 1.71 9.69
10/25/2021 2:30:00 AM 12.22 53.996 0.243 7.62 1.67 9.66
10/25/2021 2:45:00 AM 12.22 53.996 0.243 7.61 1.68 9.61
10/25/2021 3:00:00 AM 12.22 53.996 0.242 7.62 1.65 9.64
10/25/2021 3:15:00 AM 12.22 53.996 0.242 7.6 12.34 9.42
10/25/2021 3:30:00 AM 12.24 54.032 0.242 7.61 2.34 9.56
10/25/2021 3:45:00 AM 12.25 54.05 0.242 7.62 2.45 9.64
10/25/2021 4:00:00 AM 12.26 54.068 0.242 7.61 2.27 9.6
10/25/2021 4:15:00 AM 12.27 54.086 0.241 7.62 2.35 9.6
10/25/2021 4:30:00 AM 12.27 54.086 0.241 7.62 2.24 9.6
10/25/2021 4:45:00 AM 12.26 54.068 0.241 7.61 2.29 9.58
10/25/2021 5:00:00 AM 12.25 54.05 0.241 7.61 2.28 9.5
10/25/2021 5:15:00 AM 12.24 54.032 0.241 7.63 2.37 9.5
10/25/2021 5:30:00 AM 12.22 53.996 0.241 7.59 2.26 9.57
10/25/2021 5:45:00 AM 12.2 53.96 0.242 7.63 2.24 9.6
10/25/2021 6:00:00 AM 12.18 53.924 0.242 7.64 2.2 9.63
10/25/2021 6:15:00 AM 12.15 53.87 0.242 7.64 2.33 9.67
10/25/2021 6:30:00 AM 12.13 53.834 0.243 7.64 2.22 9.63
10/25/2021 6:45:00 AM 12.1 53.78 0.244 7.64 2.19 9.65
10/25/2021 7:00:00 AM 12.08 53.744 0.244 7.61 2.31 9.64
10/25/2021 7:15:00 AM 12.06 53.708 0.245 7.64 2.4 9.61
10/25/2021 7:30:00 AM 12.04 53.672 0.245 7.65 2.31 9.65
10/25/2021 7:45:00 AM 12.02 53.636 0.245 7.64 2.19 9.69
10/25/2021 8:00:00 AM 12.01 53.618 0.246 7.64 2.24 9.7
10/25/2021 8:15:00 AM 12 53.6 0.246 7.65 2.24 9.81
10/25/2021 8:30:00 AM 12 53.6 0.246 7.67 2.28 9.86
10/25/2021 8:45:00 AM 12 53.6 0.245 7.67 2.34 9.92
10/25/2021 9:00:00 AM 12.01 53.618 0.245 7.69 2.25 10.05
10/25/2021 9:15:00 AM 12.02 53.636 0.245 7.7 2.38 10.11
10/25/2021 9:30:00 AM 12.05 53.69 0.245 7.73 2.22 10.29
10/25/2021 9:45:00 AM 12.09 53.762 0.245 7.75 2.21 10.36
10/25/2021 10:00:00 AM 12.15 53.87 0.244 7.76 2.12 10.48
10/25/2021 10:15:00 AM 12.23 54.014 0.244 7.76 2.27 10.62
10/25/2021 10:30:00 AM 12.33 54.194 0.244 7.85 2.16 10.73
10/25/2021 10:45:00 AM 12.42 54.356 0.244 7.89 2.14 10.84
10/25/2021 11:00:00 AM 12.51 54.518 0.244 7.93 2.15 10.85
10/25/2021 11:15:00 AM 12.61 54.698 0.244 7.82 2.13 10.99
10/25/2021 11:30:00 AM 12.71 54.878 0.244 7.85 2.16 11.01
10/25/2021 11:45:00 AM 12.81 55.058 0.243 7.85 2.59 11.12
10/25/2021 12:00:00 PM 12.9 55.22 0.242 7.91 2.16 11.17
10/25/2021 12:15:00 PM 12.97 55.346 0.242 7.88 2.09 11.14
10/25/2021 12:30:00 PM 13.04 55.472 0.242 7.87 2.18 11.15
10/25/2021 12:45:00 PM 13.15 55.67 0.241 7.92 2.18 11.27
10/25/2021 1:00:00 PM 13.26 55.868 0.241 7.99 2.15 11.31
10/25/2021 1:15:00 PM 13.35 56.03 0.241 8 1.99 11.23
10/25/2021 1:30:00 PM 13.48 56.264 0.241 8.03 1.92 11.28
10/25/2021 1:45:00 PM 13.63 56.534 0.241 8.05 1.93 11.33
10/25/2021 2:00:00 PM 13.8 56.84 0.241 8.09 2.09 11.31
10/25/2021 2:15:00 PM 13.97 57.146 0.241 8.17 1.95 11.38
10/25/2021 2:30:00 PM 14.14 57.452 0.241 8.23 1.88 11.37
10/25/2021 2:45:00 PM 14.25 57.65 0.241 8.27 1.94 11.29
10/25/2021 3:00:00 PM 14.31 57.758 0.241 8.29 1.97 11.18
10/25/2021 3:15:00 PM 14.35 57.83 0.241 8.22 1.92 11.06
10/25/2021 3:30:00 PM 14.37 57.866 0.241 8.17 1.9 10.87
10/25/2021 3:45:00 PM 14.43 57.974 0.241 8.21 1.87 10.8
10/25/2021 4:00:00 PM 14.48 58.064 0.242 8.21 1.88 10.9
10/25/2021 4:15:00 PM 14.52 58.136 0.242 8.22 1.85 10.83
10/25/2021 4:30:00 PM 14.54 58.172 0.242 8.21 1.93 10.73
10/25/2021 4:45:00 PM 14.56 58.208 0.242 8.16 1.85 10.6
10/25/2021 5:00:00 PM 14.57 58.226 0.242 8.1 1.88 10.42
10/25/2021 5:15:00 PM 14.58 58.244 0.242 8.05 1.97 10.3
10/25/2021 5:30:00 PM 14.6 58.28 0.242 7.99 1.9 10.14
10/25/2021 5:45:00 PM 14.61 58.298 0.242 7.93 2.09 9.99
10/25/2021 6:00:00 PM 14.62 58.316 0.242 7.88 1.93 9.79
10/25/2021 6:15:00 PM 14.63 58.334 0.242 7.86 1.87 9.65
10/25/2021 6:30:00 PM 14.63 58.334 0.242 7.79 1.93 9.52
10/25/2021 6:45:00 PM 14.63 58.334 0.242 7.78 1.91 9.41
10/25/2021 7:00:00 PM 14.63 58.334 0.242 7.76 2.17 9.32
10/25/2021 7:15:00 PM 14.63 58.334 0.243 7.73 1.99 9.24
10/25/2021 7:30:00 PM 14.62 58.316 0.243 7.72 2.08 9.2
10/25/2021 7:45:00 PM 14.62 58.316 0.243 7.71 1.87 9.18
10/25/2021 8:00:00 PM 14.6 58.28 0.243 7.68 1.97 9.15
10/25/2021 8:15:00 PM 14.59 58.262 0.244 7.67 1.94 9.12
10/25/2021 8:30:00 PM 14.57 58.226 0.244 7.65 2.08 9.11
10/25/2021 8:45:00 PM 14.54 58.172 0.246 7.64 1.94 9.11
10/25/2021 9:00:00 PM 14.52 58.136 0.246 7.65 1.89 9.11
10/25/2021 9:15:00 PM 14.49 58.082 0.247 7.61 1.89 9.1
10/25/2021 9:30:00 PM 14.47 58.046 0.248 7.58 2.04 9.1
10/25/2021 9:45:00 PM 14.44 57.992 0.248 7.59 2.04 9.11
10/25/2021 10:00:00 PM 14.42 57.956 0.249 7.57 1.87 9.12
10/25/2021 10:15:00 PM 14.39 57.902 0.249 7.56 2.12 9.11
10/25/2021 10:30:00 PM 14.36 57.848 0.249 7.54 2.04 9.1
10/25/2021 10:45:00 PM 14.34 57.812 0.249 7.56 1.88 9.12
10/25/2021 11:00:00 PM 14.31 57.758 0.249 7.53 1.92 9.15
10/25/2021 11:15:00 PM 14.29 57.722 0.249 7.56 1.95 9.11
10/25/2021 11:30:00 PM 14.26 57.668 0.249 7.54 1.99 9.18
10/25/2021 11:45:00 PM 14.24 57.632 0.248 7.55 1.98 9.17
10/26/2021 12:00:00 AM 14.21 57.578 0.247 7.54 1.96 9.17
10/26/2021 12:15:00 AM 14.19 57.542 0.246 7.54 1.98 9.17
10/26/2021 12:30:00 AM 14.16 57.488 0.245 7.52 2.07 9.18
10/26/2021 12:45:00 AM 14.14 57.452 0.245 7.54 2.03 9.18
10/26/2021 1:00:00 AM 14.11 57.398 0.244 7.55 2.33 9.19
10/26/2021 1:15:00 AM 14.09 57.362 0.243 7.56 2.49 9.19
10/26/2021 1:30:00 AM 14.07 57.326 0.243 7.54 2.33 9.18
10/26/2021 1:45:00 AM 14.05 57.29 0.243 7.53 2.25 9.17
10/26/2021 2:00:00 AM 14.03 57.254 0.243 7.54 2.4 9.18
10/26/2021 2:15:00 AM 14.01 57.218 0.243 7.54 2.41 9.16
10/26/2021 2:30:00 AM 13.99 57.182 0.243 7.54 2.01 9.18
10/26/2021 2:45:00 AM 13.97 57.146 0.244 7.52 2.05 9.14
10/26/2021 3:00:00 AM 13.95 57.11 0.245 7.52 2.2 9.18
10/26/2021 3:15:00 AM 13.93 57.074 0.247 7.54 2.03 9.15
10/26/2021 3:30:00 AM 13.91 57.038 0.247 7.56 1.99 9.2
10/26/2021 3:45:00 AM 13.9 57.02 0.246 7.56 2.26 9.21
10/26/2021 4:00:00 AM 13.91 57.038 0.244 7.55 2.3 9.29
10/26/2021 4:15:00 AM 13.91 57.038 0.242 7.55 2.21 9.31
10/26/2021 4:30:00 AM 13.91 57.038 0.242 7.55 2.2 9.32
10/26/2021 4:45:00 AM 13.91 57.038 0.243 7.53 2.26 9.32
10/26/2021 5:00:00 AM 13.91 57.038 0.243 7.54 2.58 9.32
10/26/2021 5:15:00 AM 13.91 57.038 0.242 7.55 2.95 9.32
10/26/2021 5:30:00 AM 13.9 57.02 0.245 7.53 3 9.33
10/26/2021 5:45:00 AM 13.89 57.002 0.249 7.54 2.81 9.31
10/26/2021 6:00:00 AM 13.88 56.984 0.253 7.53 2.89 9.32
10/26/2021 6:15:00 AM 13.87 56.966 0.255 7.53 3.06 9.31
10/26/2021 6:30:00 AM 13.85 56.93 0.256 7.54 3.04 9.31
10/26/2021 6:45:00 AM 13.84 56.912 0.258 7.55 3.19 9.35
10/26/2021 7:00:00 AM 13.83 56.894 0.26 7.54 3.51 9.24
10/26/2021 7:15:00 AM 13.82 56.876 0.262 7.55 3.87 9.31
10/26/2021 7:30:00 AM 13.8 56.84 0.262 7.57 3.64 9.28
10/26/2021 7:45:00 AM 13.79 56.822 0.261 7.57 3.85 9.3
10/26/2021 8:00:00 AM 13.78 56.804 0.261 7.56 5.39 9.33
10/26/2021 8:15:00 AM 13.77 56.786 0.26 7.57 4 9.28
10/26/2021 8:30:00 AM 13.76 56.768 0.262 7.55 4.68 9.3
10/26/2021 8:45:00 AM 13.74 56.732 0.264 7.55 4.84 9.35
10/26/2021 9:00:00 AM 13.72 56.696 0.266 7.59 5.63 9.37
10/26/2021 9:15:00 AM 13.7 56.66 0.269 7.56 6.09 9.44
10/26/2021 9:30:00 AM 13.68 56.624 0.27 7.55 5.51 9.44
10/26/2021 9:45:00 AM 13.66 56.588 0.271 7.57 7.57 9.54
10/26/2021 10:00:00 AM 13.65 56.57 0.271 7.57 7.69 9.59
10/26/2021 10:15:00 AM 13.64 56.552 0.269 7.56 7.35 9.56
10/26/2021 10:30:00 AM 13.63 56.534 0.267 7.57 10.11 9.6
10/26/2021 10:45:00 AM 13.63 56.534 0.263 7.57 7.3 9.65
10/26/2021 11:00:00 AM 13.64 56.552 0.258 7.57 8.48 9.68
10/26/2021 11:15:00 AM 13.64 56.552 0.254 7.58 10.49 9.67
10/26/2021 11:30:00 AM 13.64 56.552 0.25 7.63 8.23 9.7
10/26/2021 11:45:00 AM 13.64 56.552 0.242 7.56 9.92 9.73
10/26/2021 12:00:00 PM 13.65 56.57 0.236 7.59 18.1 9.74
10/26/2021 12:15:00 PM 13.65 56.57 0.228 7.58 15.7 9.76
10/26/2021 12:30:00 PM 13.65 56.57 0.224 7.53 63.27 9.7
10/26/2021 12:45:00 PM 13.64 56.552 0.216 7.53 36.11 9.74
10/26/2021 1:00:00 PM 13.63 56.534 0.209 7.5 33.78 9.76
10/26/2021 1:15:00 PM 13.62 56.516 0.202 7.53 37.67 9.78
10/26/2021 1:30:00 PM 13.6 56.48 0.197 7.53 50.82 9.8
10/26/2021 1:45:00 PM 13.57 56.426 0.192 7.49 53.77 9.83
10/26/2021 2:00:00 PM 13.54 56.372 0.187 7.42 63.11 9.85
10/26/2021 2:15:00 PM 13.51 56.318 0.18 7.42 77.33 9.88
10/26/2021 2:30:00 PM 13.48 56.264 0.172 7.42 78.83 9.91
10/26/2021 2:45:00 PM 13.46 56.228 0.166 7.36 87.6 9.94
10/26/2021 3:00:00 PM 13.42 56.156 0.16 7.31 86.23 9.96
10/26/2021 3:15:00 PM 13.39 56.102 0.156 7.3 87.8 9.98
10/26/2021 3:30:00 PM 13.37 56.066 0.154 7.3 95.53 9.99
10/26/2021 3:45:00 PM 13.36 56.048 0.152 7.31 75.02 10
10/26/2021 4:00:00 PM 13.36 56.048 0.151 7.26 86.3 10.01
10/26/2021 4:15:00 PM 13.36 56.048 0.151 7.3 70.54 10.01
10/26/2021 4:30:00 PM 13.37 56.066 0.152 7.33 65.52 10.02
10/26/2021 4:45:00 PM 13.37 56.066 0.152 7.3 55.3 10.03
10/26/2021 5:00:00 PM 13.36 56.048 0.153 7.27 49.37 10.04
10/26/2021 5:15:00 PM 13.35 56.03 0.153 7.3 54.06 10.05
10/26/2021 5:30:00 PM 13.34 56.012 0.154 7.31 43.81 10.05
10/26/2021 5:45:00 PM 13.33 55.994 0.155 7.31 41.15 10.06
10/26/2021 6:00:00 PM 13.32 55.976 0.156 7.32 38.9 10.07
10/26/2021 6:15:00 PM 13.31 55.958 0.157 7.31 35.63 10.08
10/26/2021 6:30:00 PM 13.3 55.94 0.158 7.33 33.47 10.08
10/26/2021 6:45:00 PM 13.3 55.94 0.158 7.33 35.23 10.09
10/26/2021 7:00:00 PM 13.29 55.922 0.159 7.32 29.06 10.1
10/26/2021 7:15:00 PM 13.29 55.922 0.16 7.3 32.98 10.1
10/26/2021 7:30:00 PM 13.3 55.94 0.161 7.34 28.7 10.11
10/26/2021 7:45:00 PM 13.3 55.94 0.162 7.32 24.87 10.12
10/26/2021 8:00:00 PM 13.3 55.94 0.163 7.34 30.94 10.12
10/26/2021 8:15:00 PM 13.3 55.94 0.164 7.35 26.5 10.13
10/26/2021 8:30:00 PM 13.31 55.958 0.165 7.35 23.3 10.13
10/26/2021 8:45:00 PM 13.31 55.958 0.165 7.33 24.47 10.14
10/26/2021 9:00:00 PM 13.31 55.958 0.166 7.31 22.02 10.14
10/26/2021 9:15:00 PM 13.31 55.958 0.167 7.33 21.65 10.15
10/26/2021 9:30:00 PM 13.31 55.958 0.168 7.34 21.68 10.16
10/26/2021 9:45:00 PM 13.31 55.958 0.168 7.29 19.94 10.17
10/26/2021 10:00:00 PM 13.32 55.976 0.168 7.34 21.84 10.17
10/26/2021 10:15:00 PM 13.33 55.994 0.169 7.33 21.37 10.18
10/26/2021 10:30:00 PM 13.33 55.994 0.169 7.36 21.44 10.18
10/26/2021 10:45:00 PM 13.33 55.994 0.169 7.32 20.06 10.19
10/26/2021 11:00:00 PM 13.33 55.994 0.169 7.32 19.53 10.19
10/26/2021 11:15:00 PM 13.33 55.994 0.17 7.31 18.76 10.2
10/26/2021 11:30:00 PM 13.33 55.994 0.17 7.36 16.86 10.2
10/26/2021 11:45:00 PM 13.33 55.994 0.171 7.32 15.76 10.2
10/27/2021 12:00:00 AM 13.33 55.994 0.171 7.35 19.61 10.21
10/27/2021 12:15:00 AM 13.33 55.994 0.172 7.33 18.93 10.22
10/27/2021 12:30:00 AM 13.33 55.994 0.172 7.35 14.39 10.22
10/27/2021 12:45:00 AM 13.33 55.994 0.173 7.34 16.41 10.22
10/27/2021 1:00:00 AM 13.34 56.012 0.173 7.44 16.98 10.22
10/27/2021 1:15:00 AM 13.35 56.03 0.173 7.38 17.29 10.22
10/27/2021 1:30:00 AM 13.35 56.03 0.173 7.44 17.96 10.23
10/27/2021 1:45:00 AM 13.36 56.048 0.173 7.4 17.9 10.23
10/27/2021 2:00:00 AM 13.36 56.048 0.173 7.4 15.99 10.24
10/27/2021 2:15:00 AM 13.37 56.066 0.173 7.39 16.27 10.24
10/27/2021 2:30:00 AM 13.37 56.066 0.173 7.39 17.29 10.24
10/27/2021 2:45:00 AM 13.37 56.066 0.173 7.41 14.86 10.24
10/27/2021 3:00:00 AM 13.38 56.084 0.173 7.39 16.14 10.25
10/27/2021 3:15:00 AM 13.37 56.066 0.173 7.39 16.19 10.25
10/27/2021 3:30:00 AM 13.37 56.066 0.173 7.4 14.65 10.25
10/27/2021 3:45:00 AM 13.37 56.066 0.172 7.37 14.97 10.25
10/27/2021 4:00:00 AM 13.37 56.066 0.172 7.37 16.06 10.26
10/27/2021 4:15:00 AM 13.37 56.066 0.172 7.37 14.69 10.25
10/27/2021 4:30:00 AM 13.37 56.066 0.172 7.39 15.09 10.25
10/27/2021 4:45:00 AM 13.37 56.066 0.172 7.38 15.48 10.26
10/27/2021 5:00:00 AM 13.36 56.048 0.171 7.38 19 10.26
10/27/2021 5:15:00 AM 13.35 56.03 0.171 7.39 15.47 10.27
10/27/2021 5:30:00 AM 13.35 56.03 0.171 7.38 14.75 10.27
10/27/2021 5:45:00 AM 13.34 56.012 0.171 7.38 13.7 10.27
10/27/2021 6:00:00 AM 13.33 55.994 0.171 7.38 13.97 10.28
10/27/2021 6:15:00 AM 13.33 55.994 0.17 7.37 14.53 10.28
10/27/2021 6:30:00 AM 13.32 55.976 0.17 7.37 15.17 10.29
10/27/2021 6:45:00 AM 13.31 55.958 0.171 7.37 12.73 10.29
10/27/2021 7:00:00 AM 13.3 55.94 0.171 7.36 14.38 10.29
10/27/2021 7:15:00 AM 13.3 55.94 0.171 7.36 13.54 10.29
10/27/2021 7:30:00 AM 13.29 55.922 0.171 7.38 14.43 10.29
10/27/2021 7:45:00 AM 13.28 55.904 0.171 7.37 12.93 10.29
10/27/2021 8:00:00 AM 13.27 55.886 0.17 7.37 13.64 10.3
10/27/2021 8:15:00 AM 13.26 55.868 0.17 7.36 12.95 10.31
10/27/2021 8:30:00 AM 13.25 55.85 0.17 7.37 12.53 10.32
10/27/2021 8:45:00 AM 13.25 55.85 0.17 7.38 13.91 10.32
10/27/2021 9:00:00 AM 13.24 55.832 0.169 7.45 12.91 10.33
10/27/2021 9:15:00 AM 13.23 55.814 0.169 7.38 13.53 10.33
10/27/2021 9:30:00 AM 13.23 55.814 0.169 7.39 13.1 10.34
10/27/2021 9:45:00 AM 13.23 55.814 0.169 7.39 12.7 10.34
10/27/2021 10:00:00 AM 13.23 55.814 0.169 7.39 13.17 10.35
10/27/2021 10:15:00 AM 13.23 55.814 0.168 7.39 12.38 10.36
10/27/2021 10:30:00 AM 13.23 55.814 0.168 7.39 12.52 10.36
10/27/2021 10:45:00 AM 13.24 55.832 0.168 7.39 12.14 10.36
10/27/2021 11:00:00 AM 13.24 55.832 0.168 7.38 11.7 10.36
10/27/2021 11:15:00 AM 13.24 55.832 0.168 7.38 12.98 10.36
10/27/2021 11:30:00 AM 13.23 55.814 0.168 7.37 12.84 10.37
10/27/2021 11:45:00 AM 13.23 55.814 0.168 7.4 12.11 10.38
10/27/2021 12:00:00 PM 13.25 55.85 0.167 7.36 12.63 10.38
10/27/2021 12:15:00 PM 13.26 55.868 0.167 7.4 12.24 10.39
10/27/2021 12:30:00 PM 13.28 55.904 0.167 7.41 12.53 10.4
10/27/2021 12:45:00 PM 13.29 55.922 0.167 7.41 12.59 10.4
10/27/2021 1:00:00 PM 13.3 55.94 0.167 7.39 13.48 10.4
10/27/2021 1:15:00 PM 13.32 55.976 0.167 7.43 12.54 10.4
10/27/2021 1:30:00 PM 13.32 55.976 0.167 7.46 12.61 10.4
10/27/2021 1:45:00 PM 13.32 55.976 0.167 7.45 12.22 10.4
10/27/2021 2:00:00 PM 13.34 56.012 0.167 7.47 12.19 10.4
10/27/2021 2:15:00 PM 13.35 56.03 0.167 7.55 12.04 10.4
10/27/2021 2:30:00 PM 13.33 55.994 0.166 7.53 12.13 10.39
10/27/2021 2:45:00 PM 13.33 55.994 0.166 7.49 11.69 10.39
10/27/2021 3:00:00 PM 13.32 55.976 0.166 7.45 12.09 10.38
10/27/2021 3:15:00 PM 13.32 55.976 0.166 7.49 11.82 10.37
10/27/2021 3:30:00 PM 13.3 55.94 0.166 7.48 11.83 10.37
10/27/2021 3:45:00 PM 13.28 55.904 0.165 7.49 11.63 10.36
10/27/2021 4:00:00 PM 13.27 55.886 0.165 7.45 12.1 10.36
10/27/2021 4:15:00 PM 13.25 55.85 0.165 7.5 12.15 10.35
10/27/2021 4:30:00 PM 13.23 55.814 0.164 7.42 12.68 10.34
10/27/2021 4:45:00 PM 13.21 55.778 0.164 7.46 11.64 10.34
10/27/2021 5:00:00 PM 13.19 55.742 0.164 7.4 12.48 10.34
10/27/2021 5:15:00 PM 13.17 55.706 0.164 7.46 11.85 10.33
10/27/2021 5:30:00 PM 13.17 55.706 0.165 7.41 12.05 10.33
10/27/2021 5:45:00 PM 13.16 55.688 0.165 7.44 12.03 10.33
10/27/2021 6:00:00 PM 13.15 55.67 0.165 7.45 11.95 10.32
10/27/2021 6:15:00 PM 13.13 55.634 0.165 7.43 11.51 10.32
10/27/2021 6:30:00 PM 13.12 55.616 0.165 7.42 11.36 10.31
10/27/2021 6:45:00 PM 13.11 55.598 0.165 7.43 10.99 10.32
10/27/2021 7:00:00 PM 13.08 55.544 0.165 7.44 11.45 10.32
10/27/2021 7:15:00 PM 13.06 55.508 0.165 7.44 11.46 10.32
10/27/2021 7:30:00 PM 13.05 55.49 0.165 7.43 11.62 10.33
10/27/2021 7:45:00 PM 13.03 55.454 0.165 7.39 11.28 10.32
10/27/2021 8:00:00 PM 13.02 55.436 0.165 7.44 11.15 10.32
10/27/2021 8:15:00 PM 13 55.4 0.165 7.43 10.71 10.33
10/27/2021 8:30:00 PM 12.99 55.382 0.165 7.46 11.54 10.32
10/27/2021 8:45:00 PM 12.98 55.364 0.165 7.4 11.44 10.33
10/27/2021 9:00:00 PM 12.96 55.328 0.165 7.45 14.19 10.33
10/27/2021 9:15:00 PM 12.94 55.292 0.165 7.43 11.29 10.33
10/27/2021 9:30:00 PM 12.91 55.238 0.165 7.42 11 10.33
10/27/2021 9:45:00 PM 12.89 55.202 0.165 7.41 11.27 10.31
10/27/2021 10:00:00 PM 12.87 55.166 0.165 7.42 11.95 10.35
10/27/2021 10:15:00 PM 12.85 55.13 0.165 7.38 11.99 10.34
10/27/2021 10:30:00 PM 12.82 55.076 0.165 7.37 11.16 10.36
10/27/2021 10:45:00 PM 12.8 55.04 0.165 7.4 10.48 10.34
10/27/2021 11:00:00 PM 12.77 54.986 0.165 7.4 11.15 10.35
10/27/2021 11:15:00 PM 12.75 54.95 0.165 7.43 11.47 10.37
10/27/2021 11:30:00 PM 12.73 54.914 0.165 7.39 10.95 10.36
10/27/2021 11:45:00 PM 12.7 54.86 0.165 7.4 11.26 10.37
10/28/2021 12:00:00 AM 12.67 54.806 0.165 7.41 10.55 10.39
10/28/2021 12:15:00 AM 12.64 54.752 0.165 7.42 10.64 10.4
10/28/2021 12:30:00 AM 12.61 54.698 0.164 7.41 11.46 10.39
10/28/2021 12:45:00 AM 12.58 54.644 0.164 7.38 10.75 10.4
10/28/2021 1:00:00 AM 12.55 54.59 0.164 7.41 10.46 10.41
10/28/2021 1:15:00 AM 12.52 54.536 0.164 7.41 10.62 10.41
10/28/2021 1:30:00 AM 12.49 54.482 0.164 7.41 10.75 10.43
10/28/2021 1:45:00 AM 12.46 54.428 0.163 7.38 10.6 10.42
10/28/2021 2:00:00 AM 12.43 54.374 0.163 7.42 10.35 10.43
10/28/2021 2:15:00 AM 12.4 54.32 0.163 7.43 11.01 10.44
10/28/2021 2:30:00 AM 12.37 54.266 0.163 7.4 10.5 10.45
10/28/2021 2:45:00 AM 12.34 54.212 0.163 7.35 10.42 10.46
10/28/2021 3:00:00 AM 12.32 54.176 0.162 7.41 10.27 10.47
10/28/2021 3:15:00 AM 12.29 54.122 0.162 7.41 10.81 10.47
10/28/2021 3:30:00 AM 12.26 54.068 0.162 7.38 10.65 10.47
10/28/2021 3:45:00 AM 12.24 54.032 0.161 7.39 10.7 10.48
10/28/2021 4:00:00 AM 12.22 53.996 0.161 7.4 10.87 10.49
10/28/2021 4:15:00 AM 12.19 53.942 0.161 7.4 11.15 10.48
10/28/2021 4:30:00 AM 12.17 53.906 0.16 7.39 11.54 10.49
10/28/2021 4:45:00 AM 12.15 53.87 0.16 7.39 12.47 10.49
10/28/2021 5:00:00 AM 12.13 53.834 0.16 7.38 12.06 10.5
10/28/2021 5:15:00 AM 12.11 53.798 0.16 7.32 12.64 10.51
10/28/2021 5:30:00 AM 12.09 53.762 0.16 7.38 10.05 10.51
10/28/2021 5:45:00 AM 12.07 53.726 0.16 7.37 11.88 10.52
10/28/2021 6:00:00 AM 12.05 53.69 0.159 7.39 11.57 10.52
10/28/2021 6:15:00 AM 12.03 53.654 0.159 7.4 11.32 10.53
10/28/2021 6:30:00 AM 12.01 53.618 0.159 7.4 11.88 10.53
10/28/2021 6:45:00 AM 11.99 53.582 0.159 7.38 10.35 10.54
10/28/2021 7:00:00 AM 11.97 53.546 0.159 7.33 11.32 10.54
10/28/2021 7:15:00 AM 11.95 53.51 0.159 7.38 12.33 10.55
10/28/2021 7:30:00 AM 11.93 53.474 0.159 7.38 12.4 10.55
10/28/2021 7:45:00 AM 11.91 53.438 0.159 7.37 11.8 10.55
10/28/2021 8:00:00 AM 11.9 53.42 0.159 7.37 10.95 10.56
10/28/2021 8:15:00 AM 11.89 53.402 0.159 7.36 11.28 10.57
10/28/2021 8:30:00 AM 11.88 53.384 0.159 7.37 11.25 10.58
10/28/2021 8:45:00 AM 11.88 53.384 0.159 7.37 10.31 10.59
10/28/2021 9:00:00 AM 11.88 53.384 0.159 7.39 10.05 10.59
10/28/2021 9:15:00 AM 11.89 53.402 0.159 7.37 10.94 10.62
10/28/2021 9:30:00 AM 11.9 53.42 0.159 7.35 11.84 10.63
10/28/2021 9:45:00 AM 11.91 53.438 0.159 7.42 11.35 10.65
10/28/2021 10:00:00 AM 11.94 53.492 0.159 7.34 11.07 10.66
10/28/2021 10:15:00 AM 11.95 53.51 0.159 7.42 14.38 10.67
10/28/2021 10:30:00 AM 12 53.6 0.159 7.39 19.65 10.67
10/28/2021 10:45:00 AM 12.04 53.672 0.159 7.4 9.98 10.67
10/28/2021 11:00:00 AM 12.06 53.708 0.159 7.43 13.57 10.67
10/28/2021 11:15:00 AM 12.12 53.816 0.159 7.44 12.49 10.67
10/28/2021 11:30:00 AM 12.17 53.906 0.159 7.45 11.42 10.67
10/28/2021 11:45:00 AM 12.22 53.996 0.159 7.38 11.93 10.66
10/28/2021 12:00:00 PM 12.27 54.086 0.159 7.41 10.35 10.63
10/28/2021 12:15:00 PM 12.33 54.194 0.159 7.48 10.08 10.64
10/28/2021 12:30:00 PM 12.4 54.32 0.159 7.43 11.34 10.61
10/28/2021 12:45:00 PM 12.47 54.446 0.159 7.44 15.26 10.6
10/28/2021 1:00:00 PM 12.55 54.59 0.159 7.45 11.28 10.59
10/28/2021 1:15:00 PM 12.62 54.716 0.159 7.41 11.74 10.57
10/28/2021 1:30:00 PM 12.69 54.842 0.159 7.46 10.11 10.56
10/28/2021 1:45:00 PM 12.75 54.95 0.159 7.47 12.73 10.54
10/28/2021 2:00:00 PM 12.8 55.04 0.159 7.46 10.54 10.51
10/28/2021 2:15:00 PM 12.84 55.112 0.159 7.43 12.13 10.5
10/28/2021 2:30:00 PM 12.87 55.166 0.159 7.41 10.37 10.48
10/28/2021 2:45:00 PM 12.89 55.202 0.159 7.48 9.42 10.47
10/28/2021 3:00:00 PM 12.91 55.238 0.159 7.47 4636.93 10.45
10/28/2021 3:15:00 PM 12.92 55.256 0.159 7.45 18.36 10.43
10/28/2021 3:30:00 PM 12.93 55.274 0.158 7.47 9.24 10.42
10/28/2021 3:45:00 PM 12.92 55.256 0.158 7.45 9.96 10.42
10/28/2021 4:00:00 PM 12.92 55.256 0.158 7.4 10.67 10.4
10/28/2021 4:15:00 PM 12.92 55.256 0.158 7.4 10.14 10.37
10/28/2021 4:30:00 PM 12.92 55.256 0.157 7.45 9.71 10.37
10/28/2021 4:45:00 PM 12.91 55.238 0.157 7.45 13.08 10.36
10/28/2021 5:00:00 PM 12.9 55.22 0.157 7.44 10.62 10.34
10/28/2021 5:15:00 PM 12.88 55.184 0.157 7.42 11.07 10.34
10/28/2021 5:30:00 PM 12.86 55.148 0.157 7.37 9.93 10.34
10/28/2021 5:45:00 PM 12.83 55.094 0.156 7.41 9.92 10.32
10/28/2021 6:00:00 PM 12.8 55.04 0.156 7.42 9.98 10.33
10/28/2021 6:15:00 PM 12.78 55.004 0.156 7.41 10.42 10.31
10/28/2021 6:30:00 PM 12.75 54.95 0.156 7.36 9.63 10.33
10/28/2021 6:45:00 PM 12.72 54.896 0.156 7.4 10 10.33
10/28/2021 7:00:00 PM 12.7 54.86 0.156 7.39 10.16 10.33
10/28/2021 7:15:00 PM 12.67 54.806 0.156 7.4 9.72 10.33
10/28/2021 7:30:00 PM 12.64 54.752 0.156 7.38 3175.89 10.33
10/28/2021 7:45:00 PM 12.61 54.698 0.156 7.35 11.61 10.33
10/28/2021 8:00:00 PM 12.57 54.626 0.156 7.37 10.26 10.35
10/28/2021 8:15:00 PM 12.53 54.554 0.156 7.39 9.71 10.32
10/28/2021 8:30:00 PM 12.49 54.482 0.156 7.37 10.67 10.36
10/28/2021 8:45:00 PM 12.44 54.392 0.156 7.36 9.88 10.37
10/28/2021 9:00:00 PM 12.41 54.338 0.156 7.37 9.88 10.38
10/28/2021 9:15:00 PM 12.37 54.266 0.156 7.37 9.93 10.37
10/28/2021 9:30:00 PM 12.33 54.194 0.156 7.39 9.55 10.4
10/28/2021 9:45:00 PM 12.3 54.14 0.156 7.39 9.59 10.4
10/28/2021 10:00:00 PM 12.27 54.086 0.156 7.34 10.3 10.41
10/28/2021 10:15:00 PM 12.23 54.014 0.156 7.39 9.44 10.42
10/28/2021 10:30:00 PM 12.2 53.96 0.156 7.39 9.06 10.43
10/28/2021 10:45:00 PM 12.17 53.906 0.156 7.34 8.98 10.44
10/28/2021 11:00:00 PM 12.14 53.852 0.156 7.38 9.33 10.44
10/28/2021 11:15:00 PM 12.11 53.798 0.157 7.35 9.26 10.46
10/28/2021 11:30:00 PM 12.1 53.78 0.157 7.38 8.72 10.46
10/28/2021 11:45:00 PM 12.09 53.762 0.157 7.35 9.21 10.46
10/29/2021 12:00:00 AM 12.08 53.744 0.157 7.38 9.44 10.47
10/29/2021 12:15:00 AM 12.06 53.708 0.157 7.43 8.88 10.47
10/29/2021 12:30:00 AM 12.04 53.672 0.158 7.39 9.1 10.48
10/29/2021 12:45:00 AM 12.02 53.636 0.158 7.35 9.26 10.48
10/29/2021 1:00:00 AM 12 53.6 0.158 7.39 9.26 10.48
10/29/2021 1:15:00 AM 11.99 53.582 0.158 7.35 9 10.48
10/29/2021 1:30:00 AM 11.99 53.582 0.158 7.41 8.95 10.48
10/29/2021 1:45:00 AM 11.99 53.582 0.158 7.41 8.77 10.48
10/29/2021 2:00:00 AM 11.97 53.546 0.158 7.4 11.2 10.48
10/29/2021 2:15:00 AM 11.97 53.546 0.158 7.41 8.85 10.48
10/29/2021 2:30:00 AM 11.95 53.51 0.159 7.39 9.03 10.49
10/29/2021 2:45:00 AM 11.94 53.492 0.159 7.4 8.79 10.48
10/29/2021 3:00:00 AM 11.94 53.492 0.159 7.35 9.03 10.49
10/29/2021 3:15:00 AM 11.96 53.528 0.16 7.41 7.94 10.49
10/29/2021 3:30:00 AM 11.99 53.582 0.16 7.43 8 10.48
10/29/2021 3:45:00 AM 12.03 53.654 0.16 7.36 7.93 10.48
10/29/2021 4:00:00 AM 12.05 53.69 0.16 7.43 8.01 10.47
10/29/2021 4:15:00 AM 12.07 53.726 0.16 7.43 11.51 10.47
10/29/2021 4:30:00 AM 12.09 53.762 0.16 7.43 8.05 10.46
10/29/2021 4:45:00 AM 12.1 53.78 0.16 7.44 8.1 10.45
10/29/2021 5:00:00 AM 12.11 53.798 0.16 7.43 8.81 10.45
10/29/2021 5:15:00 AM 12.11 53.798 0.159 7.44 8.3 10.45
10/29/2021 5:30:00 AM 12.12 53.816 0.16 7.42 8.63 10.45
10/29/2021 5:45:00 AM 12.13 53.834 0.16 7.44 7.5 10.45
10/29/2021 6:00:00 AM 12.14 53.852 0.16 7.45 7.76 10.44
10/29/2021 6:15:00 AM 12.15 53.87 0.16 7.44 8.12 10.44
10/29/2021 6:30:00 AM 12.14 53.852 0.16 7.44 8.11 10.44
10/29/2021 6:45:00 AM 12.14 53.852 0.16 7.43 8.25 10.44
10/29/2021 7:00:00 AM 12.14 53.852 0.16 7.42 7.64 10.45
10/29/2021 7:15:00 AM 12.13 53.834 0.16 7.37 7.85 10.44
10/29/2021 7:30:00 AM 12.11 53.798 0.161 7.39 7.54 10.44
10/29/2021 7:45:00 AM 12.11 53.798 0.161 7.43 7.51 10.44
10/29/2021 8:00:00 AM 12.1 53.78 0.161 7.43 7.39 10.46
10/29/2021 8:15:00 AM 12.09 53.762 0.161 7.41 7.46 10.46
10/29/2021 8:30:00 AM 12.06 53.708 0.161 7.45 7.4 10.47
10/29/2021 8:45:00 AM 12.05 53.69 0.161 7.45 7.51 10.49
10/29/2021 9:00:00 AM 12.04 53.672 0.161 7.43 7.37 10.51
10/29/2021 9:15:00 AM 12.03 53.654 0.162 7.45 7.35 10.52
10/29/2021 9:30:00 AM 12.01 53.618 0.162 7.45 7.2 10.55
10/29/2021 9:45:00 AM 12.01 53.618 0.162 7.47 7.24 10.57
10/29/2021 10:00:00 AM 12.01 53.618 0.162 7.48 7.29 10.59
10/29/2021 10:15:00 AM 12.02 53.636 0.162 7.43 7.11 10.61
10/29/2021 10:30:00 AM 12.05 53.69 0.162 7.51 6.89 10.64
10/29/2021 10:45:00 AM 12.07 53.726 0.162 7.51 6.69 10.66
10/29/2021 11:00:00 AM 12.09 53.762 0.162 7.46 6.74 10.67
10/29/2021 11:15:00 AM 12.11 53.798 0.162 7.51 7.82 10.68
10/29/2021 11:30:00 AM 12.14 53.852 0.162 7.49 7.18 10.69
10/29/2021 11:45:00 AM 12.18 53.924 0.162 7.52 7.97 10.69
10/29/2021 12:00:00 PM 12.22 53.996 0.162 7.53 8.02 10.7
10/29/2021 12:15:00 PM 12.26 54.068 0.162 7.51 9.93 10.7
10/29/2021 12:30:00 PM 12.28 54.104 0.162 7.55 7.19 10.69
10/29/2021 12:45:00 PM 12.3 54.14 0.162 7.54 6.94 10.67
10/29/2021 1:00:00 PM 12.32 54.176 0.162 7.5 7.44 10.66
10/29/2021 1:15:00 PM 12.37 54.266 0.162 7.56 7.39 10.65
10/29/2021 1:30:00 PM 12.4 54.32 0.162 7.56 11.85 10.64
10/29/2021 1:45:00 PM 12.42 54.356 0.162 7.56 7.45 10.63
10/29/2021 2:00:00 PM 12.41 54.338 0.162 7.54 7.48 10.6
10/29/2021 2:15:00 PM 12.42 54.356 0.162 7.54 7.48 10.61
10/29/2021 2:30:00 PM 12.41 54.338 0.162 7.55 7.29 10.6
10/29/2021 2:45:00 PM 12.43 54.374 0.162 7.56 7.8 10.59
10/29/2021 3:00:00 PM 12.43 54.374 0.162 7.55 7.17 10.58
10/29/2021 3:15:00 PM 12.44 54.392 0.162 7.54 7.15 10.55
10/29/2021 3:30:00 PM 12.43 54.374 0.162 7.51 7.15 10.51
10/29/2021 3:45:00 PM 12.41 54.338 0.162 7.52 9.85 10.48
10/29/2021 4:00:00 PM 12.4 54.32 0.162 7.48 8.07 10.46
10/29/2021 4:15:00 PM 12.39 54.302 0.162 7.51 11.85 10.45
10/29/2021 4:30:00 PM 12.35 54.23 0.162 7.48 12.28 10.44
10/29/2021 4:45:00 PM 12.31 54.158 0.162 7.5 12.18 10.44
10/29/2021 5:00:00 PM 12.28 54.104 0.161 7.5 12.6 10.44
10/29/2021 5:15:00 PM 12.23 54.014 0.161 7.52 11.57 10.42
10/29/2021 5:30:00 PM 12.19 53.942 0.161 7.51 11.93 10.42
10/29/2021 5:45:00 PM 12.14 53.852 0.161 7.49 10.03 10.4
10/29/2021 6:00:00 PM 12.1 53.78 0.161 7.49 10.96 10.4
10/29/2021 6:15:00 PM 12.06 53.708 0.161 7.49 12.35 10.37
10/29/2021 6:30:00 PM 12.03 53.654 0.161 7.49 11.11 10.36
10/29/2021 6:45:00 PM 12 53.6 0.161 7.48 10.52 10.35
10/29/2021 7:00:00 PM 11.98 53.564 0.161 7.47 7.37 10.37
10/29/2021 7:15:00 PM 11.95 53.51 0.161 7.44 8.29 10.37
10/29/2021 7:30:00 PM 11.93 53.474 0.161 7.46 7.93 10.36
10/29/2021 7:45:00 PM 11.9 53.42 0.161 7.47 7.38 10.36
10/29/2021 8:00:00 PM 11.87 53.366 0.161 7.46 9.45 10.36
10/29/2021 8:15:00 PM 11.86 53.348 0.161 7.43 9.57 10.37
10/29/2021 8:30:00 PM 11.85 53.33 0.162 7.46 7.72 10.38
10/29/2021 8:45:00 PM 11.83 53.294 0.162 7.46 8.4 10.37
10/29/2021 9:00:00 PM 11.81 53.258 0.161 7.42 7.71 10.39
10/29/2021 9:15:00 PM 11.8 53.24 0.161 7.49 6.34 10.4
10/29/2021 9:30:00 PM 11.74 53.132 0.159 7.45 9.21 10.43
10/29/2021 9:45:00 PM 11.68 53.024 0.157 7.43 8.15 10.47
10/29/2021 10:00:00 PM 11.61 52.898 0.154 7.45 20.24 10.5
10/29/2021 10:15:00 PM 11.56 52.808 0.152 7.42 32.2 10.51
10/29/2021 10:30:00 PM 11.52 52.736 0.154 7.38 23.79 10.51
10/29/2021 10:45:00 PM 11.47 52.646 0.156 7.4 22.85 10.52
10/29/2021 11:00:00 PM 11.39 52.502 0.158 7.37 33.94 10.53
10/29/2021 11:15:00 PM 11.32 52.376 0.159 7.36 38.81 10.54
10/29/2021 11:30:00 PM 11.22 52.196 0.156 7.34 49.06 10.57
10/29/2021 11:45:00 PM 11.18 52.124 0.15 7.35 41.64 10.6
10/30/2021 12:00:00 AM 11.16 52.088 0.146 7.3 43 10.61
10/30/2021 12:15:00 AM 11.14 52.052 0.146 7.36 41.11 10.62
10/30/2021 12:30:00 AM 11.1 51.98 0.144 7.36 44.49 10.62
10/30/2021 12:45:00 AM 11.06 51.908 0.143 7.36 42.11 10.65
10/30/2021 1:00:00 AM 11.03 51.854 0.147 7.38 39.82 10.65
10/30/2021 1:15:00 AM 11.03 51.854 0.157 7.36 32.94 10.65
10/30/2021 1:30:00 AM 11.04 51.872 0.167 7.36 30.01 10.65
10/30/2021 1:45:00 AM 11.04 51.872 0.169 7.36 27.2 10.64
10/30/2021 2:00:00 AM 11.05 51.89 0.164 7.39 27.58 10.64
10/30/2021 2:15:00 AM 11.06 51.908 0.16 7.37 26.34 10.63
10/30/2021 2:30:00 AM 11.07 51.926 0.158 7.32 24.68 10.63
10/30/2021 2:45:00 AM 11.09 51.962 0.156 7.36 18.69 10.62
10/30/2021 3:00:00 AM 11.11 51.998 0.155 7.39 19.18 10.62
10/30/2021 3:15:00 AM 11.14 52.052 0.154 7.35 19.54 10.61
10/30/2021 3:30:00 AM 11.15 52.07 0.154 7.38 14.92 10.6
10/30/2021 3:45:00 AM 11.17 52.106 0.153 7.35 16.63 10.59
10/30/2021 4:00:00 AM 11.19 52.142 0.152 7.4 19.14 10.58
10/30/2021 4:15:00 AM 11.21 52.178 0.152 7.39 13.85 10.57
10/30/2021 4:30:00 AM 11.22 52.196 0.151 7.33 31.23 10.57
10/30/2021 4:45:00 AM 11.25 52.25 0.151 7.38 17.27 10.57
10/30/2021 5:00:00 AM 11.26 52.268 0.15 7.45 16.02 10.56
10/30/2021 5:15:00 AM 11.28 52.304 0.15 7.41 13.59 10.55
10/30/2021 5:30:00 AM 11.3 52.34 0.15 7.4 11.89 10.55
10/30/2021 5:45:00 AM 11.32 52.376 0.15 7.49 43.88 10.55
10/30/2021 6:00:00 AM 11.33 52.394 0.149 7.44 34.12 10.54
10/30/2021 6:15:00 AM 11.35 52.43 0.149 7.41 12.35 10.53
10/30/2021 6:30:00 AM 11.37 52.466 0.149 7.4 16.12 10.54
10/30/2021 6:45:00 AM 11.39 52.502 0.149 7.39 11.82 10.53
10/30/2021 7:00:00 AM 11.41 52.538 0.148 7.39 11.75 10.52
10/30/2021 7:15:00 AM 11.42 52.556 0.148 7.34 1335.67 10.53
10/30/2021 7:30:00 AM 11.44 52.592 0.148 7.4 13.48 10.52
10/30/2021 7:45:00 AM 11.46 52.628 0.148 7.37 25.85 10.52
10/30/2021 8:00:00 AM 11.48 52.664 0.148 7.38 32.8 10.51
10/30/2021 8:15:00 AM 11.49 52.682 0.148 7.38 9.68 10.52
10/30/2021 8:30:00 AM 11.51 52.718 0.148 7.39 9.38 10.53
10/30/2021 8:45:00 AM 11.52 52.736 0.148 7.4 11.68 10.52
10/30/2021 9:00:00 AM 11.54 52.772 0.148 7.4 11.47 10.53
10/30/2021 9:15:00 AM 11.56 52.808 0.148 7.34 10.73 10.53
10/30/2021 9:30:00 AM 11.58 52.844 0.148 7.39 9.97 10.53
10/30/2021 9:45:00 AM 11.6 52.88 0.148 7.37 10.13 10.54
10/30/2021 10:00:00 AM 11.62 52.916 0.148 7.36 10.44 10.54
10/30/2021 10:15:00 AM 11.64 52.952 0.148 7.38 9.67 10.55
10/30/2021 10:30:00 AM 11.64 52.952 0.148 7.42 10.1 10.55
10/30/2021 10:45:00 AM 11.66 52.988 0.147 7.35 10.2 10.55
10/30/2021 11:00:00 AM 11.67 53.006 0.147 7.43 10.86 10.56
10/30/2021 11:15:00 AM 11.68 53.024 0.147 7.42 9.77 10.56
10/30/2021 11:30:00 AM 11.7 53.06 0.147 7.41 12.66 10.56
10/30/2021 11:45:00 AM 11.71 53.078 0.148 7.38 12.37 10.56
10/30/2021 12:00:00 PM 11.75 53.15 0.148 7.43 12.87 10.57
10/30/2021 12:15:00 PM 11.81 53.258 0.149 7.38 15.04 10.59
10/30/2021 12:30:00 PM 11.85 53.33 0.149 7.45 13.59 10.6
10/30/2021 12:45:00 PM 11.87 53.366 0.149 7.46 16.22 10.6
10/30/2021 1:00:00 PM 11.87 53.366 0.149 7.45 14.97 10.57
10/30/2021 1:15:00 PM 11.87 53.366 0.149 7.48 16.24 10.56
10/30/2021 1:30:00 PM 11.9 53.42 0.149 7.4 13.85 10.57
10/30/2021 1:45:00 PM 11.91 53.438 0.15 7.43 12.1 10.56
10/30/2021 2:00:00 PM 11.92 53.456 0.151 7.46 19.25 10.56
10/30/2021 2:15:00 PM 11.93 53.474 0.151 7.44 12.24 10.55
10/30/2021 2:30:00 PM 11.95 53.51 0.152 7.48 12.77 10.54
10/30/2021 2:45:00 PM 11.97 53.546 0.153 7.48 12.29 10.54
10/30/2021 3:00:00 PM 12.01 53.618 0.154 7.46 13.82 10.56
10/30/2021 3:15:00 PM 12.04 53.672 0.155 7.47 13.49 10.55
10/30/2021 3:30:00 PM 12.06 53.708 0.111 7.5 12.55 10.54
10/30/2021 3:45:00 PM 12.09 53.762 0.114 7.47 12.96 10.52
10/30/2021 4:00:00 PM 12.11 53.798 0.153 7.48 12.74 10.5
10/30/2021 4:15:00 PM 12.13 53.834 0.152 7.47 10.89 10.48
10/30/2021 4:30:00 PM 12.13 53.834 0.151 7.65 10.88 10.46
10/30/2021 4:45:00 PM 12.13 53.834 0.151 7.51 11.12 10.45
10/30/2021 5:00:00 PM 12.14 53.852 0.151 7.47 9.56 10.44
10/30/2021 5:15:00 PM 12.14 53.852 0.15 7.45 13.71 10.43
10/30/2021 5:30:00 PM 12.14 53.852 0.15 7.44 11.75 10.43
10/30/2021 5:45:00 PM 12.14 53.852 0.15 7.42 13.36 10.42
10/30/2021 6:00:00 PM 12.14 53.852 0.15 7.41 133.78 10.42
10/30/2021 6:15:00 PM 12.13 53.834 0.15 7.41 19.03 10.41
10/30/2021 6:30:00 PM 12.12 53.816 0.149 7.41 9.06 10.4
10/30/2021 6:45:00 PM 12.11 53.798 0.15 7.36 8.49 10.4
10/30/2021 7:00:00 PM 12.1 53.78 0.149 7.38 11.09 10.4
10/30/2021 7:15:00 PM 12.09 53.762 0.149 7.41 16.53 10.39
10/30/2021 7:30:00 PM 12.08 53.744 0.149 7.39 9.06 10.39
10/30/2021 7:45:00 PM 12.07 53.726 0.149 7.41 10.15 10.4
10/30/2021 8:00:00 PM 12.06 53.708 0.149 7.39 11.24 10.4
10/30/2021 8:15:00 PM 12.04 53.672 0.148 7.41 8.4 10.4
10/30/2021 8:30:00 PM 12.02 53.636 0.149 7.4 12.67 10.41
10/30/2021 8:45:00 PM 12.01 53.618 0.149 7.39 9.1 10.41
10/30/2021 9:00:00 PM 12 53.6 0.149 7.39 11.69 10.41
10/30/2021 9:15:00 PM 11.99 53.582 0.149 7.35 11.24 10.41
10/30/2021 9:30:00 PM 11.98 53.564 0.149 7.36 12.3 10.42
10/30/2021 9:45:00 PM 11.96 53.528 0.149 7.39 9.21 10.42
10/30/2021 10:00:00 PM 11.94 53.492 0.149 7.35 9.93 10.42
10/30/2021 10:15:00 PM 11.92 53.456 0.149 7.39 10.96 10.43
10/30/2021 10:30:00 PM 11.9 53.42 0.149 7.37 10.45 10.43
10/30/2021 10:45:00 PM 11.88 53.384 0.15 7.39 12.43 10.44
10/30/2021 11:00:00 PM 11.85 53.33 0.15 7.37 44.13 10.44
10/30/2021 11:15:00 PM 11.83 53.294 0.15 7.3 10.02 10.45
10/30/2021 11:30:00 PM 11.81 53.258 0.15 7.32 9.55 10.45
10/30/2021 11:45:00 PM 11.8 53.24 0.15 7.33 13.05 10.45
10/31/2021 12:00:00 AM 11.78 53.204 0.15 7.37 9.04 10.45
10/31/2021 12:15:00 AM 11.77 53.186 0.15 7.37 7.53 10.45
10/31/2021 12:30:00 AM 11.76 53.168 0.15 7.4 10.4 10.45
10/31/2021 12:45:00 AM 11.74 53.132 0.151 7.36 8.37 10.46
10/31/2021 1:00:00 AM 11.73 53.114 0.151 7.3 13.41 10.46
10/31/2021 1:15:00 AM 11.72 53.096 0.151 7.35 11.23 10.45
10/31/2021 1:30:00 AM 11.71 53.078 0.148 7.37 8.91 10.46
10/31/2021 1:45:00 AM 11.7 53.06 0.151 7.36 9.39 10.46
10/31/2021 2:00:00 AM 11.69 53.042 0.151 7.35 9.89 10.47
10/31/2021 2:15:00 AM 11.68 53.024 0.151 7.37 12.03 10.46
10/31/2021 2:30:00 AM 11.67 53.006 0.151 7.36 8.55 10.47
10/31/2021 2:45:00 AM 11.67 53.006 0.151 7.34 6.72 10.46
10/31/2021 3:00:00 AM 11.67 53.006 0.151 7.37 9.87 10.46
10/31/2021 3:15:00 AM 11.67 53.006 0.077 7.38 7.82 10.46
10/31/2021 3:30:00 AM 11.67 53.006 0.152 7.36 7.55 10.46
10/31/2021 3:45:00 AM 11.67 53.006 0.152 7.33 8.01 10.46
10/31/2021 4:00:00 AM 11.67 53.006 0.151 7.32 8.37 10.45
10/31/2021 4:15:00 AM 11.67 53.006 0.152 7.37 7.68 10.45
10/31/2021 4:30:00 AM 11.67 53.006 0.152 7.36 8.23 10.46
10/31/2021 4:45:00 AM 11.67 53.006 0.152 7.37 6.87 10.46
10/31/2021 5:00:00 AM 11.67 53.006 0.152 7.34 7.07 10.45
10/31/2021 5:15:00 AM 11.67 53.006 0.152 7.39 6.64 10.46
10/31/2021 5:30:00 AM 11.67 53.006 0.152 7.39 6.42 10.46
10/31/2021 5:45:00 AM 11.67 53.006 0.152 7.33 6.82 10.46
10/31/2021 6:00:00 AM 11.67 53.006 0.152 7.4 9.5 10.46
10/31/2021 6:15:00 AM 11.67 53.006 0.152 7.34 6.9 10.46
10/31/2021 6:30:00 AM 11.67 53.006 0.152 7.39 6.29 10.46
10/31/2021 6:45:00 AM 11.66 52.988 0.152 7.39 6.21 10.46
10/31/2021 7:00:00 AM 11.66 52.988 0.152 7.37 7.45 10.47
10/31/2021 7:15:00 AM 11.65 52.97 0.153 7.39 8.09 10.47
10/31/2021 7:30:00 AM 11.65 52.97 0.153 7.38 6.17 10.47
10/31/2021 7:45:00 AM 11.65 52.97 0.153 7.39 7.63 10.47
10/31/2021 8:00:00 AM 11.65 52.97 0.153 7.38 10.93 10.48
10/31/2021 8:15:00 AM 11.64 52.952 0.153 7.4 6.72 10.48
10/31/2021 8:30:00 AM 11.64 52.952 0.153 7.4 6.74 10.49
10/31/2021 8:45:00 AM 11.64 52.952 0.153 7.39 6.87 10.49
10/31/2021 9:00:00 AM 11.64 52.952 0.153 7.35 5.8 10.51
10/31/2021 9:15:00 AM 11.64 52.952 0.153 7.39 6.42 10.51
10/31/2021 9:30:00 AM 11.65 52.97 0.154 7.39 5.57 10.52
10/31/2021 9:45:00 AM 11.66 52.988 0.154 7.4 12.79 10.53
10/31/2021 10:00:00 AM 11.66 52.988 0.154 7.38 6.05 10.54
10/31/2021 10:15:00 AM 11.67 53.006 0.154 7.39 5.54 10.55
10/31/2021 10:30:00 AM 11.68 53.024 0.154 7.36 5.32 10.55
10/31/2021 10:45:00 AM 11.7 53.06 0.154 7.42 5.68 10.57
10/31/2021 11:00:00 AM 11.71 53.078 0.154 7.43 5.34 10.57
10/31/2021 11:15:00 AM 11.73 53.114 0.154 7.43 6.38 10.59
10/31/2021 11:30:00 AM 11.77 53.186 0.154 7.43 5.37 10.61
10/31/2021 11:45:00 AM 11.81 53.258 0.154 7.43 5.33 10.65
10/31/2021 12:00:00 PM 11.87 53.366 0.154 7.44 5.51 10.66
10/31/2021 12:15:00 PM 11.9 53.42 0.154 7.44 7.48 10.66
10/31/2021 12:30:00 PM 11.95 53.51 0.154 7.42 7.38 10.67
10/31/2021 12:45:00 PM 12.02 53.636 0.154 7.49 6.17 10.68
10/31/2021 1:00:00 PM 12.05 53.69 0.155 7.5 6.03 10.68
10/31/2021 1:15:00 PM 12.08 53.744 0.155 7.49 5.68 10.66
10/31/2021 1:30:00 PM 12.11 53.798 0.155 7.48 6.85 10.63
10/31/2021 1:45:00 PM 12.13 53.834 0.155 7.45 5.57 10.62
10/31/2021 2:00:00 PM 12.17 53.906 0.155 7.5 5.47 10.62
10/31/2021 2:15:00 PM 12.21 53.978 0.155 7.5 5.15 10.63
10/31/2021 2:30:00 PM 12.25 54.05 0.155 7.51 6.8 10.62
10/31/2021 2:45:00 PM 12.29 54.122 0.155 7.5 7.13 10.63
10/31/2021 3:00:00 PM 12.33 54.194 0.156 7.53 5.64 10.61
10/31/2021 3:15:00 PM 12.36 54.248 0.157 7.5 6.05 10.62
10/31/2021 3:30:00 PM 12.36 54.248 0.157 7.54 6.26 10.6
10/31/2021 3:45:00 PM 12.35 54.23 0.157 7.53 5.39 10.59
10/31/2021 4:00:00 PM 12.35 54.23 0.157 7.52 5.29 10.58
10/31/2021 4:15:00 PM 12.35 54.23 0.157 7.51 5.24 10.57
10/31/2021 4:30:00 PM 12.33 54.194 0.157 7.53 5.36 10.54
10/31/2021 4:45:00 PM 12.31 54.158 0.156 7.54 5.72 10.52
10/31/2021 5:00:00 PM 12.3 54.14 0.156 7.49 5.74 10.49
10/31/2021 5:15:00 PM 12.28 54.104 0.156 7.48 5.75 10.48
10/31/2021 5:30:00 PM 12.26 54.068 0.157 7.44 5.49 10.45
10/31/2021 5:45:00 PM 12.23 54.014 0.157 7.47 5.93 10.44
10/31/2021 6:00:00 PM 12.2 53.96 0.158 7.44 5.87 10.43
10/31/2021 6:15:00 PM 12.17 53.906 0.158 7.45 13.7 10.42
10/31/2021 6:30:00 PM 12.14 53.852 0.158 7.43 6.23 10.41
10/31/2021 6:45:00 PM 12.11 53.798 0.159 7.39 5.76 10.41
10/31/2021 7:00:00 PM 12.08 53.744 0.159 7.43 5.9 10.42
10/31/2021 7:15:00 PM 12.05 53.69 0.159 7.44 6.39 10.43
10/31/2021 7:30:00 PM 12.03 53.654 0.16 7.44 5.59 10.43
10/31/2021 7:45:00 PM 12 53.6 0.16 7.43 13.87 10.44
10/31/2021 8:00:00 PM 11.98 53.564 0.16 7.43 6.08 10.44
10/31/2021 8:15:00 PM 11.96 53.528 0.161 7.43 5.79 10.45
10/31/2021 8:30:00 PM 11.92 53.456 0.161 7.43 5.96 10.46
10/31/2021 8:45:00 PM 11.89 53.402 0.161 7.44 5.7 10.47
10/31/2021 9:00:00 PM 11.85 53.33 0.162 7.43 5.97 10.47
10/31/2021 9:15:00 PM 11.82 53.276 0.162 7.42 5.55 10.48
10/31/2021 9:30:00 PM 11.78 53.204 0.162 7.42 5.87 10.5
10/31/2021 9:45:00 PM 11.74 53.132 0.162 7.43 5.6 10.51
10/31/2021 10:00:00 PM 11.7 53.06 0.162 7.42 6.33 10.51
10/31/2021 10:15:00 PM 11.68 53.024 0.163 7.38 5.78 10.53
10/31/2021 10:30:00 PM 11.66 52.988 0.163 7.41 5.52 10.53
10/31/2021 10:45:00 PM 11.62 52.916 0.163 7.4 5.47 10.55
10/31/2021 11:00:00 PM 11.59 52.862 0.162 7.42 5.56 10.55
10/31/2021 11:15:00 PM 11.55 52.79 0.162 7.41 5.62 10.56
10/31/2021 11:30:00 PM 11.52 52.736 0.162 7.4 5.62 10.57
10/31/2021 11:45:00 PM 11.49 52.682 0.162 7.4 5.7 10.58
11/1/2021 12:00:00 AM 11.47 52.646 0.162 7.39 5.6 10.58
11/1/2021 12:15:00 AM 11.45 52.61 0.161 7.43 5.43 10.58
11/1/2021 12:30:00 AM 11.43 52.574 0.161 7.41 5.78 10.59
11/1/2021 12:45:00 AM 11.41 52.538 0.161 7.35 5.27 10.6
11/1/2021 1:00:00 AM 11.41 52.538 0.161 7.41 6.67 10.6
11/1/2021 1:15:00 AM 11.41 52.538 0.161 7.4 6.03 10.61
11/1/2021 1:30:00 AM 11.4 52.52 0.16 7.42 6.37 10.61
11/1/2021 1:45:00 AM 11.4 52.52 0.16 7.42 6.16 10.6
11/1/2021 2:00:00 AM 11.4 52.52 0.16 7.42 6.19 10.61
11/1/2021 2:15:00 AM 11.4 52.52 0.16 7.42 6.06 10.6
11/1/2021 2:30:00 AM 11.4 52.52 0.16 7.41 7.36 10.61
11/1/2021 2:45:00 AM 11.4 52.52 0.16 7.43 24.97 10.61
11/1/2021 3:00:00 AM 11.4 52.52 0.16 7.43 8.78 10.62
11/1/2021 3:15:00 AM 11.4 52.52 0.159 7.41 5.31 10.62
11/1/2021 3:30:00 AM 11.41 52.538 0.16 7.41 6.32 10.62
11/1/2021 3:45:00 AM 11.41 52.538 0.16 7.4 5.2 10.62
11/1/2021 4:00:00 AM 11.42 52.556 0.159 7.41 5.15 10.62
11/1/2021 4:15:00 AM 11.43 52.574 0.159 7.42 5.19 10.61
11/1/2021 4:30:00 AM 11.43 52.574 0.159 7.41 5.21 10.61
11/1/2021 4:45:00 AM 11.43 52.574 0.159 7.42 6.76 10.62
11/1/2021 5:00:00 AM 11.41 52.538 0.159 7.38 7.39 10.63
11/1/2021 5:15:00 AM 11.42 52.556 0.159 7.41 12.93 10.62
11/1/2021 5:30:00 AM 11.42 52.556 0.159 7.43 5.49 10.62
11/1/2021 5:45:00 AM 11.42 52.556 0.159 7.43 6.3 10.62
11/1/2021 6:00:00 AM 11.42 52.556 0.159 7.43 6.68 10.63
11/1/2021 6:15:00 AM 11.41 52.538 0.159 7.43 5.76 10.63
11/1/2021 6:30:00 AM 11.4 52.52 0.159 7.44 6.18 10.64
11/1/2021 6:45:00 AM 11.39 52.502 0.159 7.44 5.75 10.64
11/1/2021 7:00:00 AM 11.38 52.484 0.159 7.43 6.09 10.65
11/1/2021 7:15:00 AM 11.37 52.466 0.159 7.43 7.66 10.65
11/1/2021 7:30:00 AM 11.35 52.43 0.159 7.42 5.47 10.67
11/1/2021 7:45:00 AM 11.34 52.412 0.159 7.44 5.74 10.66
11/1/2021 8:00:00 AM 11.33 52.394 0.159 7.43 5.72 10.68
11/1/2021 8:15:00 AM 11.31 52.358 0.159 7.44 4.87 10.7
11/1/2021 8:30:00 AM 11.27 52.286 0.159 7.41 5.71 10.72
11/1/2021 8:45:00 AM 11.24 52.232 0.159 7.45 7.06 10.73
11/1/2021 9:00:00 AM 11.21 52.178 0.159 7.42 4.21 10.75
11/1/2021 9:15:00 AM 11.19 52.142 0.159 7.45 4.27 10.77
11/1/2021 9:30:00 AM 11.17 52.106 0.16 7.42 4.66 10.81
11/1/2021 9:45:00 AM 11.15 52.07 0.16 7.45 4.76 10.83
11/1/2021 10:00:00 AM 11.15 52.07 0.16 7.46 4.88 10.86
11/1/2021 10:15:00 AM 11.16 52.088 0.16 7.46 4.53 10.9
11/1/2021 10:30:00 AM 11.19 52.142 0.16 7.48 4.7 10.93
11/1/2021 10:45:00 AM 11.2 52.16 0.16 7.48 4.55 10.96
11/1/2021 11:00:00 AM 11.19 52.142 0.16 7.52 4.54 10.97
11/1/2021 11:15:00 AM 11.2 52.16 0.161 7.46 4.61 10.99
11/1/2021 11:30:00 AM 11.21 52.178 0.161 7.51 4.66 11
11/1/2021 11:45:00 AM 11.24 52.232 0.161 7.54 4.19 11.03
11/1/2021 12:00:00 PM 11.28 52.304 0.161 7.53 4.7 11.03
11/1/2021 12:15:00 PM 11.35 52.43 0.161 7.53 4.73 11.03
11/1/2021 12:30:00 PM 11.45 52.61 0.161 7.52 4.38 11.04
11/1/2021 12:45:00 PM 11.51 52.718 0.161 7.56 4.66 11.04
11/1/2021 1:00:00 PM 11.47 52.646 0.162 7.49 4.73 11.01
11/1/2021 1:15:00 PM 11.43 52.574 0.162 7.53 4.82 10.98
11/1/2021 1:30:00 PM 11.42 52.556 0.162 7.53 4.83 10.98
11/1/2021 1:45:00 PM 11.49 52.682 0.162 7.52 4.67 10.98
11/1/2021 2:00:00 PM 11.58 52.844 0.162 7.59 4.72 10.99
11/1/2021 2:15:00 PM 11.63 52.934 0.163 7.59 4.97 11
11/1/2021 2:30:00 PM 11.61 52.898 0.163 7.54 5.09 11
11/1/2021 2:45:00 PM 11.6 52.88 0.163 7.6 4.76 10.99
11/1/2021 3:00:00 PM 11.59 52.862 0.163 7.57 4.89 10.98
11/1/2021 3:15:00 PM 11.6 52.88 0.163 7.58 4.73 10.98
11/1/2021 3:30:00 PM 11.61 52.898 0.163 7.55 5.36 10.97
11/1/2021 3:45:00 PM 11.6 52.88 0.164 7.59 4.95 10.95
11/1/2021 4:00:00 PM 11.59 52.862 0.164 7.56 4.96 10.94
11/1/2021 4:15:00 PM 11.57 52.826 0.164 7.58 4.78 10.92
11/1/2021 4:30:00 PM 11.53 52.754 0.163 7.58 4.54 10.89
11/1/2021 4:45:00 PM 11.5 52.7 0.163 7.56 4.63 10.88
11/1/2021 5:00:00 PM 11.45 52.61 0.163 7.56 4.77 10.84
11/1/2021 5:15:00 PM 11.4 52.52 0.163 7.51 4.84 10.82
11/1/2021 5:30:00 PM 11.36 52.448 0.163 7.54 4.81 10.81
11/1/2021 5:45:00 PM 11.32 52.376 0.163 7.55 4.69 10.8
11/1/2021 6:00:00 PM 11.26 52.268 0.163 7.49 4.59 10.79
11/1/2021 6:15:00 PM 11.21 52.178 0.163 7.53 5.99 10.77
11/1/2021 6:30:00 PM 11.16 52.088 0.163 7.53 4.66 10.77
11/1/2021 6:45:00 PM 11.11 51.998 0.163 7.52 4.74 10.77
11/1/2021 7:00:00 PM 11.07 51.926 0.164 7.51 4.73 10.76
11/1/2021 7:15:00 PM 11.02 51.836 0.164 7.48 4.84 10.77
11/1/2021 7:30:00 PM 10.98 51.764 0.164 7.47 4.65 10.77
11/1/2021 7:45:00 PM 10.93 51.674 0.164 7.49 4.56 10.78
11/1/2021 8:00:00 PM 10.88 51.584 0.164 7.5 4.8 10.79
11/1/2021 8:15:00 PM 10.84 51.512 0.164 7.51 4.59 10.79
11/1/2021 8:30:00 PM 10.8 51.44 0.164 7.48 4.7 10.79
11/1/2021 8:45:00 PM 10.77 51.386 0.164 7.47 4.89 10.81
11/1/2021 9:00:00 PM 10.73 51.314 0.164 7.44 4.54 10.83
11/1/2021 9:15:00 PM 10.69 51.242 0.164 7.52 4.92 10.85
11/1/2021 9:30:00 PM 10.66 51.188 0.164 7.47 4.61 10.84
11/1/2021 9:45:00 PM 10.62 51.116 0.164 7.43 4.67 10.87
11/1/2021 10:00:00 PM 10.59 51.062 0.164 7.47 4.7 10.87
11/1/2021 10:15:00 PM 10.56 51.008 0.164 7.49 4.54 10.86
11/1/2021 10:30:00 PM 10.53 50.954 0.165 7.48 4.52 10.89
11/1/2021 10:45:00 PM 10.5 50.9 0.165 7.48 4.82 10.89
11/1/2021 11:00:00 PM 10.47 50.846 0.165 7.46 4.75 10.9
11/1/2021 11:15:00 PM 10.44 50.792 0.165 7.46 4.63 10.91
11/1/2021 11:30:00 PM 10.42 50.756 0.165 7.43 4.55 10.91
11/1/2021 11:45:00 PM 10.39 50.702 0.165 7.43 4.43 10.92
11/2/2021 12:00:00 AM 10.37 50.666 0.165 7.43 4.53 10.93
11/2/2021 12:15:00 AM 10.35 50.63 0.165 7.39 4.42 10.94
11/2/2021 12:30:00 AM 10.32 50.576 0.165 7.42 4.32 10.94
11/2/2021 12:45:00 AM 10.3 50.54 0.165 7.43 4.6 10.95
11/2/2021 1:00:00 AM 10.28 50.504 0.165 7.42 5.22 10.95
11/2/2021 1:15:00 AM 10.27 50.486 0.165 7.42 4.3 10.96
11/2/2021 1:30:00 AM 10.26 50.468 0.165 7.39 4.52 10.97
11/2/2021 1:45:00 AM 10.25 50.45 0.165 7.41 4.4 10.97
11/2/2021 2:00:00 AM 10.25 50.45 0.165 7.43 4.33 10.97
11/2/2021 2:15:00 AM 10.24 50.432 0.165 7.4 4.92 10.97
11/2/2021 2:30:00 AM 10.24 50.432 0.165 7.4 4.93 10.96
11/2/2021 2:45:00 AM 10.24 50.432 0.165 7.4 4.04 10.97
11/2/2021 3:00:00 AM 10.24 50.432 0.165 7.42 4.38 10.97
11/2/2021 3:15:00 AM 10.24 50.432 0.165 7.35 4.23 10.97
11/2/2021 3:30:00 AM 10.24 50.432 0.165 7.41 4.19 10.97
11/2/2021 3:45:00 AM 10.24 50.432 0.165 7.38 4.21 10.98
11/2/2021 4:00:00 AM 10.24 50.432 0.165 7.38 4 10.97
11/2/2021 4:15:00 AM 10.24 50.432 0.165 7.39 4.14 10.98
11/2/2021 4:30:00 AM 10.24 50.432 0.165 7.43 4.26 10.97
11/2/2021 4:45:00 AM 10.24 50.432 0.165 7.38 4.05 10.98
11/2/2021 5:00:00 AM 10.24 50.432 0.165 7.39 4.01 10.98
11/2/2021 5:15:00 AM 10.24 50.432 0.165 7.4 3.97 10.98
11/2/2021 5:30:00 AM 10.23 50.414 0.165 7.36 3.89 10.97
11/2/2021 5:45:00 AM 10.23 50.414 0.165 7.39 4.17 10.98
11/2/2021 6:00:00 AM 10.23 50.414 0.165 7.4 3.99 10.98
11/2/2021 6:15:00 AM 10.22 50.396 0.165 7.39 3.93 10.98
11/2/2021 6:30:00 AM 10.21 50.378 0.165 7.41 4.37 10.96
11/2/2021 6:45:00 AM 10.2 50.36 0.165 7.41 3.95 10.99
11/2/2021 7:00:00 AM 10.19 50.342 0.165 7.39 4.25 10.97
11/2/2021 7:15:00 AM 10.19 50.342 0.165 7.35 4.47 10.98
11/2/2021 7:30:00 AM 10.18 50.324 0.165 7.4 3.78 10.97
11/2/2021 7:45:00 AM 10.17 50.306 0.165 7.38 3.9 10.99
11/2/2021 8:00:00 AM 10.17 50.306 0.165 7.41 4.04 10.99
11/2/2021 8:15:00 AM 10.17 50.306 0.165 7.43 4.05 11.01
11/2/2021 8:30:00 AM 10.17 50.306 0.165 7.39 4.65 11.03
11/2/2021 8:45:00 AM 10.18 50.324 0.165 7.44 3.96 11.05
11/2/2021 9:00:00 AM 10.19 50.342 0.165 7.47 3.9 11.08
11/2/2021 9:15:00 AM 10.21 50.378 0.165 7.48 3.86 11.1
11/2/2021 9:30:00 AM 10.24 50.432 0.165 7.48 3.8 11.14
11/2/2021 9:45:00 AM 10.27 50.486 0.166 7.49 3.64 11.15
11/2/2021 10:00:00 AM 10.31 50.558 0.166 7.48 3.69 11.16
11/2/2021 10:15:00 AM 10.36 50.648 0.166 7.53 3.71 11.23
11/2/2021 10:30:00 AM 10.39 50.702 0.166 7.54 4.02 11.26
11/2/2021 10:45:00 AM 10.44 50.792 0.166 7.56 3.78 11.22
11/2/2021 11:00:00 AM 10.5 50.9 0.166 7.57 3.71 11.28
11/2/2021 11:15:00 AM 10.56 51.008 0.166 7.6 3.8 11.31
11/2/2021 11:30:00 AM 10.63 51.134 0.166 7.58 3.62 11.33
11/2/2021 11:45:00 AM 10.7 51.26 0.166 7.61 3.78 11.32
11/2/2021 12:00:00 PM 10.77 51.386 0.166 7.65 3.63 11.31
11/2/2021 12:15:00 PM 10.81 51.458 0.166 7.6 3.86 11.29
11/2/2021 12:30:00 PM 10.86 51.548 0.166 7.64 3.63 11.31
11/2/2021 12:45:00 PM 10.89 51.602 0.166 7.63 3.5 11.28
11/2/2021 1:00:00 PM 10.93 51.674 0.166 7.64 3.66 11.28
11/2/2021 1:15:00 PM 10.96 51.728 0.166 7.63 3.54 11.26
11/2/2021 1:30:00 PM 10.99 51.782 0.166 7.65 3.56 11.25
11/2/2021 1:45:00 PM 11.03 51.854 0.166 7.65 3.42 11.24
11/2/2021 2:00:00 PM 11.03 51.854 0.166 7.65 3.6 11.18
11/2/2021 2:15:00 PM 11.04 51.872 0.166 7.64 3.64 11.18
11/2/2021 2:30:00 PM 11.04 51.872 0.166 7.63 3.69 11.16
11/2/2021 2:45:00 PM 11.02 51.836 0.166 7.62 3.82 11.12
11/2/2021 3:00:00 PM 11.03 51.854 0.166 7.58 3.83 11.12
11/2/2021 3:15:00 PM 11.04 51.872 0.166 7.6 3.39 11.15
11/2/2021 3:30:00 PM 11.03 51.854 0.166 7.63 3.55 11.17
11/2/2021 3:45:00 PM 11.03 51.854 0.166 7.63 3.58 11.15
11/2/2021 4:00:00 PM 11.02 51.836 0.166 7.62 4.23 11.14
11/2/2021 4:15:00 PM 11 51.8 0.166 7.59 3.61 11.08
11/2/2021 4:30:00 PM 10.98 51.764 0.166 7.61 3.68 11.09
11/2/2021 4:45:00 PM 10.95 51.71 0.166 7.59 3.52 11.03
11/2/2021 5:00:00 PM 10.92 51.656 0.166 7.58 3.46 11
11/2/2021 5:15:00 PM 10.88 51.584 0.167 7.55 3.53 10.88
11/2/2021 5:30:00 PM 10.83 51.494 0.167 7.55 3.73 10.91
11/2/2021 5:45:00 PM 10.79 51.422 0.167 7.51 3.78 10.88
11/2/2021 6:00:00 PM 10.77 51.386 0.167 7.54 3.72 10.84
11/2/2021 6:15:00 PM 10.75 51.35 0.167 7.49 3.76 10.87
11/2/2021 6:30:00 PM 10.71 51.278 0.167 7.53 3.81 10.87
11/2/2021 6:45:00 PM 10.67 51.206 0.167 7.51 3.93 10.85
11/2/2021 7:00:00 PM 10.62 51.116 0.167 7.51 3.71 10.85
11/2/2021 7:15:00 PM 10.58 51.044 0.167 7.51 3.98 10.88
11/2/2021 7:30:00 PM 10.53 50.954 0.167 7.5 3.92 10.87
11/2/2021 7:45:00 PM 10.49 50.882 0.167 7.5 3.96 10.87
11/2/2021 8:00:00 PM 10.46 50.828 0.167 7.46 3.86 10.87
11/2/2021 8:15:00 PM 10.43 50.774 0.167 7.5 4.46 10.91
11/2/2021 8:30:00 PM 10.41 50.738 0.167 7.5 3.82 10.92
11/2/2021 8:45:00 PM 10.38 50.684 0.168 7.49 3.69 10.93
11/2/2021 9:00:00 PM 10.35 50.63 0.167 7.49 4.16 10.91
11/2/2021 9:15:00 PM 10.31 50.558 0.167 7.49 4.11 10.94
11/2/2021 9:30:00 PM 10.28 50.504 0.168 7.46 3.84 10.95
11/2/2021 9:45:00 PM 10.24 50.432 0.168 7.51 4.09 10.95
11/2/2021 10:00:00 PM 10.2 50.36 0.168 7.51 4.17 10.95
11/2/2021 10:15:00 PM 10.16 50.288 0.168 7.51 3.75 10.97
11/2/2021 10:30:00 PM 10.11 50.198 0.168 7.49 4.1 10.96
11/2/2021 10:45:00 PM 10.07 50.126 0.168 7.51 4.01 10.99
11/2/2021 11:00:00 PM 10.03 50.054 0.169 7.52 4.25 10.99
11/2/2021 11:15:00 PM 9.99 49.982 0.169 7.5 4.16 11.01
11/2/2021 11:30:00 PM 9.94 49.892 0.169 7.51 4.37 11.03
11/2/2021 11:45:00 PM 9.89 49.802 0.169 7.5 4.13 11.01
11/3/2021 12:00:00 AM 9.84 49.712 0.169 7.52 4.3 11.04
11/3/2021 12:15:00 AM 9.8 49.64 0.169 7.51 4.46 11.05
11/3/2021 12:30:00 AM 9.75 49.55 0.169 7.52 4.21 11.07
11/3/2021 12:45:00 AM 9.7 49.46 0.169 7.52 4.15 11.08
11/3/2021 1:00:00 AM 9.65 49.37 0.169 7.51 4.23 11.09
11/3/2021 1:15:00 AM 9.6 49.28 0.169 7.51 4.35 11.11
11/3/2021 1:30:00 AM 9.55 49.19 0.169 7.52 4.17 11.12
11/3/2021 1:45:00 AM 9.5 49.1 0.169 7.52 4.23 11.12
11/3/2021 2:00:00 AM 9.46 49.028 0.169 7.53 4.24 11.16
11/3/2021 2:15:00 AM 9.42 48.956 0.169 7.53 4.35 11.16
11/3/2021 2:30:00 AM 9.38 48.884 0.169 7.51 4.13 11.18
11/3/2021 2:45:00 AM 9.34 48.812 0.169 7.5 4.19 11.18
11/3/2021 3:00:00 AM 9.3 48.74 0.169 7.51 4.42 11.2
11/3/2021 3:15:00 AM 9.26 48.668 0.169 7.46 4 11.21
11/3/2021 3:30:00 AM 9.23 48.614 0.169 7.47 4.08 11.2
11/3/2021 3:45:00 AM 9.19 48.542 0.169 7.5 4.28 11.21
11/3/2021 4:00:00 AM 9.16 48.488 0.169 7.49 4.88 11.24
11/3/2021 4:15:00 AM 9.13 48.434 0.169 7.51 4 11.25
11/3/2021 4:30:00 AM 9.1 48.38 0.169 7.5 3.88 11.25
11/3/2021 4:45:00 AM 9.07 48.326 0.169 7.5 4.26 11.26
11/3/2021 5:00:00 AM 9.04 48.272 0.169 7.44 4.2 11.28
11/3/2021 5:15:00 AM 9.01 48.218 0.169 7.5 4.43 11.29
11/3/2021 5:30:00 AM 8.99 48.182 0.169 7.48 4.1 11.27
11/3/2021 5:45:00 AM 8.97 48.146 0.169 7.48 3.98 11.29
11/3/2021 6:00:00 AM 8.95 48.11 0.169 7.44 4.11 11.29
11/3/2021 6:15:00 AM 8.92 48.056 0.169 7.47 4.49 11.3
11/3/2021 6:30:00 AM 8.9 48.02 0.169 7.48 4.08 11.32
11/3/2021 6:45:00 AM 8.87 47.966 0.169 7.46 4.13 11.32
11/3/2021 7:00:00 AM 8.85 47.93 0.169 7.41 4.1 11.32
11/3/2021 7:15:00 AM 8.83 47.894 0.169 7.46 4.09 11.33
11/3/2021 7:30:00 AM 8.8 47.84 0.169 7.45 4.28 11.33
11/3/2021 7:45:00 AM 8.78 47.804 0.169 7.41 3.8 11.36
11/3/2021 8:00:00 AM 8.77 47.786 0.169 7.46 3.98 11.34
11/3/2021 8:15:00 AM 8.76 47.768 0.169 7.46 4.06 11.39
11/3/2021 8:30:00 AM 8.76 47.768 0.169 7.47 4.07 11.43
11/3/2021 8:45:00 AM 8.77 47.786 0.169 7.47 3.68 11.45
11/3/2021 9:00:00 AM 8.81 47.858 0.169 7.45 3.84 11.52
11/3/2021 9:15:00 AM 8.86 47.948 0.169 7.5 4.01 11.58
11/3/2021 9:30:00 AM 8.9 48.02 0.169 7.51 3.87 11.6
11/3/2021 9:45:00 AM 8.94 48.092 0.169 7.52 3.92 11.62
11/3/2021 10:00:00 AM 8.98 48.164 0.169 7.54 4.14 11.64
11/3/2021 10:15:00 AM 9.02 48.236 0.169 7.53 3.89 11.63
11/3/2021 10:30:00 AM 9.05 48.29 0.169 7.5 4 11.6
11/3/2021 10:45:00 AM 9.11 48.398 0.169 7.54 3.64 11.63
11/3/2021 11:00:00 AM 9.2 48.56 0.169 7.55 3.75 11.67
11/3/2021 11:15:00 AM 9.3 48.74 0.169 7.57 3.66 11.68
11/3/2021 11:30:00 AM 9.39 48.902 0.169 7.58 3.46 11.7
11/3/2021 11:45:00 AM 9.45 49.01 0.17 7.59 3.68 11.67
11/3/2021 12:00:00 PM 9.49 49.082 0.17 7.59 3.8 11.65
11/3/2021 12:15:00 PM 9.51 49.118 0.17 7.59 3.67 11.61
11/3/2021 12:30:00 PM 9.53 49.154 0.17 7.59 3.98 11.62
11/3/2021 12:45:00 PM 9.59 49.262 0.17 7.58 3.74 11.61
11/3/2021 1:00:00 PM 9.65 49.37 0.17 7.61 3.58 11.58
11/3/2021 1:15:00 PM 9.73 49.514 0.17 7.62 3.53 11.62
11/3/2021 1:30:00 PM 9.75 49.55 0.17 7.62 3.36 11.58
11/3/2021 1:45:00 PM 9.8 49.64 0.17 7.62 4 11.59
11/3/2021 2:00:00 PM 9.85 49.73 0.17 7.61 3.54 11.58
11/3/2021 2:15:00 PM 9.89 49.802 0.17 7.61 3.5 11.61
11/3/2021 2:30:00 PM 9.93 49.874 0.17 7.59 3.52 11.61
11/3/2021 2:45:00 PM 9.96 49.928 0.17 7.59 3.45 11.58
11/3/2021 3:00:00 PM 9.98 49.964 0.17 7.58 3.64 11.57
11/3/2021 3:15:00 PM 9.98 49.964 0.17 7.58 3.5 11.5
11/3/2021 3:30:00 PM 9.98 49.964 0.17 7.56 3.6 11.51
11/3/2021 3:45:00 PM 9.96 49.928 0.17 7.58 3.42 11.51
11/3/2021 4:00:00 PM 9.97 49.946 0.17 7.58 3.55 11.5
11/3/2021 4:15:00 PM 9.98 49.964 0.17 7.57 3.39 11.48
11/3/2021 4:30:00 PM 9.98 49.964 0.17 7.56 3.39 11.44
11/3/2021 4:45:00 PM 9.97 49.946 0.17 7.54 3.54 11.42
11/3/2021 5:00:00 PM 9.95 49.91 0.171 7.56 3.42 11.37
11/3/2021 5:15:00 PM 9.9 49.82 0.171 7.55 3.74 11.35
11/3/2021 5:30:00 PM 9.84 49.712 0.171 7.5 3.34 11.31
11/3/2021 5:45:00 PM 9.79 49.622 0.171 7.52 3.56 11.29
11/3/2021 6:00:00 PM 9.74 49.532 0.171 7.51 3.19 11.24
11/3/2021 6:15:00 PM 9.69 49.442 0.171 7.48 3.49 11.22
11/3/2021 6:30:00 PM 9.63 49.334 0.171 7.47 3.84 11.21
11/3/2021 6:45:00 PM 9.57 49.226 0.171 7.46 3.66 11.21
11/3/2021 7:00:00 PM 9.52 49.136 0.171 7.44 3.41 11.2
11/3/2021 7:15:00 PM 9.46 49.028 0.171 7.44 3.62 11.2
11/3/2021 7:30:00 PM 9.4 48.92 0.172 7.44 3.39 11.21
11/3/2021 7:45:00 PM 9.33 48.794 0.172 7.4 4.1 11.2
11/3/2021 8:00:00 PM 9.27 48.686 0.172 7.44 3.52 11.21
11/3/2021 8:15:00 PM 9.21 48.578 0.172 7.38 3.64 11.25
11/3/2021 8:30:00 PM 9.15 48.47 0.172 7.44 3.38 11.25
11/3/2021 8:45:00 PM 9.09 48.362 0.172 7.42 3.61 11.26
11/3/2021 9:00:00 PM 9.03 48.254 0.172 7.36 3.54 11.27
11/3/2021 9:15:00 PM 8.97 48.146 0.172 7.41 3.68 11.3
11/3/2021 9:30:00 PM 8.92 48.056 0.172 7.4 3.86 11.32
11/3/2021 9:45:00 PM 8.86 47.948 0.172 7.4 3.76 11.3
11/3/2021 10:00:00 PM 8.81 47.858 0.172 7.37 3.73 11.35
11/3/2021 10:15:00 PM 8.76 47.768 0.172 7.42 3.83 11.36
11/3/2021 10:30:00 PM 8.72 47.696 0.172 7.39 3.59 11.38
11/3/2021 10:45:00 PM 8.67 47.606 0.173 7.41 3.73 11.39
11/3/2021 11:00:00 PM 8.63 47.534 0.173 7.4 3.68 11.37
11/3/2021 11:15:00 PM 8.59 47.462 0.173 7.35 4.54 11.4
11/3/2021 11:30:00 PM 8.56 47.408 0.173 7.4 3.82 11.42
11/3/2021 11:45:00 PM 8.53 47.354 0.172 7.35 3.62 11.41
11/4/2021 12:00:00 AM 8.5 47.3 0.173 7.38 4.08 11.44
11/4/2021 12:15:00 AM 8.46 47.228 0.173 7.35 3.79 11.44
11/4/2021 12:30:00 AM 8.43 47.174 0.173 7.38 3.85 11.48
11/4/2021 12:45:00 AM 8.4 47.12 0.173 7.37 3.76 11.47
11/4/2021 1:00:00 AM 8.36 47.048 0.173 7.34 3.93 11.5
11/4/2021 1:15:00 AM 8.33 46.994 0.172 7.38 3.83 11.49
11/4/2021 1:30:00 AM 8.3 46.94 0.173 7.39 3.81 11.49
11/4/2021 1:45:00 AM 8.27 46.886 0.173 7.39 3.91 11.5
11/4/2021 2:00:00 AM 8.25 46.85 0.173 7.38 3.83 11.52
11/4/2021 2:15:00 AM 8.22 46.796 0.173 7.39 3.79 11.53
11/4/2021 2:30:00 AM 8.19 46.742 0.173 7.39 3.84 11.53
11/4/2021 2:45:00 AM 8.17 46.706 0.173 7.39 3.7 11.53
11/4/2021 3:00:00 AM 8.15 46.67 0.173 7.4 3.69 11.57
11/4/2021 3:15:00 AM 8.13 46.634 0.173 7.39 3.61 11.56
11/4/2021 3:30:00 AM 8.1 46.58 0.173 7.35 3.74 11.56
11/4/2021 3:45:00 AM 8.07 46.526 0.173 7.39 3.47 11.57
11/4/2021 4:00:00 AM 8.04 46.472 0.173 7.37 3.58 11.57
11/4/2021 4:15:00 AM 8.02 46.436 0.173 7.38 3.56 11.57
11/4/2021 4:30:00 AM 8 46.4 0.173 7.37 3.81 11.59
11/4/2021 4:45:00 AM 7.99 46.382 0.173 7.37 3.76 11.61
11/4/2021 5:00:00 AM 7.96 46.328 0.173 7.37 3.63 11.59
11/4/2021 5:15:00 AM 7.95 46.31 0.173 7.37 3.65 11.62
11/4/2021 5:30:00 AM 7.93 46.274 0.173 7.37 3.73 11.63
11/4/2021 5:45:00 AM 7.91 46.238 0.173 7.37 3.65 11.63
11/4/2021 6:00:00 AM 7.89 46.202 0.173 7.32 3.63 11.64
11/4/2021 6:15:00 AM 7.87 46.166 0.173 7.38 3.74 11.61
11/4/2021 6:30:00 AM 7.84 46.112 0.173 7.38 3.62 11.64
11/4/2021 6:45:00 AM 7.81 46.058 0.173 7.36 3.48 11.65
11/4/2021 7:00:00 AM 7.79 46.022 0.173 7.37 3.5 11.66
11/4/2021 7:15:00 AM 7.76 45.968 0.173 7.36 3.68 11.66
11/4/2021 7:30:00 AM 7.74 45.932 0.173 7.37 3.79 11.68
11/4/2021 7:45:00 AM 7.71 45.878 0.173 7.36 3.73 11.68
11/4/2021 8:00:00 AM 7.69 45.842 0.173 7.37 3.57 11.69
11/4/2021 8:15:00 AM 7.67 45.806 0.172 7.37 3.36 11.71
11/4/2021 8:30:00 AM 7.66 45.788 0.172 7.37 3.62 11.73
11/4/2021 8:45:00 AM 7.65 45.77 0.172 7.37 3.44 11.77
11/4/2021 9:00:00 AM 7.64 45.752 0.172 7.34 3.58 11.78
11/4/2021 9:15:00 AM 7.64 45.752 0.173 7.38 3.92 11.85
11/4/2021 9:30:00 AM 7.66 45.788 0.172 7.4 3.51 11.87
11/4/2021 9:45:00 AM 7.67 45.806 0.172 7.35 3.67 11.91
11/4/2021 10:00:00 AM 7.7 45.86 0.173 7.39 3.56 11.92
11/4/2021 10:15:00 AM 7.75 45.95 0.173 7.42 3.54 11.96
11/4/2021 10:30:00 AM 7.8 46.04 0.173 7.42 3.5 11.99
11/4/2021 10:45:00 AM 7.86 46.148 0.173 7.42 3.46 11.99
11/4/2021 11:00:00 AM 7.93 46.274 0.173 7.44 3.32 12.01
11/4/2021 11:15:00 AM 8.01 46.418 0.173 7.41 3.29 12.02
11/4/2021 11:30:00 AM 8.1 46.58 0.173 7.46 3.2 12.01
11/4/2021 11:45:00 AM 8.2 46.76 0.173 7.47 3.27 12.03
11/4/2021 12:00:00 PM 8.3 46.94 0.173 7.48 3.75 12.02
11/4/2021 12:15:00 PM 8.42 47.156 0.173 7.49 3.19 11.97
11/4/2021 12:30:00 PM 8.54 47.372 0.173 7.5 3.22 11.99
11/4/2021 12:45:00 PM 8.65 47.57 0.173 7.51 3.23 12.01
11/4/2021 1:00:00 PM 8.76 47.768 0.173 7.55 3.5 11.99
11/4/2021 1:15:00 PM 8.89 48.002 0.173 7.54 3.36 11.97
11/4/2021 1:30:00 PM 8.98 48.164 0.173 7.55 3.4 11.96
11/4/2021 1:45:00 PM 9.09 48.362 0.173 7.56 3.26 11.95
11/4/2021 2:00:00 PM 9.18 48.524 0.173 7.57 3.25 11.94
11/4/2021 2:15:00 PM 9.24 48.632 0.173 7.56 3.27 11.91
11/4/2021 2:30:00 PM 9.29 48.722 0.173 7.59 3.32 11.91
11/4/2021 2:45:00 PM 9.36 48.848 0.173 7.58 3.3 11.88
11/4/2021 3:00:00 PM 9.41 48.938 0.173 7.61 3.25 11.87
11/4/2021 3:15:00 PM 9.46 49.028 0.173 7.61 3.49 11.84
11/4/2021 3:30:00 PM 9.49 49.082 0.173 7.6 3.4 11.84
11/4/2021 3:45:00 PM 9.53 49.154 0.173 7.61 3.33 11.8
11/4/2021 4:00:00 PM 9.55 49.19 0.173 7.6 2.98 11.78
11/4/2021 4:15:00 PM 9.55 49.19 0.174 7.59 3.39 11.74
11/4/2021 4:30:00 PM 9.55 49.19 0.174 7.6 3.03 11.71
11/4/2021 4:45:00 PM 9.53 49.154 0.174 7.59 3.24 11.67
11/4/2021 5:00:00 PM 9.51 49.118 0.174 7.58 3.09 11.61
11/4/2021 5:15:00 PM 9.49 49.082 0.174 7.56 3.22 11.58
11/4/2021 5:30:00 PM 9.45 49.01 0.174 7.54 3.21 11.52
11/4/2021 5:45:00 PM 9.4 48.92 0.174 7.49 3.25 11.47
11/4/2021 6:00:00 PM 9.35 48.83 0.174 7.5 3.32 11.42
11/4/2021 6:15:00 PM 9.29 48.722 0.174 7.47 3.79 11.38
11/4/2021 6:30:00 PM 9.24 48.632 0.175 7.48 3.25 11.34
11/4/2021 6:45:00 PM 9.18 48.524 0.175 7.47 3.33 11.33
11/4/2021 7:00:00 PM 9.12 48.416 0.175 7.42 3.47 11.32
11/4/2021 7:15:00 PM 9.06 48.308 0.175 7.45 3.61 11.32
11/4/2021 7:30:00 PM 9 48.2 0.175 7.38 3.57 11.33
11/4/2021 7:45:00 PM 8.95 48.11 0.175 7.42 3.52 11.33
11/4/2021 8:00:00 PM 8.89 48.002 0.175 7.41 3.42 11.34
11/4/2021 8:15:00 PM 8.83 47.894 0.175 7.41 3.42 11.35
11/4/2021 8:30:00 PM 8.77 47.786 0.176 7.38 3.29 11.35
11/4/2021 8:45:00 PM 8.71 47.678 0.176 7.39 3.47 11.36
11/4/2021 9:00:00 PM 8.64 47.552 0.176 7.4 3.64 11.36
11/4/2021 9:15:00 PM 8.58 47.444 0.176 7.39 3.45 11.39
11/4/2021 9:30:00 PM 8.52 47.336 0.176 7.39 3.52 11.4
11/4/2021 9:45:00 PM 8.47 47.246 0.176 7.34 3.26 11.41
11/4/2021 10:00:00 PM 8.4 47.12 0.176 7.37 3.31 11.43
11/4/2021 10:15:00 PM 8.34 47.012 0.176 7.35 3.71 11.46
11/4/2021 10:30:00 PM 8.29 46.922 0.177 7.37 3.55 11.47
11/4/2021 10:45:00 PM 8.24 46.832 0.177 7.37 3.64 11.47
11/4/2021 11:00:00 PM 8.19 46.742 0.177 7.37 3.61 11.5
11/4/2021 11:15:00 PM 8.14 46.652 0.177 7.37 3.47 11.51
11/4/2021 11:30:00 PM 8.09 46.562 0.177 7.37 3.58 11.52
11/4/2021 11:45:00 PM 8.04 46.472 0.177 7.33 3.56 11.54
11/5/2021 12:00:00 AM 8 46.4 0.177 7.36 3.4 11.55
11/5/2021 12:15:00 AM 7.95 46.31 0.177 7.36 3.73 11.57
11/5/2021 12:30:00 AM 7.9 46.22 0.177 7.36 4.17 11.58
11/5/2021 12:45:00 AM 7.85 46.13 0.177 7.36 3.56 11.58
11/5/2021 1:00:00 AM 7.82 46.076 0.177 7.35 3.62 11.59
11/5/2021 1:15:00 AM 7.77 45.986 0.177 7.36 3.5 11.61
11/5/2021 1:30:00 AM 7.74 45.932 0.177 7.35 3.54 11.64
11/5/2021 1:45:00 AM 7.69 45.842 0.177 7.36 3.35 11.63
11/5/2021 2:00:00 AM 7.65 45.77 0.178 7.32 3.62 11.67
11/5/2021 2:15:00 AM 7.61 45.698 0.178 7.36 3.49 11.67
11/5/2021 2:30:00 AM 7.57 45.626 0.178 7.36 3.29 11.68
11/5/2021 2:45:00 AM 7.53 45.554 0.178 7.35 3.43 11.69
11/5/2021 3:00:00 AM 7.49 45.482 0.178 7.37 3.58 11.7
11/5/2021 3:15:00 AM 7.46 45.428 0.178 7.35 3.38 11.72
11/5/2021 3:30:00 AM 7.42 45.356 0.178 7.36 3.56 11.72
11/5/2021 3:45:00 AM 7.38 45.284 0.178 7.37 3.77 11.75
11/5/2021 4:00:00 AM 7.35 45.23 0.178 7.32 3.57 11.75
11/5/2021 4:15:00 AM 7.31 45.158 0.178 7.36 3.38 11.75
11/5/2021 4:30:00 AM 7.28 45.104 0.178 7.37 3.65 11.77
11/5/2021 4:45:00 AM 7.24 45.032 0.178 7.36 3.41 11.76
11/5/2021 5:00:00 AM 7.21 44.978 0.178 7.36 3.36 11.79
11/5/2021 5:15:00 AM 7.18 44.924 0.177 7.34 3.44 11.81
11/5/2021 5:30:00 AM 7.15 44.87 0.177 7.32 3.52 11.82
11/5/2021 5:45:00 AM 7.11 44.798 0.177 7.35 3.33 11.82
11/5/2021 6:00:00 AM 7.08 44.744 0.177 7.35 3.47 11.83
11/5/2021 6:15:00 AM 7.05 44.69 0.177 7.34 3.48 11.84
11/5/2021 6:30:00 AM 7.01 44.618 0.178 7.36 3.37 11.87
11/5/2021 6:45:00 AM 6.98 44.564 0.178 7.35 3.31 11.87
11/5/2021 7:00:00 AM 6.95 44.51 0.178 7.35 3.28 11.84
11/5/2021 7:15:00 AM 6.92 44.456 0.178 7.36 3.42 11.88
11/5/2021 7:30:00 AM 6.89 44.402 0.178 7.35 3.42 11.9
11/5/2021 7:45:00 AM 6.86 44.348 0.178 7.35 3.25 11.92
11/5/2021 8:00:00 AM 6.84 44.312 0.178 7.33 3.15 11.93
11/5/2021 8:15:00 AM 6.81 44.258 0.178 7.3 3.26 11.98
11/5/2021 8:30:00 AM 6.8 44.24 0.178 7.35 3.15 12
11/5/2021 8:45:00 AM 6.78 44.204 0.178 7.31 3.36 12.05
11/5/2021 9:00:00 AM 6.77 44.186 0.178 7.36 3.27 12.08
11/5/2021 9:15:00 AM 6.77 44.186 0.178 7.38 3.36 12.13
11/5/2021 9:30:00 AM 6.78 44.204 0.178 7.37 3.26 12.16
11/5/2021 9:45:00 AM 6.79 44.222 0.178 7.39 3.21 12.21
11/5/2021 10:00:00 AM 6.83 44.294 0.178 7.38 3.69 12.23
11/5/2021 10:15:00 AM 6.86 44.348 0.178 7.39 3.19 12.27
11/5/2021 10:30:00 AM 6.91 44.438 0.178 7.4 3.16 12.29
11/5/2021 10:45:00 AM 6.97 44.546 0.178 7.4 3.15 12.32
11/5/2021 11:00:00 AM 7.03 44.654 0.178 7.39 3.02 12.32
11/5/2021 11:15:00 AM 7.11 44.798 0.178 7.42 3.37 12.35
11/5/2021 11:30:00 AM 7.2 44.96 0.178 7.44 3.33 12.35
11/5/2021 11:45:00 AM 7.3 45.14 0.178 7.45 3.07 12.37
11/5/2021 12:00:00 PM 7.4 45.32 0.178 7.48 3.02 12.36
11/5/2021 12:15:00 PM 7.52 45.536 0.178 7.49 3.28 12.34
11/5/2021 12:30:00 PM 7.63 45.734 0.178 7.49 3.36 12.34
11/5/2021 12:45:00 PM 7.77 45.986 0.178 7.51 3.24 12.31
11/5/2021 1:00:00 PM 7.89 46.202 0.178 7.5 3.33 12.31
11/5/2021 1:15:00 PM 8.02 46.436 0.178 7.52 2.94 12.28
11/5/2021 1:30:00 PM 8.13 46.634 0.178 7.53 2.89 12.23
11/5/2021 1:45:00 PM 8.23 46.814 0.178 7.54 3.19 12.19
11/5/2021 2:00:00 PM 8.32 46.976 0.178 7.54 3.03 12.13
11/5/2021 2:15:00 PM 8.41 47.138 0.178 7.56 2.94 12.12
11/5/2021 2:30:00 PM 8.49 47.282 0.178 7.55 2.93 12.07
11/5/2021 2:45:00 PM 8.56 47.408 0.178 7.56 2.91 12.06
11/5/2021 3:00:00 PM 8.64 47.552 0.178 7.57 2.96 12.02
11/5/2021 3:15:00 PM 8.71 47.678 0.178 7.56 3.05 12
11/5/2021 3:30:00 PM 8.76 47.768 0.178 7.55 2.87 11.93
11/5/2021 3:45:00 PM 8.8 47.84 0.178 7.57 2.92 11.91
11/5/2021 4:00:00 PM 8.84 47.912 0.179 7.56 2.89 11.89
11/5/2021 4:15:00 PM 8.86 47.948 0.179 7.57 2.97 11.86
11/5/2021 4:30:00 PM 8.87 47.966 0.179 7.56 2.85 11.85
11/5/2021 4:45:00 PM 8.86 47.948 0.179 7.57 3.08 11.81
11/5/2021 5:00:00 PM 8.84 47.912 0.179 7.56 2.86 11.74
11/5/2021 5:15:00 PM 8.81 47.858 0.18 7.53 2.98 11.7
11/5/2021 5:30:00 PM 8.76 47.768 0.18 7.53 2.91 11.68
11/5/2021 5:45:00 PM 8.7 47.66 0.181 7.47 2.94 11.64
11/5/2021 6:00:00 PM 8.64 47.552 0.181 7.5 3.05 11.61
11/5/2021 6:15:00 PM 8.57 47.426 0.182 7.48 3.05 11.55
11/5/2021 6:30:00 PM 8.51 47.318 0.182 7.43 3.1 11.56
11/5/2021 6:45:00 PM 8.44 47.192 0.182 7.46 3.06 11.54
11/5/2021 7:00:00 PM 8.36 47.048 0.183 7.46 3.19 11.53
11/5/2021 7:15:00 PM 8.29 46.922 0.183 7.45 3.33 11.52
11/5/2021 7:30:00 PM 8.21 46.778 0.183 7.43 3.12 11.52
11/5/2021 7:45:00 PM 8.14 46.652 0.183 7.44 2.97 11.53
11/5/2021 8:00:00 PM 8.06 46.508 0.183 7.42 3.18 11.59
11/5/2021 8:15:00 PM 8 46.4 0.183 7.4 3.12 11.56
11/5/2021 8:30:00 PM 7.92 46.256 0.183 7.41 3.15 11.59
11/5/2021 8:45:00 PM 7.85 46.13 0.182 7.4 3.2 11.61
11/5/2021 9:00:00 PM 7.78 46.004 0.182 7.4 3.08 11.62
11/5/2021 9:15:00 PM 7.72 45.896 0.182 7.35 3.02 11.62
11/5/2021 9:30:00 PM 7.65 45.77 0.182 7.38 3.15 11.65
11/5/2021 9:45:00 PM 7.59 45.662 0.182 7.38 3.16 11.7
11/5/2021 10:00:00 PM 7.53 45.554 0.182 7.38 3 11.72
11/5/2021 10:15:00 PM 7.48 45.464 0.182 7.38 3 11.71
11/5/2021 10:30:00 PM 7.42 45.356 0.182 7.37 3.07 11.74
11/5/2021 10:45:00 PM 7.37 45.266 0.182 7.33 3.25 11.76
11/5/2021 11:00:00 PM 7.32 45.176 0.182 7.37 3.45 11.76
11/5/2021 11:15:00 PM 7.27 45.086 0.184 7.33 14.42 11.76
11/5/2021 11:30:00 PM 7.22 44.996 0.183 7.34 4.84 11.81
11/5/2021 11:45:00 PM 7.18 44.924 0.182 7.33 5.56 11.8
11/6/2021 12:00:00 AM 7.13 44.834 0.183 7.35 6.98 11.83
11/6/2021 12:15:00 AM 7.09 44.762 0.182 7.35 5.74 11.86
11/6/2021 12:30:00 AM 7.05 44.69 0.182 7.36 5.61 11.83
11/6/2021 12:45:00 AM 7.01 44.618 0.182 7.36 6.23 11.88
11/6/2021 1:00:00 AM 6.97 44.546 0.182 7.33 37.81 11.86
11/6/2021 1:15:00 AM 6.94 44.492 0.182 7.31 5.29 11.92
11/6/2021 1:30:00 AM 6.9 44.42 0.182 7.34 3.02 11.9
11/6/2021 1:45:00 AM 6.87 44.366 0.182 7.34 2.98 11.91
11/6/2021 2:00:00 AM 6.83 44.294 0.182 7.31 3.27 11.9
11/6/2021 2:15:00 AM 6.78 44.204 0.182 7.35 2.98 11.9
11/6/2021 2:30:00 AM 6.76 44.168 0.182 7.34 3.37 11.94
11/6/2021 2:45:00 AM 6.72 44.096 0.182 7.34 3.17 11.96
11/6/2021 3:00:00 AM 6.69 44.042 0.182 7.3 3.61 11.96
11/6/2021 3:15:00 AM 6.65 43.97 0.182 7.33 2.96 11.97
11/6/2021 3:30:00 AM 6.61 43.898 0.182 7.34 3.05 11.97
11/6/2021 3:45:00 AM 6.58 43.844 0.182 7.34 2.94 11.99
11/6/2021 4:00:00 AM 6.54 43.772 0.182 7.32 3.4 11.99
11/6/2021 4:15:00 AM 6.51 43.718 0.182 7.3 3.06 12
11/6/2021 4:30:00 AM 6.47 43.646 0.182 7.34 3.04 12.03
11/6/2021 4:45:00 AM 6.44 43.592 0.182 7.3 3.02 12.02
11/6/2021 5:00:00 AM 6.41 43.538 0.183 7.31 2.91 12.03
11/6/2021 5:15:00 AM 6.38 43.484 0.183 7.35 2.98 12.08
11/6/2021 5:30:00 AM 6.35 43.43 0.182 7.3 2.98 12.07
11/6/2021 5:45:00 AM 6.32 43.376 0.182 7.34 3.02 12.07
11/6/2021 6:00:00 AM 6.29 43.322 0.182 7.31 3.27 12.09
11/6/2021 6:15:00 AM 6.26 43.268 0.182 7.34 3.01 12.09
11/6/2021 6:30:00 AM 6.23 43.214 0.182 7.35 2.87 12.11
11/6/2021 6:45:00 AM 6.2 43.16 0.182 7.32 3.11 12.12
11/6/2021 7:00:00 AM 6.16 43.088 0.182 7.34 3.18 12.13
11/6/2021 7:15:00 AM 6.13 43.034 0.183 7.35 3.18 12.15
11/6/2021 7:30:00 AM 6.1 42.98 0.183 7.35 3.01 12.18
11/6/2021 7:45:00 AM 6.07 42.926 0.183 7.32 2.91 12.16
11/6/2021 8:00:00 AM 6.04 42.872 0.183 7.3 2.94 12.21
11/6/2021 8:15:00 AM 6.02 42.836 0.183 7.34 2.95 12.22
11/6/2021 8:30:00 AM 6 42.8 0.183 7.35 3.07 12.28
11/6/2021 8:45:00 AM 5.97 42.746 0.183 7.35 3.03 12.27
11/6/2021 9:00:00 AM 5.97 42.746 0.183 7.33 3.14 12.34
11/6/2021 9:15:00 AM 5.95 42.71 0.183 7.37 2.9 12.37
11/6/2021 9:30:00 AM 5.97 42.746 0.183 7.37 3.06 12.41
11/6/2021 9:45:00 AM 5.99 42.782 0.183 7.38 2.94 12.49
11/6/2021 10:00:00 AM 6.02 42.836 0.183 7.35 2.87 12.51
11/6/2021 10:15:00 AM 6.06 42.908 0.183 7.41 2.85 12.57
11/6/2021 10:30:00 AM 6.12 43.016 0.183 7.42 2.86 12.6
11/6/2021 10:45:00 AM 6.18 43.124 0.183 7.38 3.25 12.64
11/6/2021 11:00:00 AM 6.26 43.268 0.183 7.44 2.91 12.64
11/6/2021 11:15:00 AM 6.34 43.412 0.183 7.44 2.78 12.66
11/6/2021 11:30:00 AM 6.43 43.574 0.183 7.43 3.01 12.65
11/6/2021 11:45:00 AM 6.54 43.772 0.183 7.47 2.76 12.65
11/6/2021 12:00:00 PM 6.67 44.006 0.183 7.48 2.84 12.64
11/6/2021 12:15:00 PM 6.8 44.24 0.183 7.48 2.84 12.67
11/6/2021 12:30:00 PM 6.94 44.492 0.183 7.46 2.91 12.62
11/6/2021 12:45:00 PM 7.09 44.762 0.183 7.49 2.71 12.63
11/6/2021 1:00:00 PM 7.23 45.014 0.183 7.52 2.73 12.6
11/6/2021 1:15:00 PM 7.36 45.248 0.183 7.52 2.76 12.56
11/6/2021 1:30:00 PM 7.49 45.482 0.183 7.55 2.82 12.54
11/6/2021 1:45:00 PM 7.61 45.698 0.183 7.56 2.85 12.49
11/6/2021 2:00:00 PM 7.73 45.914 0.183 7.57 2.82 12.43
11/6/2021 2:15:00 PM 7.82 46.076 0.183 7.58 2.88 12.4
11/6/2021 2:30:00 PM 7.91 46.238 0.183 7.59 2.87 12.34
11/6/2021 2:45:00 PM 7.98 46.364 0.183 7.59 2.77 12.3
11/6/2021 3:00:00 PM 8.05 46.49 0.183 7.56 2.75 12.26
11/6/2021 3:15:00 PM 8.13 46.634 0.183 7.56 3.21 12.22
11/6/2021 3:30:00 PM 8.18 46.724 0.184 7.59 2.95 12.14
11/6/2021 3:45:00 PM 8.24 46.832 0.184 7.58 2.8 12.12
11/6/2021 4:00:00 PM 8.29 46.922 0.184 7.54 2.9 12.07
11/6/2021 4:15:00 PM 8.32 46.976 0.184 7.56 2.8 12.01
11/6/2021 4:30:00 PM 8.34 47.012 0.184 7.55 2.82 11.95
11/6/2021 4:45:00 PM 8.35 47.03 0.184 7.55 3.02 11.9
11/6/2021 5:00:00 PM 8.35 47.03 0.184 7.53 2.76 11.86
11/6/2021 5:15:00 PM 8.34 47.012 0.184 7.52 2.72 11.83
11/6/2021 5:30:00 PM 8.31 46.958 0.184 7.51 2.68 11.8
11/6/2021 5:45:00 PM 8.27 46.886 0.185 7.48 2.72 11.73
11/6/2021 6:00:00 PM 8.22 46.796 0.185 7.44 2.84 11.68
11/6/2021 6:15:00 PM 8.17 46.706 0.185 7.49 2.98 11.64
11/6/2021 6:30:00 PM 8.1 46.58 0.185 7.47 3.01 11.6
11/6/2021 6:45:00 PM 8.04 46.472 0.185 7.46 3.05 11.62
11/6/2021 7:00:00 PM 7.98 46.364 0.185 7.45 2.93 11.59
11/6/2021 7:15:00 PM 7.91 46.238 0.185 7.44 3.03 11.63
11/6/2021 7:30:00 PM 7.84 46.112 0.185 7.43 3.89 11.61
11/6/2021 7:45:00 PM 7.77 45.986 0.185 7.42 4.35 11.65
11/6/2021 8:00:00 PM 7.7 45.86 0.185 7.39 4.59 11.65
11/6/2021 8:15:00 PM 7.63 45.734 0.185 7.41 4.59 11.67
11/6/2021 8:30:00 PM 7.56 45.608 0.185 7.4 4.67 11.68
11/6/2021 8:45:00 PM 7.49 45.482 0.185 7.4 4.81 11.7
11/6/2021 9:00:00 PM 7.42 45.356 0.185 7.4 4.7 11.71
11/6/2021 9:15:00 PM 7.36 45.248 0.185 7.39 4.68 11.74
11/6/2021 9:30:00 PM 7.29 45.122 0.185 7.37 4.63 11.74
11/6/2021 9:45:00 PM 7.23 45.014 0.185 7.39 4.6 11.75
11/6/2021 10:00:00 PM 7.17 44.906 0.185 7.34 4.46 11.77
11/6/2021 10:15:00 PM 7.11 44.798 0.185 7.38 4.2 11.81
11/6/2021 10:30:00 PM 7.05 44.69 0.185 7.38 4.61 11.84
11/6/2021 10:45:00 PM 7 44.6 0.185 7.36 4.29 11.85
11/6/2021 11:00:00 PM 6.95 44.51 0.185 7.37 4.54 11.85
11/6/2021 11:15:00 PM 6.89 44.402 0.185 7.37 4.27 11.86
11/6/2021 11:30:00 PM 6.84 44.312 0.185 7.37 4.13 11.89
11/6/2021 11:45:00 PM 6.8 44.24 0.185 7.34 4.27 11.9
11/7/2021 12:00:00 AM 6.76 44.168 0.185 7.36 4.29 11.92
11/7/2021 12:15:00 AM 6.71 44.078 0.185 7.37 4.26 11.92
11/7/2021 12:30:00 AM 6.67 44.006 0.184 7.36 4.26 11.93
11/7/2021 12:45:00 AM 6.63 43.934 0.184 7.36 4.11 11.96
11/7/2021 1:00:00 AM 6.6 43.88 0.184 7.36 4.34 11.96
11/7/2021 1:15:00 AM 6.56 43.808 0.184 7.36 4.33 11.99
11/7/2021 1:30:00 AM 6.53 43.754 0.183 7.32 4.16 11.95
11/7/2021 1:45:00 AM 6.5 43.7 0.183 7.36 4.63 11.99
11/7/2021 2:00:00 AM 6.46 43.628 0.183 7.36 4.12 12.01
11/7/2021 2:15:00 AM 6.42 43.556 0.184 7.36 4.2 12.01
11/7/2021 2:30:00 AM 6.39 43.502 0.184 7.36 4.23 12.04
11/7/2021 2:45:00 AM 6.35 43.43 0.184 7.35 4.24 12.04
11/7/2021 3:00:00 AM 6.32 43.376 0.183 7.36 4.29 12.06
11/7/2021 3:15:00 AM 6.29 43.322 0.183 7.35 4.1 12.04
11/7/2021 3:30:00 AM 6.25 43.25 0.184 7.31 4.06 12.08
11/7/2021 3:45:00 AM 6.22 43.196 0.184 7.36 4.19 12.08
11/7/2021 4:00:00 AM 6.19 43.142 0.184 7.36 4.08 12.1
11/7/2021 4:15:00 AM 6.15 43.07 0.184 7.35 4.03 12.1
11/7/2021 4:30:00 AM 6.12 43.016 0.184 7.35 4.28 12.11
11/7/2021 4:45:00 AM 6.09 42.962 0.184 7.34 4.17 12.12
11/7/2021 5:00:00 AM 6.06 42.908 0.184 7.36 4.21 12.13
11/7/2021 5:15:00 AM 6.03 42.854 0.184 7.35 4.2 12.15
11/7/2021 5:30:00 AM 6 42.8 0.184 7.35 4.11 12.16
11/7/2021 5:45:00 AM 5.96 42.728 0.185 7.35 4.18 12.17
11/7/2021 6:00:00 AM 5.93 42.674 0.185 7.35 4.18 12.17
11/7/2021 6:15:00 AM 5.9 42.62 0.185 7.32 4.11 12.19
11/7/2021 6:30:00 AM 5.87 42.566 0.185 7.36 4.03 12.19
11/7/2021 6:45:00 AM 5.83 42.494 0.185 7.32 4.03 12.21
11/7/2021 7:00:00 AM 5.8 42.44 0.185 7.36 4.1 12.21
11/7/2021 7:15:00 AM 5.77 42.386 0.185 7.35 4.59 12.22
11/7/2021 7:30:00 AM 5.75 42.35 0.185 7.35 4.6 12.24
11/7/2021 7:45:00 AM 5.71 42.278 0.185 7.35 4.13 12.25
11/7/2021 8:00:00 AM 5.69 42.242 0.185 7.34 4.22 12.27
11/7/2021 8:15:00 AM 5.67 42.206 0.185 7.36 4.5 12.31
11/7/2021 8:30:00 AM 5.65 42.17 0.185 7.37 4.02 12.36
11/7/2021 8:45:00 AM 5.63 42.134 0.185 7.36 4.27 12.39
11/7/2021 9:00:00 AM 5.62 42.116 0.186 7.37 4.13 12.43
11/7/2021 9:15:00 AM 5.62 42.116 0.186 7.38 4.14 12.49
11/7/2021 9:30:00 AM 5.63 42.134 0.186 7.39 4.22 12.53
11/7/2021 9:45:00 AM 5.64 42.152 0.186 7.4 4.18 12.6
11/7/2021 10:00:00 AM 5.66 42.188 0.186 7.41 4.46 12.64
11/7/2021 10:15:00 AM 5.71 42.278 0.186 7.42 4.17 12.66
11/7/2021 10:30:00 AM 5.77 42.386 0.186 7.43 4.38 12.71
11/7/2021 10:45:00 AM 5.84 42.512 0.185 7.44 4.06 12.74
11/7/2021 11:00:00 AM 5.92 42.656 0.185 7.46 4.21 12.76
11/7/2021 11:15:00 AM 6.01 42.818 0.185 7.47 4.37 12.8
11/7/2021 11:30:00 AM 6.1 42.98 0.185 7.48 4.09 12.78
11/7/2021 11:45:00 AM 6.23 43.214 0.185 7.5 4.01 12.79
11/7/2021 12:00:00 PM 6.36 43.448 0.185 7.52 4.17 12.77
11/7/2021 12:15:00 PM 6.49 43.682 0.185 7.52 4.21 12.78
11/7/2021 12:30:00 PM 6.62 43.916 0.185 7.53 4.07 12.75
11/7/2021 12:45:00 PM 6.77 44.186 0.185 7.52 4.08 12.73
11/7/2021 1:00:00 PM 6.92 44.456 0.185 7.57 4.05 12.75
11/7/2021 1:15:00 PM 7.06 44.708 0.185 7.58 4.14 12.69
11/7/2021 1:30:00 PM 7.21 44.978 0.185 7.59 4.03 12.66
11/7/2021 1:45:00 PM 7.34 45.212 0.185 7.57 4.07 12.61
11/7/2021 2:00:00 PM 7.47 45.446 0.185 7.76 4.09 12.56
11/7/2021 2:15:00 PM 7.58 45.644 0.185 7.72 4.05 12.51
11/7/2021 2:30:00 PM 7.67 45.806 0.185 7.68 4.15 12.48
11/7/2021 2:45:00 PM 7.76 45.968 0.185 7.67 4.2 12.41
11/7/2021 3:00:00 PM 7.83 46.094 0.185 7.66 4.11 12.36
11/7/2021 3:15:00 PM 7.92 46.256 0.186 7.68 4.26 12.31
11/7/2021 3:30:00 PM 7.99 46.382 0.186 7.68 4.12 12.26
11/7/2021 3:45:00 PM 8.07 46.526 0.186 7.66 4.14 12.21
11/7/2021 4:00:00 PM 8.13 46.634 0.186 7.66 4.04 12.15
11/7/2021 4:15:00 PM 8.19 46.742 0.186 7.64 4.28 12.08
11/7/2021 4:30:00 PM 8.23 46.814 0.186 7.64 4.2 12.03
11/7/2021 4:45:00 PM 8.26 46.868 0.186 7.58 4.23 11.99
11/7/2021 5:00:00 PM 8.26 46.868 0.187 7.62 4.21 11.95
11/7/2021 5:15:00 PM 8.25 46.85 0.187 7.6 4.29 11.88
11/7/2021 5:30:00 PM 8.23 46.814 0.187 7.58 4.44 11.83
11/7/2021 5:45:00 PM 8.2 46.76 0.187 7.55 4.47 11.77
11/7/2021 6:00:00 PM 8.16 46.688 0.188 7.54 4.07 11.72
11/7/2021 6:15:00 PM 8.12 46.616 0.187 7.52 4.31 11.67
11/7/2021 6:30:00 PM 8.06 46.508 0.188 7.49 4.22 11.63
11/7/2021 6:45:00 PM 8.01 46.418 0.188 7.48 4.09 11.6
11/7/2021 7:00:00 PM 7.94 46.292 0.188 7.46 4.2 11.6
11/7/2021 7:15:00 PM 7.88 46.184 0.188 7.46 4.19 11.58
11/7/2021 7:30:00 PM 7.81 46.058 0.189 7.45 4.04 11.61
11/7/2021 7:45:00 PM 7.74 45.932 0.189 7.43 4.01 11.53
11/7/2021 8:00:00 PM 7.67 45.806 0.189 7.43 4.15 11.63
11/7/2021 8:15:00 PM 7.6 45.68 0.189 7.42 4.14 11.64
11/7/2021 8:30:00 PM 7.53 45.554 0.189 7.38 4.21 11.65
11/7/2021 8:45:00 PM 7.47 45.446 0.189 7.4 4.06 11.68
11/7/2021 9:00:00 PM 7.4 45.32 0.189 7.4 3.96 11.69
11/7/2021 9:15:00 PM 7.33 45.194 0.189 7.39 4.17 11.71
11/7/2021 9:30:00 PM 7.26 45.068 0.189 7.4 4.06 11.74
11/7/2021 9:45:00 PM 7.19 44.942 0.189 7.39 4.08 11.75
11/7/2021 10:00:00 PM 7.14 44.852 0.189 7.36 3.96 11.78
11/7/2021 10:15:00 PM 7.07 44.726 0.189 7.39 4.03 11.8
11/7/2021 10:30:00 PM 7.01 44.618 0.189 7.35 4.01 11.81
11/7/2021 10:45:00 PM 6.96 44.528 0.189 7.35 3.99 11.82
11/7/2021 11:00:00 PM 6.91 44.438 0.189 7.37 3.87 11.84
11/7/2021 11:15:00 PM 6.86 44.348 0.189 7.38 4.04 11.85
11/7/2021 11:30:00 PM 6.8 44.24 0.189 7.37 4.23 11.87
11/7/2021 11:45:00 PM 6.76 44.168 0.19 7.37 4.03 11.89
11/8/2021 12:00:00 AM 6.71 44.078 0.19 7.34 4.08 11.89
11/8/2021 12:15:00 AM 6.67 44.006 0.19 7.36 4.18 11.91
11/8/2021 12:30:00 AM 6.63 43.934 0.19 7.36 4.04 11.93
11/8/2021 12:45:00 AM 6.59 43.862 0.19 7.36 4.34 11.95
11/8/2021 1:00:00 AM 6.56 43.808 0.189 7.36 4.3 11.97
11/8/2021 1:15:00 AM 6.52 43.736 0.189 7.35 4.24 11.96
11/8/2021 1:30:00 AM 6.49 43.682 0.19 7.36 4.32 11.97
11/8/2021 1:45:00 AM 6.45 43.61 0.189 7.33 3.94 11.99
11/8/2021 2:00:00 AM 6.42 43.556 0.189 7.36 4.13 12.01
11/8/2021 2:15:00 AM 6.39 43.502 0.189 7.36 4.09 12.02
11/8/2021 2:30:00 AM 6.36 43.448 0.189 7.32 4.08 12.01
11/8/2021 2:45:00 AM 6.33 43.394 0.189 7.36 3.91 12.01
11/8/2021 3:00:00 AM 6.31 43.358 0.189 7.36 3.96 12.03
11/8/2021 3:15:00 AM 6.28 43.304 0.189 7.35 4.05 12.02
11/8/2021 3:30:00 AM 6.25 43.25 0.189 7.36 4.14 12.05
11/8/2021 3:45:00 AM 6.23 43.214 0.189 7.31 4.18 12.06
11/8/2021 4:00:00 AM 6.2 43.16 0.189 7.36 4.27 12.07
11/8/2021 4:15:00 AM 6.18 43.124 0.189 7.36 4.12 12.09
11/8/2021 4:30:00 AM 6.15 43.07 0.189 7.35 4.02 12.09
11/8/2021 4:45:00 AM 6.13 43.034 0.188 7.35 4.32 12.09
11/8/2021 5:00:00 AM 6.11 42.998 0.188 7.35 4.11 12.1
11/8/2021 5:15:00 AM 6.08 42.944 0.188 7.35 4.14 12.11
11/8/2021 5:30:00 AM 6.06 42.908 0.188 7.34 4.22 12.14
11/8/2021 5:45:00 AM 6.04 42.872 0.188 7.35 4.24 12.13
11/8/2021 6:00:00 AM 6.01 42.818 0.188 7.36 4.02 12.14
11/8/2021 6:15:00 AM 5.99 42.782 0.188 7.33 4.13 12.16
11/8/2021 6:30:00 AM 5.96 42.728 0.188 7.35 4.12 12.14
11/8/2021 6:45:00 AM 5.94 42.692 0.188 7.35 4.04 12.18
11/8/2021 7:00:00 AM 5.92 42.656 0.188 7.32 4.19 12.18
11/8/2021 7:15:00 AM 5.9 42.62 0.188 7.35 4.12 12.19
11/8/2021 7:30:00 AM 5.88 42.584 0.188 7.34 4.22 12.2
11/8/2021 7:45:00 AM 5.85 42.53 0.188 7.35 4.06 12.22
11/8/2021 8:00:00 AM 5.84 42.512 0.188 7.35 4.19 12.22
11/8/2021 8:15:00 AM 5.82 42.476 0.188 7.36 3.98 12.27
11/8/2021 8:30:00 AM 5.81 42.458 0.188 7.34 4.05 12.31
11/8/2021 8:45:00 AM 5.8 42.44 0.188 7.37 4.01 12.34
11/8/2021 9:00:00 AM 5.8 42.44 0.188 7.38 3.91 12.42
11/8/2021 9:15:00 AM 5.8 42.44 0.188 7.39 4.12 12.49
11/8/2021 9:30:00 AM 5.82 42.476 0.188 7.36 4.15 12.55
11/8/2021 9:45:00 AM 5.84 42.512 0.188 7.41 4.19 12.6
11/8/2021 10:00:00 AM 5.88 42.584 0.188 7.42 4.28 12.64
11/8/2021 10:15:00 AM 5.92 42.656 0.188 7.43 4 12.7
11/8/2021 10:30:00 AM 5.99 42.782 0.188 7.45 3.95 12.75
11/8/2021 10:45:00 AM 6.05 42.89 0.188 7.45 4.07 12.78
11/8/2021 11:00:00 AM 6.13 43.034 0.188 7.47 4.89 12.79
11/8/2021 11:15:00 AM 6.24 43.232 0.188 7.47 4.56 12.82
11/8/2021 11:30:00 AM 6.34 43.412 0.188 7.52 3.81 12.87
11/8/2021 11:45:00 AM 6.46 43.628 0.188 7.49 3.91 12.84
11/8/2021 12:00:00 PM 6.59 43.862 0.188 7.54 3.7 12.87
11/8/2021 12:15:00 PM 6.73 44.114 0.188 7.55 3.78 12.84
11/8/2021 12:30:00 PM 6.88 44.384 0.188 7.56 3.81 12.82
11/8/2021 12:45:00 PM 7.04 44.672 0.188 7.58 4.07 12.81
11/8/2021 1:00:00 PM 7.2 44.96 0.188 7.59 3.89 12.79
11/8/2021 1:15:00 PM 7.35 45.23 0.187 7.6 3.79 12.73
11/8/2021 1:30:00 PM 7.51 45.518 0.188 7.6 3.88 12.7
11/8/2021 1:45:00 PM 7.66 45.788 0.187 7.63 3.78 12.67
11/8/2021 2:00:00 PM 7.79 46.022 0.187 7.63 3.86 12.62
11/8/2021 2:15:00 PM 7.92 46.256 0.187 7.65 3.86 12.57
11/8/2021 2:30:00 PM 8.04 46.472 0.187 7.64 3.88 12.52
11/8/2021 2:45:00 PM 8.12 46.616 0.187 7.62 3.7 12.45
11/8/2021 3:00:00 PM 8.21 46.778 0.187 7.65 3.83 12.42
11/8/2021 3:15:00 PM 8.29 46.922 0.187 7.65 3.88 12.34
11/8/2021 3:30:00 PM 8.37 47.066 0.187 7.65 3.72 12.28
11/8/2021 3:45:00 PM 8.46 47.228 0.187 7.65 3.79 12.22
11/8/2021 4:00:00 PM 8.54 47.372 0.187 7.64 3.87 12.16
11/8/2021 4:15:00 PM 8.6 47.48 0.187 7.63 3.82 12.1
11/8/2021 4:30:00 PM 8.66 47.588 0.187 7.63 3.69 12.03
11/8/2021 4:45:00 PM 8.7 47.66 0.188 7.63 3.71 11.97
11/8/2021 5:00:00 PM 8.73 47.714 0.188 7.61 3.79 11.9
11/8/2021 5:15:00 PM 8.74 47.732 0.188 7.57 3.71 11.82
11/8/2021 5:30:00 PM 8.73 47.714 0.188 7.59 3.85 11.76
11/8/2021 5:45:00 PM 8.72 47.696 0.189 7.56 3.77 11.67
11/8/2021 6:00:00 PM 8.7 47.66 0.189 7.55 3.95 11.62
11/8/2021 6:15:00 PM 8.67 47.606 0.189 7.53 3.77 11.55
11/8/2021 6:30:00 PM 8.63 47.534 0.189 7.49 4.02 11.49
11/8/2021 6:45:00 PM 8.59 47.462 0.189 7.51 3.88 11.45
11/8/2021 7:00:00 PM 8.54 47.372 0.189 7.49 3.85 11.43
11/8/2021 7:15:00 PM 8.5 47.3 0.189 7.48 3.86 11.44
11/8/2021 7:30:00 PM 8.44 47.192 0.19 7.48 4.08 11.43
11/8/2021 7:45:00 PM 8.38 47.084 0.19 7.47 3.87 11.42
11/8/2021 8:00:00 PM 8.32 46.976 0.19 7.43 4.01 11.44
11/8/2021 8:15:00 PM 8.26 46.868 0.19 7.44 3.84 11.44
11/8/2021 8:30:00 PM 8.2 46.76 0.19 7.45 3.81 11.47
11/8/2021 8:45:00 PM 8.13 46.634 0.19 7.43 3.92 11.47
11/8/2021 9:00:00 PM 8.06 46.508 0.19 7.41 3.8 11.49
11/8/2021 9:15:00 PM 7.99 46.382 0.19 7.43 4.03 11.52
11/8/2021 9:30:00 PM 7.93 46.274 0.19 7.4 4.13 11.54
11/8/2021 9:45:00 PM 7.86 46.148 0.19 7.4 4.6 11.55
11/8/2021 10:00:00 PM 7.8 46.04 0.191 7.41 3.89 11.57
11/8/2021 10:15:00 PM 7.73 45.914 0.191 7.4 4.1 11.6
11/8/2021 10:30:00 PM 7.68 45.824 0.191 7.36 3.78 11.61
11/8/2021 10:45:00 PM 7.62 45.716 0.191 7.4 4.02 11.63
11/8/2021 11:00:00 PM 7.57 45.626 0.191 7.39 4.01 11.65
11/8/2021 11:15:00 PM 7.52 45.536 0.191 7.39 3.84 11.67
11/8/2021 11:30:00 PM 7.46 45.428 0.191 7.39 3.84 11.68
11/8/2021 11:45:00 PM 7.42 45.356 0.191 7.39 3.92 11.69
11/9/2021 12:00:00 AM 7.37 45.266 0.191 7.39 3.77 11.7
11/9/2021 12:15:00 AM 7.32 45.176 0.191 7.38 3.96 11.72
11/9/2021 12:30:00 AM 7.27 45.086 0.191 7.38 4.08 11.73
11/9/2021 12:45:00 AM 7.23 45.014 0.191 7.34 4.11 11.75
11/9/2021 1:00:00 AM 7.19 44.942 0.191 7.38 3.83 11.74
11/9/2021 1:15:00 AM 7.14 44.852 0.191 7.37 3.83 11.75
11/9/2021 1:30:00 AM 7.11 44.798 0.19 7.38 3.84 11.74
11/9/2021 1:45:00 AM 7.07 44.726 0.191 7.38 3.88 11.78
11/9/2021 2:00:00 AM 7.03 44.654 0.19 7.38 3.66 11.78
11/9/2021 2:15:00 AM 6.99 44.582 0.19 7.37 3.85 11.81
11/9/2021 2:30:00 AM 6.95 44.51 0.19 7.37 3.76 11.82
11/9/2021 2:45:00 AM 6.92 44.456 0.19 7.37 3.95 11.83
11/9/2021 3:00:00 AM 6.89 44.402 0.19 7.37 3.76 11.85
11/9/2021 3:15:00 AM 6.86 44.348 0.19 7.37 3.83 11.85
11/9/2021 3:30:00 AM 6.83 44.294 0.189 7.37 3.88 11.87
11/9/2021 3:45:00 AM 6.8 44.24 0.189 7.34 3.83 11.87
11/9/2021 4:00:00 AM 6.77 44.186 0.189 7.36 3.84 11.87
11/9/2021 4:15:00 AM 6.74 44.132 0.189 7.34 3.82 11.89
11/9/2021 4:30:00 AM 6.71 44.078 0.189 7.37 3.77 11.88
11/9/2021 4:45:00 AM 6.69 44.042 0.189 7.35 3.91 11.92
11/9/2021 5:00:00 AM 6.66 43.988 0.188 7.36 4.01 11.92
11/9/2021 5:15:00 AM 6.64 43.952 0.188 7.36 3.64 11.94
11/9/2021 5:30:00 AM 6.61 43.898 0.188 7.36 3.78 11.93
11/9/2021 5:45:00 AM 6.59 43.862 0.188 7.36 3.84 11.96
11/9/2021 6:00:00 AM 6.57 43.826 0.188 7.35 3.81 11.96
11/9/2021 6:15:00 AM 6.54 43.772 0.188 7.36 3.76 11.97
11/9/2021 6:30:00 AM 6.52 43.736 0.188 7.34 3.89 11.98
11/9/2021 6:45:00 AM 6.5 43.7 0.187 7.38 3.76 11.98
11/9/2021 7:00:00 AM 6.48 43.664 0.187 7.37 3.96 11.99
11/9/2021 7:15:00 AM 6.46 43.628 0.187 7.34 3.82 11.98
11/9/2021 7:30:00 AM 6.44 43.592 0.187 7.37 3.96 11.99
11/9/2021 7:45:00 AM 6.42 43.556 0.187 7.37 3.82 11.99
11/9/2021 8:00:00 AM 6.41 43.538 0.187 7.37 3.86 12.03
11/9/2021 8:15:00 AM 6.4 43.52 0.187 7.36 3.78 12.04
11/9/2021 8:30:00 AM 6.39 43.502 0.187 7.38 3.77 12.1
11/9/2021 8:45:00 AM 6.39 43.502 0.187 7.42 3.89 12.17
11/9/2021 9:00:00 AM 6.4 43.52 0.186 7.42 3.83 12.25
11/9/2021 9:15:00 AM 6.41 43.538 0.186 7.44 3.95 12.3
11/9/2021 9:30:00 AM 6.43 43.574 0.186 7.43 3.83 12.38
11/9/2021 9:45:00 AM 6.46 43.628 0.186 7.45 3.8 12.42
11/9/2021 10:00:00 AM 6.51 43.718 0.185 7.47 3.78 12.48
11/9/2021 10:15:00 AM 6.56 43.808 0.185 7.48 3.68 12.53
11/9/2021 10:30:00 AM 6.63 43.934 0.185 7.48 3.71 12.56
11/9/2021 10:45:00 AM 6.71 44.078 0.185 7.52 3.92 12.63
11/9/2021 11:00:00 AM 6.81 44.258 0.185 7.54 3.7 12.65
11/9/2021 11:15:00 AM 6.92 44.456 0.184 7.55 3.86 12.67
11/9/2021 11:30:00 AM 7.03 44.654 0.184 7.58 3.71 12.71
11/9/2021 11:45:00 AM 7.16 44.888 0.184 7.58 3.75 12.74
11/9/2021 12:00:00 PM 7.3 45.14 0.184 7.6 3.8 12.74
11/9/2021 12:15:00 PM 7.43 45.374 0.184 7.64 3.81 12.75
11/9/2021 12:30:00 PM 7.59 45.662 0.184 7.66 3.84 12.75
11/9/2021 12:45:00 PM 7.75 45.95 0.184 7.7 3.66 12.74
11/9/2021 1:00:00 PM 7.89 46.202 0.184 7.72 3.64 12.73
11/9/2021 1:15:00 PM 8.04 46.472 0.184 7.7 3.7 12.69
11/9/2021 1:30:00 PM 8.19 46.742 0.184 7.76 3.77 12.66
11/9/2021 1:45:00 PM 8.33 46.994 0.184 7.77 3.64 12.64
11/9/2021 2:00:00 PM 8.47 47.246 0.184 7.79 3.78 12.59
11/9/2021 2:15:00 PM 8.59 47.462 0.184 7.82 3.7 12.54
11/9/2021 2:30:00 PM 8.71 47.678 0.184 7.83 3.68 12.51
11/9/2021 2:45:00 PM 8.82 47.876 0.184 7.79 3.6 12.48
11/9/2021 3:00:00 PM 8.9 48.02 0.183 7.84 3.65 12.44
11/9/2021 3:15:00 PM 8.99 48.182 0.183 7.83 3.62 12.4
11/9/2021 3:30:00 PM 9.05 48.29 0.183 7.83 3.52 12.32
11/9/2021 3:45:00 PM 9.11 48.398 0.184 7.83 3.77 12.24
11/9/2021 4:00:00 PM 9.18 48.524 0.184 7.82 3.52 12.17
11/9/2021 4:15:00 PM 9.25 48.65 0.184 7.78 3.56 12.13
11/9/2021 4:30:00 PM 9.32 48.776 0.184 7.81 3.62 12.05
11/9/2021 4:45:00 PM 9.38 48.884 0.184 7.8 3.52 12
11/9/2021 5:00:00 PM 9.41 48.938 0.184 7.77 3.54 11.9
11/9/2021 5:15:00 PM 9.44 48.992 0.184 7.73 3.55 11.75
11/9/2021 5:30:00 PM 9.45 49.01 0.184 7.71 3.51 11.64
11/9/2021 5:45:00 PM 9.46 49.028 0.184 7.69 3.53 11.5
11/9/2021 6:00:00 PM 9.45 49.01 0.184 7.62 3.62 11.42
11/9/2021 6:15:00 PM 9.44 48.992 0.184 7.64 3.67 11.34
11/9/2021 6:30:00 PM 9.43 48.974 0.184 7.62 3.69 11.29
11/9/2021 6:45:00 PM 9.41 48.938 0.185 7.56 3.58 11.22
11/9/2021 7:00:00 PM 9.39 48.902 0.185 7.61 3.67 11.21
11/9/2021 7:15:00 PM 9.37 48.866 0.185 7.52 3.8 11.2
11/9/2021 7:30:00 PM 9.34 48.812 0.185 7.54 3.77 11.18
11/9/2021 7:45:00 PM 9.32 48.776 0.185 7.52 3.66 11.15
11/9/2021 8:00:00 PM 9.29 48.722 0.185 7.52 3.68 11.18
11/9/2021 8:15:00 PM 9.27 48.686 0.185 7.46 3.78 11.16
11/9/2021 8:30:00 PM 9.24 48.632 0.186 7.48 4.15 11.16
11/9/2021 8:45:00 PM 9.21 48.578 0.186 7.46 4.11 11.17
11/9/2021 9:00:00 PM 9.18 48.524 0.186 7.44 3.64 11.18
11/9/2021 9:15:00 PM 9.15 48.47 0.186 7.44 3.67 11.18
11/9/2021 9:30:00 PM 9.13 48.434 0.186 7.38 3.64 11.16
11/9/2021 9:45:00 PM 9.09 48.362 0.186 7.39 3.63 11.19
11/9/2021 10:00:00 PM 9.05 48.29 0.186 7.42 3.6 11.17
11/9/2021 10:15:00 PM 9.01 48.218 0.186 7.42 3.65 11.21
11/9/2021 10:30:00 PM 8.99 48.182 0.187 7.42 3.71 11.2
11/9/2021 10:45:00 PM 8.96 48.128 0.187 7.41 3.59 11.21
11/9/2021 11:00:00 PM 8.93 48.074 0.187 7.42 3.78 11.21
11/9/2021 11:15:00 PM 8.89 48.002 0.187 7.35 3.66 11.22
11/9/2021 11:30:00 PM 8.85 47.93 0.187 7.43 3.61 11.23
11/9/2021 11:45:00 PM 8.83 47.894 0.188 7.42 3.58 11.23
11/10/2021 12:00:00 AM 8.81 47.858 0.188 7.42 3.93 11.25
11/10/2021 12:15:00 AM 8.79 47.822 0.188 7.42 3.66 11.23
11/10/2021 12:30:00 AM 8.77 47.786 0.188 7.41 3.67 11.26
11/10/2021 12:45:00 AM 8.74 47.732 0.188 7.41 3.81 11.27
11/10/2021 1:00:00 AM 8.71 47.678 0.188 7.4 3.69 11.27
11/10/2021 1:15:00 AM 8.69 47.642 0.188 7.4 3.54 11.26
11/10/2021 1:30:00 AM 8.67 47.606 0.188 7.4 3.61 11.28
11/10/2021 1:45:00 AM 8.65 47.57 0.188 7.37 3.58 11.29
11/10/2021 2:00:00 AM 8.63 47.534 0.188 7.39 3.57 11.29
11/10/2021 2:15:00 AM 8.62 47.516 0.188 7.38 3.55 11.29
11/10/2021 2:30:00 AM 8.6 47.48 0.188 7.39 3.54 11.29
11/10/2021 2:45:00 AM 8.57 47.426 0.188 7.33 3.61 11.31
11/10/2021 3:00:00 AM 8.54 47.372 0.188 7.35 3.61 11.31
11/10/2021 3:15:00 AM 8.52 47.336 0.188 7.38 3.63 11.31
11/10/2021 3:30:00 AM 8.5 47.3 0.188 7.39 3.56 11.3
11/10/2021 3:45:00 AM 8.48 47.264 0.189 7.33 3.54 11.33
11/10/2021 4:00:00 AM 8.46 47.228 0.189 7.39 3.63 11.32
11/10/2021 4:15:00 AM 8.45 47.21 0.188 7.38 3.65 11.33
11/10/2021 4:30:00 AM 8.43 47.174 0.188 7.37 3.57 11.32
11/10/2021 4:45:00 AM 8.41 47.138 0.188 7.37 3.58 11.34
11/10/2021 5:00:00 AM 8.39 47.102 0.188 7.32 3.61 11.32
11/10/2021 5:15:00 AM 8.37 47.066 0.188 7.37 3.55 11.35
11/10/2021 5:30:00 AM 8.36 47.048 0.188 7.37 3.64 11.35
11/10/2021 5:45:00 AM 8.34 47.012 0.188 7.37 3.57 11.35
11/10/2021 6:00:00 AM 8.33 46.994 0.188 7.33 3.68 11.36
11/10/2021 6:15:00 AM 8.31 46.958 0.187 7.34 3.58 11.37
11/10/2021 6:30:00 AM 8.29 46.922 0.187 7.37 3.58 11.37
11/10/2021 6:45:00 AM 8.26 46.868 0.187 7.37 3.68 11.38
11/10/2021 7:00:00 AM 8.26 46.868 0.187 7.37 3.36 11.38
11/10/2021 7:15:00 AM 8.26 46.868 0.187 7.37 3.55 11.4
11/10/2021 7:30:00 AM 8.26 46.868 0.187 7.37 3.58 11.4
11/10/2021 7:45:00 AM 8.25 46.85 0.187 7.36 3.39 11.41
11/10/2021 8:00:00 AM 8.23 46.814 0.187 7.35 3.53 11.43
11/10/2021 8:15:00 AM 8.24 46.832 0.187 7.37 3.56 11.44
11/10/2021 8:30:00 AM 8.24 46.832 0.187 7.37 3.54 11.48
11/10/2021 8:45:00 AM 8.26 46.868 0.187 7.38 3.44 11.56
11/10/2021 9:00:00 AM 8.29 46.922 0.186 7.38 3.37 11.61
11/10/2021 9:15:00 AM 8.31 46.958 0.186 7.4 3.37 11.65
11/10/2021 9:30:00 AM 8.35 47.03 0.186 7.41 3.51 11.67
11/10/2021 9:45:00 AM 8.39 47.102 0.185 7.45 3.36 11.74
11/10/2021 10:00:00 AM 8.44 47.192 0.185 7.47 3.37 11.84
11/10/2021 10:15:00 AM 8.48 47.264 0.185 7.48 3.32 11.86
11/10/2021 10:30:00 AM 8.53 47.354 0.184 7.51 3.29 11.97
11/10/2021 10:45:00 AM 8.6 47.48 0.184 7.55 3.41 12.08
11/10/2021 11:00:00 AM 8.66 47.588 0.184 7.58 3.29 12.15
11/10/2021 11:15:00 AM 8.73 47.714 0.184 7.57 3.42 12.25
11/10/2021 11:30:00 AM 8.76 47.768 0.184 7.63 3.32 12.29
11/10/2021 11:45:00 AM 8.82 47.876 0.184 7.63 3.32 12.36
11/10/2021 12:00:00 PM 8.85 47.93 0.183 7.68 3.26 12.33
11/10/2021 12:15:00 PM 8.92 48.056 0.183 7.7 3.36 12.34
11/10/2021 12:30:00 PM 9.03 48.254 0.183 7.72 3.32 12.32
11/10/2021 12:45:00 PM 9.15 48.47 0.183 7.74 3.31 12.34
11/10/2021 1:00:00 PM 9.28 48.704 0.183 7.77 3.26 12.34
11/10/2021 1:15:00 PM 9.36 48.848 0.183 7.77 3.33 12.28
11/10/2021 1:30:00 PM 9.44 48.992 0.182 7.75 3.43 12.28
11/10/2021 1:45:00 PM 9.52 49.136 0.182 7.8 3.36 12.26
11/10/2021 2:00:00 PM 9.58 49.244 0.182 7.8 3.27 12.24
11/10/2021 2:15:00 PM 9.62 49.316 0.182 7.83 3.34 12.23
11/10/2021 2:30:00 PM 9.63 49.334 0.183 7.82 3.92 12.18
11/10/2021 2:45:00 PM 9.64 49.352 0.183 7.78 3.33 12.14
11/10/2021 3:00:00 PM 9.64 49.352 0.183 7.8 3.29 12.11
11/10/2021 3:15:00 PM 9.64 49.352 0.183 7.8 3.3 12.07
11/10/2021 3:30:00 PM 9.65 49.37 0.183 7.76 3.36 12.02
11/10/2021 3:45:00 PM 9.66 49.388 0.183 7.78 3.31 11.98
11/10/2021 4:00:00 PM 9.66 49.388 0.183 7.75 3.27 11.94
11/10/2021 4:15:00 PM 9.65 49.37 0.183 7.74 3.28 11.86
11/10/2021 4:30:00 PM 9.62 49.316 0.183 7.72 3.27 11.84
11/10/2021 4:45:00 PM 9.6 49.28 0.184 7.71 3.24 11.78
11/10/2021 5:00:00 PM 9.56 49.208 0.184 7.68 3.23 11.72
11/10/2021 5:15:00 PM 9.51 49.118 0.185 7.66 3.3 11.65
11/10/2021 5:30:00 PM 9.45 49.01 0.185 7.61 3.28 11.58
11/10/2021 5:45:00 PM 9.39 48.902 0.185 7.6 3.27 11.5
11/10/2021 6:00:00 PM 9.32 48.776 0.186 7.56 3.31 11.44
11/10/2021 6:15:00 PM 9.24 48.632 0.187 7.54 3.5 11.37
11/10/2021 6:30:00 PM 9.16 48.488 0.187 7.53 3.33 11.34
11/10/2021 6:45:00 PM 9.07 48.326 0.188 7.47 3.32 11.31
11/10/2021 7:00:00 PM 8.98 48.164 0.189 7.49 3.21 11.31
11/10/2021 7:15:00 PM 8.88 47.984 0.189 7.48 3.32 11.32
11/10/2021 7:30:00 PM 8.78 47.804 0.19 7.46 3.41 11.34
11/10/2021 7:45:00 PM 8.68 47.624 0.191 7.45 3.3 11.36
11/10/2021 8:00:00 PM 8.57 47.426 0.191 7.44 3.33 11.38
11/10/2021 8:15:00 PM 8.47 47.246 0.192 7.41 3.42 11.39
11/10/2021 8:30:00 PM 8.35 47.03 0.193 7.4 3.38 11.43
11/10/2021 8:45:00 PM 8.25 46.85 0.193 7.42 3.35 11.44
11/10/2021 9:00:00 PM 8.15 46.67 0.194 7.42 3.27 11.46
11/10/2021 9:15:00 PM 8.05 46.49 0.194 7.39 2.73 11.51
11/10/2021 9:30:00 PM 7.95 46.31 0.195 7.41 3.07 11.52
11/10/2021 9:45:00 PM 7.84 46.112 0.196 7.42 3.54 11.58
11/10/2021 10:00:00 PM 7.75 45.95 0.196 7.4 3.43 11.6
11/10/2021 10:15:00 PM 7.66 45.788 0.197 7.41 3.24 11.63
11/10/2021 10:30:00 PM 7.56 45.608 0.197 7.4 3.65 11.65
11/10/2021 10:45:00 PM 7.47 45.446 0.197 7.4 3.23 11.68
11/10/2021 11:00:00 PM 7.38 45.284 0.197 7.4 3.23 11.73
11/10/2021 11:15:00 PM 7.31 45.158 0.196 7.4 3.18 11.74
11/10/2021 11:30:00 PM 7.24 45.032 0.196 7.4 3.38 11.75
11/10/2021 11:45:00 PM 7.18 44.924 0.195 7.39 3.13 11.77
11/11/2021 12:00:00 AM 7.13 44.834 0.194 7.4 3.05 11.8
11/11/2021 12:15:00 AM 7.08 44.744 0.193 7.35 3.07 11.81
11/11/2021 12:30:00 AM 7.05 44.69 0.192 7.39 3.04 11.81
11/11/2021 12:45:00 AM 7.01 44.618 0.192 7.38 3.14 11.83
11/11/2021 1:00:00 AM 6.98 44.564 0.191 7.37 3.02 11.83
11/11/2021 1:15:00 AM 6.94 44.492 0.191 7.38 3.04 11.84
11/11/2021 1:30:00 AM 6.91 44.438 0.191 7.38 3.11 11.84
11/11/2021 1:45:00 AM 6.88 44.384 0.19 7.37 3.26 11.87
11/11/2021 2:00:00 AM 6.85 44.33 0.19 7.39 3.24 11.88
11/11/2021 2:15:00 AM 6.82 44.276 0.19 7.38 3.16 11.89
11/11/2021 2:30:00 AM 6.78 44.204 0.19 7.37 3.5 11.89
11/11/2021 2:45:00 AM 6.75 44.15 0.189 7.38 3.21 11.9
11/11/2021 3:00:00 AM 6.72 44.096 0.189 7.38 3.15 11.91
11/11/2021 3:15:00 AM 6.68 44.024 0.189 7.38 3.1 11.9
11/11/2021 3:30:00 AM 6.66 43.988 0.189 7.34 3.21 11.92
11/11/2021 3:45:00 AM 6.63 43.934 0.189 7.38 3.31 11.93
11/11/2021 4:00:00 AM 6.61 43.898 0.189 7.38 3.05 11.94
11/11/2021 4:15:00 AM 6.59 43.862 0.189 7.38 3.04 11.96
11/11/2021 4:30:00 AM 6.56 43.808 0.189 7.34 2.99 11.95
11/11/2021 4:45:00 AM 6.54 43.772 0.189 7.39 3 11.95
11/11/2021 5:00:00 AM 6.53 43.754 0.189 7.38 3.08 11.95
11/11/2021 5:15:00 AM 6.5 43.7 0.188 7.38 3.11 11.97
11/11/2021 5:30:00 AM 6.49 43.682 0.188 7.38 2.93 11.97
11/11/2021 5:45:00 AM 6.47 43.646 0.188 7.38 2.99 11.97
11/11/2021 6:00:00 AM 6.45 43.61 0.187 7.39 3.03 11.97
11/11/2021 6:15:00 AM 6.45 43.61 0.187 7.34 2.94 11.96
11/11/2021 6:30:00 AM 6.43 43.574 0.188 7.38 3.03 11.98
11/11/2021 6:45:00 AM 6.41 43.538 0.188 7.37 3.14 11.97
11/11/2021 7:00:00 AM 6.39 43.502 0.188 7.37 2.94 12.02
11/11/2021 7:15:00 AM 6.38 43.484 0.188 7.37 2.95 11.99
11/11/2021 7:30:00 AM 6.37 43.466 0.188 7.36 3.04 12
11/11/2021 7:45:00 AM 6.35 43.43 0.188 7.37 3.02 12.01
11/11/2021 8:00:00 AM 6.34 43.412 0.188 7.37 3.24 12.05
11/11/2021 8:15:00 AM 6.33 43.394 0.188 7.35 2.89 12.08
11/11/2021 8:30:00 AM 6.33 43.394 0.188 7.37 3.02 12.16
11/11/2021 8:45:00 AM 6.33 43.394 0.188 7.39 2.97 12.24
11/11/2021 9:00:00 AM 6.34 43.412 0.188 7.37 2.96 12.33
11/11/2021 9:15:00 AM 6.35 43.43 0.188 7.43 2.94 12.42
11/11/2021 9:30:00 AM 6.37 43.466 0.187 7.44 3.03 12.52
11/11/2021 9:45:00 AM 6.41 43.538 0.187 7.47 3.15 12.63
11/11/2021 10:00:00 AM 6.45 43.61 0.187 7.46 3.25 12.73
11/11/2021 10:15:00 AM 6.5 43.7 0.187 7.51 3.1 12.78
11/11/2021 10:30:00 AM 6.56 43.808 0.187 7.53 3.15 12.85
11/11/2021 10:45:00 AM 6.63 43.934 0.187 7.56 3.17 12.92
11/11/2021 11:00:00 AM 6.72 44.096 0.187 7.57 3.14 12.96
11/11/2021 11:15:00 AM 6.82 44.276 0.187 7.61 3.13 13.03
11/11/2021 11:30:00 AM 6.95 44.51 0.187 7.61 3.06 13.06
11/11/2021 11:45:00 AM 7.08 44.744 0.186 7.68 3.07 13.07
11/11/2021 12:00:00 PM 7.21 44.978 0.186 7.68 3.13 13.09
11/11/2021 12:15:00 PM 7.34 45.212 0.186 7.74 3.06 13.1
11/11/2021 12:30:00 PM 7.47 45.446 0.187 7.74 3.03 13.12
11/11/2021 12:45:00 PM 7.58 45.644 0.187 7.79 3.07 13.11
11/11/2021 1:00:00 PM 7.74 45.932 0.187 7.8 3.1 13.13
11/11/2021 1:15:00 PM 7.84 46.112 0.187 7.86 3 13.11
11/11/2021 1:30:00 PM 7.94 46.292 0.187 7.89 3.07 13.13
11/11/2021 1:45:00 PM 8.05 46.49 0.187 7.93 3.05 13.11
11/11/2021 2:00:00 PM 8.16 46.688 0.187 7.94 2.99 13.08
11/11/2021 2:15:00 PM 8.26 46.868 0.187 7.95 3.06 13.07
11/11/2021 2:30:00 PM 8.35 47.03 0.187 7.97 3.15 13.04
11/11/2021 2:45:00 PM 8.44 47.192 0.188 7.98 3.1 12.99
11/11/2021 3:00:00 PM 8.52 47.336 0.188 7.98 3.1 12.96
11/11/2021 3:15:00 PM 8.6 47.48 0.188 7.99 3.07 12.91
11/11/2021 3:30:00 PM 8.66 47.588 0.188 7.95 3.05 12.8
11/11/2021 3:45:00 PM 8.72 47.696 0.188 7.95 3.17 12.75
11/11/2021 4:00:00 PM 8.77 47.786 0.188 7.95 3.1 12.65
11/11/2021 4:15:00 PM 8.81 47.858 0.188 7.91 3.12 12.54
11/11/2021 4:30:00 PM 8.86 47.948 0.189 7.89 3.11 12.46
11/11/2021 4:45:00 PM 8.89 48.002 0.189 7.86 3.06 12.35
11/11/2021 5:00:00 PM 8.91 48.038 0.189 7.8 3.1 12.2
11/11/2021 5:15:00 PM 8.93 48.074 0.19 7.76 3.16 12.06
11/11/2021 5:30:00 PM 8.93 48.074 0.192 7.72 3.07 11.9
11/11/2021 5:45:00 PM 8.93 48.074 0.192 7.69 3.24 11.77
11/11/2021 6:00:00 PM 8.91 48.038 0.193 7.66 3.08 11.65
11/11/2021 6:15:00 PM 8.9 48.02 0.193 7.64 3.12 11.52
11/11/2021 6:30:00 PM 8.89 48.002 0.194 7.61 3.31 11.45
11/11/2021 6:45:00 PM 8.88 47.984 0.194 7.58 3.16 11.39
11/11/2021 7:00:00 PM 8.87 47.966 0.194 7.55 3.12 11.36
11/11/2021 7:15:00 PM 8.85 47.93 0.194 7.55 3.34 11.32
11/11/2021 7:30:00 PM 8.82 47.876 0.195 7.52 3.14 11.29
11/11/2021 7:45:00 PM 8.81 47.858 0.195 7.5 3.21 11.29
11/11/2021 8:00:00 PM 8.82 47.876 0.195 7.51 3.19 11.3
11/11/2021 8:15:00 PM 8.8 47.84 0.196 7.51 3.38 11.27
11/11/2021 8:30:00 PM 8.78 47.804 0.196 7.52 3.16 11.26
11/11/2021 8:45:00 PM 8.77 47.786 0.196 7.5 3.37 11.27
11/11/2021 9:00:00 PM 8.77 47.786 0.196 7.5 3.24 11.25
11/11/2021 9:15:00 PM 8.77 47.786 0.195 7.49 3.3 11.26
11/11/2021 9:30:00 PM 8.79 47.822 0.195 7.49 3.28 11.25
11/11/2021 9:45:00 PM 8.8 47.84 0.195 7.46 3.12 11.25
11/11/2021 10:00:00 PM 8.81 47.858 0.195 7.45 3.24 11.24
11/11/2021 10:15:00 PM 8.82 47.876 0.195 7.44 3.23 11.24
11/11/2021 10:30:00 PM 8.83 47.894 0.195 7.47 3.38 11.21
11/11/2021 10:45:00 PM 8.84 47.912 0.194 7.46 3.35 11.22
11/11/2021 11:00:00 PM 8.85 47.93 0.194 7.46 3.34 11.22
11/11/2021 11:15:00 PM 8.86 47.948 0.195 7.45 3.26 11.2
11/11/2021 11:30:00 PM 8.87 47.966 0.194 7.45 3.22 11.2
11/11/2021 11:45:00 PM 8.9 48.02 0.195 7.47 3.36 11.19
11/12/2021 12:00:00 AM 8.92 48.056 0.195 7.47 3.19 11.19
11/12/2021 12:15:00 AM 8.95 48.11 0.195 7.46 3.21 11.18
11/12/2021 12:30:00 AM 8.98 48.164 0.195 7.47 3.19 11.16
11/12/2021 12:45:00 AM 9.01 48.218 0.195 7.43 3.19 11.12
11/12/2021 1:00:00 AM 9.02 48.236 0.195 7.47 3.23 11.13
11/12/2021 1:15:00 AM 9.04 48.272 0.195 7.44 3.16 11.13
11/12/2021 1:30:00 AM 9.08 48.344 0.195 7.47 3.23 11.11
11/12/2021 1:45:00 AM 9.11 48.398 0.195 7.46 3.26 11.1
11/12/2021 2:00:00 AM 9.13 48.434 0.195 7.48 3.21 11.1
11/12/2021 2:15:00 AM 9.16 48.488 0.196 7.47 3.18 11.07
11/12/2021 2:30:00 AM 9.2 48.56 0.196 7.46 3.3 11.07
11/12/2021 2:45:00 AM 9.23 48.614 0.195 7.48 3.23 11.04
11/12/2021 3:00:00 AM 9.26 48.668 0.195 7.47 3.14 11.02
11/12/2021 3:15:00 AM 9.3 48.74 0.195 7.48 3.11 11.02
11/12/2021 3:30:00 AM 9.34 48.812 0.195 7.46 3.13 11.01
11/12/2021 3:45:00 AM 9.38 48.884 0.195 7.48 3.21 10.99
11/12/2021 4:00:00 AM 9.42 48.956 0.195 7.48 3.24 10.98
11/12/2021 4:15:00 AM 9.45 49.01 0.195 7.48 3.17 10.97
11/12/2021 4:30:00 AM 9.51 49.118 0.195 7.49 3.31 10.96
11/12/2021 4:45:00 AM 9.58 49.244 0.194 7.49 3.21 10.95
11/12/2021 5:00:00 AM 9.63 49.334 0.195 7.45 3.12 10.89
11/12/2021 5:15:00 AM 9.67 49.406 0.194 7.49 3.12 10.87
11/12/2021 5:30:00 AM 9.74 49.532 0.194 7.46 3.17 10.87
11/12/2021 5:45:00 AM 9.8 49.64 0.193 7.52 3.21 10.86
11/12/2021 6:00:00 AM 9.86 49.748 0.192 7.51 3.25 10.84
11/12/2021 6:15:00 AM 9.89 49.802 0.192 7.49 3.19 10.81
11/12/2021 6:30:00 AM 9.94 49.892 0.192 7.51 3.31 10.75
11/12/2021 6:45:00 AM 9.99 49.982 0.191 7.47 3.56 10.78
11/12/2021 7:00:00 AM 10.05 50.09 0.19 7.49 4 10.75
11/12/2021 7:15:00 AM 10.11 50.198 0.189 7.51 4.91 10.73
11/12/2021 7:30:00 AM 10.18 50.324 0.188 7.5 5.84 10.71
11/12/2021 7:45:00 AM 10.25 50.45 0.188 7.46 8.12 10.69
11/12/2021 8:00:00 AM 10.31 50.558 0.189 7.47 11.43 10.69
11/12/2021 8:15:00 AM 10.44 50.792 0.185 7.5 12.77 10.69
11/12/2021 8:30:00 AM 10.47 50.846 0.187 7.51 19.23 10.71
11/12/2021 8:45:00 AM 10.61 51.098 0.177 7.52 56.66 10.72
11/12/2021 9:00:00 AM 10.65 51.17 0.175 7.48 54.64 10.7
11/12/2021 9:15:00 AM 10.68 51.224 0.174 7.48 48.06 10.71
11/12/2021 9:30:00 AM 10.73 51.314 0.162 7.45 85.5 10.7
11/12/2021 9:45:00 AM 10.81 51.458 0.143 7.44 144.26 10.75
11/12/2021 10:00:00 AM 10.91 51.638 0.134 7.36 145.83 10.75
11/12/2021 10:15:00 AM 10.94 51.692 0.128 7.38 141.95 10.76
11/12/2021 10:30:00 AM 10.87 51.566 0.127 7.3 121.83 10.8
11/12/2021 10:45:00 AM 10.81 51.458 0.126 7.32 113.71 10.84
11/12/2021 11:00:00 AM 10.77 51.386 0.127 7.25 97.51 10.86
11/12/2021 11:15:00 AM 10.74 51.332 0.134 7.26 79.88 10.88
11/12/2021 11:30:00 AM 10.73 51.314 0.142 7.31 84.72 10.89
11/12/2021 11:45:00 AM 10.7 51.26 0.14 7.27 83.24 10.91
11/12/2021 12:00:00 PM 10.61 51.098 0.138 7.32 71.22 10.95
11/12/2021 12:15:00 PM 10.56 51.008 0.138 7.29 62.85 10.97
11/12/2021 12:30:00 PM 10.54 50.972 0.138 7.28 54.33 10.99
11/12/2021 12:45:00 PM 10.54 50.972 0.138 7.29 46.86 11.01
11/12/2021 1:00:00 PM 10.54 50.972 0.137 7.31 45.78 11.03
11/12/2021 1:15:00 PM 10.53 50.954 0.137 7.26 42.64 11.05
11/12/2021 1:30:00 PM 10.51 50.918 0.138 7.3 40.81 11.07
11/12/2021 1:45:00 PM 10.47 50.846 0.139 7.29 36.6 11.09
11/12/2021 2:00:00 PM 10.42 50.756 0.14 7.35 31.88 11.12
11/12/2021 2:15:00 PM 10.37 50.666 0.141 7.35 32.2 11.14
11/12/2021 2:30:00 PM 10.31 50.558 0.142 7.38 24.04 11.18
11/12/2021 2:45:00 PM 10.22 50.396 0.143 7.36 24.29 11.2
11/12/2021 3:00:00 PM 10.14 50.252 0.145 7.36 24.31 11.21
11/12/2021 3:15:00 PM 10.05 50.09 0.145 7.37 21.66 11.23
11/12/2021 3:30:00 PM 9.97 49.946 0.146 7.31 20.55 11.25
11/12/2021 3:45:00 PM 9.9 49.82 0.146 7.35 19.31 11.27
11/12/2021 4:00:00 PM 9.82 49.676 0.147 7.35 18.64 11.28
11/12/2021 4:15:00 PM 9.73 49.514 0.148 7.32 17.66 11.29
11/12/2021 4:30:00 PM 9.63 49.334 0.148 7.36 18.18 11.31
11/12/2021 4:45:00 PM 9.53 49.154 0.149 7.37 15.84 11.33
11/12/2021 5:00:00 PM 9.45 49.01 0.149 7.36 20.8 11.34
11/12/2021 5:15:00 PM 9.37 48.866 0.149 7.34 15.14 11.35
11/12/2021 5:30:00 PM 9.3 48.74 0.15 7.38 14.08 11.37
11/12/2021 5:45:00 PM 9.23 48.614 0.15 7.34 12.95 11.38
11/12/2021 6:00:00 PM 9.16 48.488 0.15 7.37 12.09 11.39
11/12/2021 6:15:00 PM 9.1 48.38 0.151 7.37 12.31 11.41
11/12/2021 6:30:00 PM 9.04 48.272 0.151 7.36 10.77 11.43
11/12/2021 6:45:00 PM 8.98 48.164 0.151 7.37 10.92 11.44
11/12/2021 7:00:00 PM 8.93 48.074 0.152 7.33 10.49 11.45
11/12/2021 7:15:00 PM 8.88 47.984 0.152 7.37 9.4 11.47
11/12/2021 7:30:00 PM 8.83 47.894 0.152 7.4 9.28 11.48
11/12/2021 7:45:00 PM 8.78 47.804 0.152 7.34 8.38 11.5
11/12/2021 8:00:00 PM 8.74 47.732 0.152 7.4 9.7 11.51
11/12/2021 8:15:00 PM 8.71 47.678 0.153 7.36 9.61 11.52
11/12/2021 8:30:00 PM 8.68 47.624 0.153 7.36 9.04 11.53
11/12/2021 8:45:00 PM 8.65 47.57 0.153 7.32 8.87 11.54
11/12/2021 9:00:00 PM 8.62 47.516 0.153 7.38 8.14 11.55
11/12/2021 9:15:00 PM 8.59 47.462 0.153 7.39 8.51 11.56
11/12/2021 9:30:00 PM 8.55 47.39 0.153 7.33 7.97 11.56
11/12/2021 9:45:00 PM 8.52 47.336 0.153 7.38 7.87 11.57
11/12/2021 10:00:00 PM 8.5 47.3 0.153 7.38 7.3 11.57
11/12/2021 10:15:00 PM 8.47 47.246 0.153 7.36 9.41 11.57
11/12/2021 10:30:00 PM 8.44 47.192 0.153 7.35 6.93 11.58
11/12/2021 10:45:00 PM 8.42 47.156 0.154 7.36 7.37 11.59
11/12/2021 11:00:00 PM 8.4 47.12 0.154 7.35 7.85 11.59
11/12/2021 11:15:00 PM 8.37 47.066 0.154 7.35 7.19 11.6
11/12/2021 11:30:00 PM 8.35 47.03 0.154 7.37 7.18 11.6
11/12/2021 11:45:00 PM 8.33 46.994 0.154 7.39 6.97 11.61
11/13/2021 12:00:00 AM 8.32 46.976 0.154 7.34 6.69 11.6
11/13/2021 12:15:00 AM 8.31 46.958 0.154 7.38 6.97 11.6
11/13/2021 12:30:00 AM 8.3 46.94 0.154 7.36 6.72 11.6
11/13/2021 12:45:00 AM 8.28 46.904 0.154 7.36 10.06 11.6
11/13/2021 1:00:00 AM 8.27 46.886 0.104 7.37 7.57 11.6
11/13/2021 1:15:00 AM 8.26 46.868 0.154 7.31 10.86 11.6
11/13/2021 1:30:00 AM 8.24 46.832 0.154 7.37 54.77 11.6
11/13/2021 1:45:00 AM 8.22 46.796 0.154 7.37 11.53 11.61
11/13/2021 2:00:00 AM 8.21 46.778 0.154 7.36 9.43 11.6
11/13/2021 2:15:00 AM 8.2 46.76 0.154 7.32 8.14 11.61
11/13/2021 2:30:00 AM 8.19 46.742 0.154 7.34 6.51 11.6
11/13/2021 2:45:00 AM 8.18 46.724 0.154 7.31 6.35 11.61
11/13/2021 3:00:00 AM 8.17 46.706 0.154 7.32 8.92 11.61
11/13/2021 3:15:00 AM 8.16 46.688 0.154 7.36 8.84 11.6
11/13/2021 3:30:00 AM 8.15 46.67 0.154 7.36 7.47 11.6
11/13/2021 3:45:00 AM 8.14 46.652 0.154 7.33 6.3 11.6
11/13/2021 4:00:00 AM 8.14 46.652 0.154 7.36 7.68 11.6
11/13/2021 4:15:00 AM 8.14 46.652 0.154 7.36 8.65 11.6
11/13/2021 4:30:00 AM 8.13 46.634 0.154 7.3 8.95 11.59
11/13/2021 4:45:00 AM 8.13 46.634 0.155 7.36 9.51 11.59
11/13/2021 5:00:00 AM 8.12 46.616 0.155 7.31 11.26 11.59
11/13/2021 5:15:00 AM 8.12 46.616 0.155 7.37 6.92 11.58
11/13/2021 5:30:00 AM 8.12 46.616 0.155 7.37 9.22 11.58
11/13/2021 5:45:00 AM 8.12 46.616 0.155 7.37 7.75 11.58
11/13/2021 6:00:00 AM 8.11 46.598 0.155 7.37 6.99 11.58
11/13/2021 6:15:00 AM 8.1 46.58 0.155 7.31 7.46 11.58
11/13/2021 6:30:00 AM 8.1 46.58 0.155 7.36 6.46 11.58
11/13/2021 6:45:00 AM 8.1 46.58 0.156 7.35 7.86 11.57
11/13/2021 7:00:00 AM 8.11 46.598 0.156 7.35 7 11.57
11/13/2021 7:15:00 AM 8.13 46.634 0.156 7.37 7.94 11.57
11/13/2021 7:30:00 AM 8.14 46.652 0.156 7.36 7.86 11.56
11/13/2021 7:45:00 AM 8.15 46.67 0.156 7.37 8.14 11.56
11/13/2021 8:00:00 AM 8.18 46.724 0.156 7.37 6.57 11.56
11/13/2021 8:15:00 AM 8.2 46.76 0.156 7.31 6.96 11.55
11/13/2021 8:30:00 AM 8.23 46.814 0.156 7.37 6.94 11.56
11/13/2021 8:45:00 AM 8.26 46.868 0.156 7.37 6.89 11.56
11/13/2021 9:00:00 AM 8.3 46.94 0.157 7.34 7.32 11.57
11/13/2021 9:15:00 AM 8.33 46.994 0.157 7.38 8.39 11.58
11/13/2021 9:30:00 AM 8.37 47.066 0.157 7.36 7.4 11.59
11/13/2021 9:45:00 AM 8.41 47.138 0.157 7.39 80.4 11.59
11/13/2021 10:00:00 AM 8.45 47.21 0.157 7.43 7.04 11.59
11/13/2021 10:15:00 AM 8.49 47.282 0.157 7.42 7.99 11.6
11/13/2021 10:30:00 AM 8.52 47.336 0.158 7.42 7.35 11.61
11/13/2021 10:45:00 AM 8.56 47.408 0.158 7.42 7.41 11.61
11/13/2021 11:00:00 AM 8.59 47.462 0.158 7.44 8.22 11.6
11/13/2021 11:15:00 AM 8.62 47.516 0.158 7.46 7.12 11.59
11/13/2021 11:30:00 AM 8.65 47.57 0.158 7.4 6.35 11.58
11/13/2021 11:45:00 AM 8.67 47.606 0.159 7.46 6.29 11.57
11/13/2021 12:00:00 PM 8.69 47.642 0.159 7.45 6.25 11.56
11/13/2021 12:15:00 PM 8.7 47.66 0.159 7.44 12.45 11.57
11/13/2021 12:30:00 PM 8.7 47.66 0.159 7.45 6.43 11.56
11/13/2021 12:45:00 PM 8.7 47.66 0.159 7.46 7.09 11.54
11/13/2021 1:00:00 PM 8.7 47.66 0.159 7.45 2358.74 11.53
11/13/2021 1:15:00 PM 8.69 47.642 0.159 7.45 2923.47 11.52
11/13/2021 1:30:00 PM 8.69 47.642 0.159 7.47 9.55 11.54
11/13/2021 1:45:00 PM 8.68 47.624 0.159 7.43 9.07 11.53
11/13/2021 2:00:00 PM 8.68 47.624 0.159 7.48 6.45 11.53
11/13/2021 2:15:00 PM 8.66 47.588 0.159 7.48 12.6 11.52
11/13/2021 2:30:00 PM 8.62 47.516 0.159 7.47 6.48 11.52
11/13/2021 2:45:00 PM 8.59 47.462 0.159 7.45 9.24 11.53
11/13/2021 3:00:00 PM 8.57 47.426 0.16 7.45 7.36 11.55
11/13/2021 3:15:00 PM 8.55 47.39 0.16 7.45 7.86 11.56
11/13/2021 3:30:00 PM 8.53 47.354 0.16 7.45 18.91 11.57
11/13/2021 3:45:00 PM 8.51 47.318 0.16 7.46 9.61 11.56
11/13/2021 4:00:00 PM 8.5 47.3 0.16 7.45 8.13 11.59
11/13/2021 4:15:00 PM 8.49 47.282 0.161 7.45 8.95 11.61
11/13/2021 4:30:00 PM 8.47 47.246 0.161 7.4 8.45 11.62
11/13/2021 4:45:00 PM 8.44 47.192 0.162 7.42 7.21 11.62
11/13/2021 5:00:00 PM 8.41 47.138 0.162 7.41 10.93 11.61
11/13/2021 5:15:00 PM 8.38 47.084 0.162 7.46 9.7 11.6
11/13/2021 5:30:00 PM 8.34 47.012 0.162 7.44 21.48 11.58
11/13/2021 5:45:00 PM 8.3 46.94 0.163 7.38 8.24 11.57
11/13/2021 6:00:00 PM 8.26 46.868 0.164 7.4 7.98 11.55
11/13/2021 6:15:00 PM 8.21 46.778 0.165 7.39 9.65 11.55
11/13/2021 6:30:00 PM 8.16 46.688 0.166 7.39 12.4 11.55
11/13/2021 6:45:00 PM 8.11 46.598 0.165 7.36 9.98 11.56
11/13/2021 7:00:00 PM 8.07 46.526 0.172 7.4 8.65 11.57
11/13/2021 7:15:00 PM 8.03 46.454 0.174 7.41 9.26 11.58
11/13/2021 7:30:00 PM 7.98 46.364 0.174 7.4 9.68 11.6
11/13/2021 7:45:00 PM 7.93 46.274 0.174 7.34 13.35 11.61
11/13/2021 8:00:00 PM 7.89 46.202 0.173 7.41 8.43 11.63
11/13/2021 8:15:00 PM 7.85 46.13 0.172 7.37 8.66 11.64
11/13/2021 8:30:00 PM 7.81 46.058 0.171 7.4 7.07 11.65
11/13/2021 8:45:00 PM 7.76 45.968 0.17 7.36 13.24 11.67
11/13/2021 9:00:00 PM 7.72 45.896 0.169 7.39 6.7 11.68
11/13/2021 9:15:00 PM 7.68 45.824 0.169 7.39 6.62 11.69
11/13/2021 9:30:00 PM 7.65 45.77 0.168 7.35 6.3 11.71
11/13/2021 9:45:00 PM 7.63 45.734 0.168 7.41 5.92 11.71
11/13/2021 10:00:00 PM 7.61 45.698 0.167 7.4 6.1 11.72
11/13/2021 10:15:00 PM 7.61 45.698 0.167 7.39 6.14 11.73
11/13/2021 10:30:00 PM 7.6 45.68 0.167 7.39 6.67 11.73
11/13/2021 10:45:00 PM 7.6 45.68 0.166 7.39 7.82 11.74
11/13/2021 11:00:00 PM 7.6 45.68 0.166 7.32 5.89 11.73
11/13/2021 11:15:00 PM 7.6 45.68 0.166 7.36 6.86 11.74
11/13/2021 11:30:00 PM 7.6 45.68 0.165 7.38 5.77 11.73
11/13/2021 11:45:00 PM 7.6 45.68 0.165 7.37 6.15 11.73
11/14/2021 12:00:00 AM 7.59 45.662 0.164 7.41 5.76 11.74
11/14/2021 12:15:00 AM 7.58 45.644 0.164 7.4 6.35 11.74
11/14/2021 12:30:00 AM 7.56 45.608 0.164 7.39 5.59 11.75
11/14/2021 12:45:00 AM 7.56 45.608 0.164 7.35 6.14 11.75
11/14/2021 1:00:00 AM 7.55 45.59 0.164 7.4 6.1 11.75
11/14/2021 1:15:00 AM 7.55 45.59 0.164 7.4 5.87 11.75
11/14/2021 1:30:00 AM 7.55 45.59 0.163 7.4 5.89 11.75
11/14/2021 1:45:00 AM 7.55 45.59 0.163 7.39 5.94 11.75
11/14/2021 2:00:00 AM 7.54 45.572 0.163 7.4 5.6 11.75
11/14/2021 2:15:00 AM 7.53 45.554 0.163 7.38 5.87 11.76
11/14/2021 2:30:00 AM 7.52 45.536 0.163 7.38 5.82 11.76
11/14/2021 2:45:00 AM 7.52 45.536 0.163 7.39 5.96 11.77
11/14/2021 3:00:00 AM 7.52 45.536 0.163 7.38 6.74 11.76
11/14/2021 3:15:00 AM 7.52 45.536 0.163 7.39 5.88 11.77
11/14/2021 3:30:00 AM 7.53 45.554 0.163 7.4 5.87 11.77
11/14/2021 3:45:00 AM 7.53 45.554 0.163 7.39 5.85 11.77
11/14/2021 4:00:00 AM 7.53 45.554 0.163 7.39 5.65 11.77
11/14/2021 4:15:00 AM 7.53 45.554 0.163 7.37 6.06 11.77
11/14/2021 4:30:00 AM 7.54 45.572 0.163 7.4 6.52 11.76
11/14/2021 4:45:00 AM 7.54 45.572 0.163 7.39 5.39 11.77
11/14/2021 5:00:00 AM 7.55 45.59 0.163 7.38 5.6 11.76
11/14/2021 5:15:00 AM 7.55 45.59 0.163 7.39 5.61 11.77
11/14/2021 5:30:00 AM 7.56 45.608 0.163 7.35 6.34 11.76
11/14/2021 5:45:00 AM 7.56 45.608 0.163 7.38 8 11.76
11/14/2021 6:00:00 AM 7.57 45.626 0.163 7.4 5.62 11.76
11/14/2021 6:15:00 AM 7.58 45.644 0.163 7.4 5.39 11.75
11/14/2021 6:30:00 AM 7.58 45.644 0.163 7.36 5.62 11.75
11/14/2021 6:45:00 AM 7.59 45.662 0.163 7.4 5.52 11.76
11/14/2021 7:00:00 AM 7.59 45.662 0.163 7.41 5.6 11.75
11/14/2021 7:15:00 AM 7.59 45.662 0.163 7.41 5.68 11.75
11/14/2021 7:30:00 AM 7.59 45.662 0.163 7.41 5.77 11.75
11/14/2021 7:45:00 AM 7.58 45.644 0.163 7.4 5.72 11.76
11/14/2021 8:00:00 AM 7.58 45.644 0.163 7.41 9.4 11.76
11/14/2021 8:15:00 AM 7.58 45.644 0.163 7.4 5.76 11.77
11/14/2021 8:30:00 AM 7.58 45.644 0.163 7.35 5.63 11.79
11/14/2021 8:45:00 AM 7.58 45.644 0.163 7.41 5.13 11.82
11/14/2021 9:00:00 AM 7.58 45.644 0.163 7.41 5.09 11.85
11/14/2021 9:15:00 AM 7.6 45.68 0.163 7.42 5.17 11.9
11/14/2021 9:30:00 AM 7.63 45.734 0.163 7.43 4.89 11.96
11/14/2021 9:45:00 AM 7.64 45.752 0.163 7.45 5.06 12.01
11/14/2021 10:00:00 AM 7.65 45.77 0.163 7.45 5.16 12.02
11/14/2021 10:15:00 AM 7.67 45.806 0.163 7.45 4.91 12.03
11/14/2021 10:30:00 AM 7.69 45.842 0.164 7.47 4.87 12.03
11/14/2021 10:45:00 AM 7.71 45.878 0.164 7.43 4.71 12.04
11/14/2021 11:00:00 AM 7.73 45.914 0.164 7.47 4.85 12.05
11/14/2021 11:15:00 AM 7.77 45.986 0.164 7.45 4.86 12.06
11/14/2021 11:30:00 AM 7.81 46.058 0.164 7.51 4.98 12.07
11/14/2021 11:45:00 AM 7.87 46.166 0.164 7.52 4.74 12.11
11/14/2021 12:00:00 PM 7.93 46.274 0.164 7.54 4.86 12.13
11/14/2021 12:15:00 PM 7.97 46.346 0.164 7.53 4.66 12.14
11/14/2021 12:30:00 PM 7.99 46.382 0.164 7.55 4.84 12.12
11/14/2021 12:45:00 PM 8.06 46.508 0.164 7.57 4.71 12.14
11/14/2021 1:00:00 PM 8.16 46.688 0.164 7.53 4.78 12.15
11/14/2021 1:15:00 PM 8.22 46.796 0.164 7.61 4.48 12.13
11/14/2021 1:30:00 PM 8.25 46.85 0.165 7.61 4.63 12.12
11/14/2021 1:45:00 PM 8.26 46.868 0.165 7.61 4.65 12.12
11/14/2021 2:00:00 PM 8.28 46.904 0.165 7.62 4.79 12.11
11/14/2021 2:15:00 PM 8.3 46.94 0.165 7.61 4.7 12.1
11/14/2021 2:30:00 PM 8.3 46.94 0.165 7.61 4.72 12.05
11/14/2021 2:45:00 PM 8.29 46.922 0.165 7.59 4.68 12
11/14/2021 3:00:00 PM 8.28 46.904 0.166 7.59 4.58 11.97
11/14/2021 3:15:00 PM 8.27 46.886 0.166 7.58 4.62 11.94
11/14/2021 3:30:00 PM 8.26 46.868 0.166 7.58 4.62 11.92
11/14/2021 3:45:00 PM 8.25 46.85 0.166 7.56 4.88 11.9
11/14/2021 4:00:00 PM 8.23 46.814 0.166 7.56 4.55 11.87
11/14/2021 4:15:00 PM 8.22 46.796 0.167 7.56 4.76 11.85
11/14/2021 4:30:00 PM 8.2 46.76 0.167 7.55 4.81 11.81
11/14/2021 4:45:00 PM 8.18 46.724 0.167 7.54 4.41 11.78
11/14/2021 5:00:00 PM 8.15 46.67 0.167 7.52 4.52 11.73
11/14/2021 5:15:00 PM 8.13 46.634 0.167 7.51 4.57 11.7
11/14/2021 5:30:00 PM 8.12 46.616 0.167 7.49 4.69 11.67
11/14/2021 5:45:00 PM 8.1 46.58 0.167 7.48 4.6 11.64
11/14/2021 6:00:00 PM 8.08 46.544 0.168 7.48 4.54 11.62
11/14/2021 6:15:00 PM 8.06 46.508 0.168 7.46 4.77 11.6
11/14/2021 6:30:00 PM 8.04 46.472 0.168 7.47 4.55 11.59
11/14/2021 6:45:00 PM 8.01 46.418 0.168 7.45 4.73 11.58
11/14/2021 7:00:00 PM 7.99 46.382 0.168 7.45 4.66 11.57
11/14/2021 7:15:00 PM 7.96 46.328 0.168 7.46 4.83 11.58
11/14/2021 7:30:00 PM 7.93 46.274 0.169 7.44 5.04 11.58
11/14/2021 7:45:00 PM 7.91 46.238 0.169 7.46 4.52 11.57
11/14/2021 8:00:00 PM 7.88 46.184 0.169 7.44 4.8 11.59
11/14/2021 8:15:00 PM 7.87 46.166 0.169 7.45 4.92 11.59
11/14/2021 8:30:00 PM 7.85 46.13 0.169 7.46 4.69 11.59
11/14/2021 8:45:00 PM 7.83 46.094 0.169 7.46 4.74 11.6
11/14/2021 9:00:00 PM 7.81 46.058 0.169 7.44 4.9 11.6
11/14/2021 9:15:00 PM 7.78 46.004 0.169 7.44 5.04 11.61
11/14/2021 9:30:00 PM 7.77 45.986 0.169 7.45 4.87 11.61
11/14/2021 9:45:00 PM 7.75 45.95 0.169 7.43 5.21 11.62
11/14/2021 10:00:00 PM 7.73 45.914 0.169 7.43 4.93 11.62
11/14/2021 10:15:00 PM 7.72 45.896 0.169 7.44 4.96 11.62
11/14/2021 10:30:00 PM 7.7 45.86 0.169 7.38 4.65 11.63
11/14/2021 10:45:00 PM 7.69 45.842 0.169 7.43 5.17 11.63
11/14/2021 11:00:00 PM 7.67 45.806 0.169 7.44 4.85 11.64
11/14/2021 11:15:00 PM 7.65 45.77 0.169 7.44 4.78 11.64
11/14/2021 11:30:00 PM 7.64 45.752 0.169 7.43 4.87 11.64
11/14/2021 11:45:00 PM 7.62 45.716 0.169 7.37 4.85 11.65
11/15/2021 12:00:00 AM 7.6 45.68 0.169 7.42 4.83 11.65
11/15/2021 12:15:00 AM 7.59 45.662 0.169 7.42 4.44 11.65
11/15/2021 12:30:00 AM 7.58 45.644 0.169 7.42 4.75 11.65
11/15/2021 12:45:00 AM 7.57 45.626 0.169 7.42 5.03 11.65
11/15/2021 1:00:00 AM 7.56 45.608 0.169 7.41 4.71 11.65
11/15/2021 1:15:00 AM 7.56 45.608 0.169 7.42 4.77 11.66
11/15/2021 1:30:00 AM 7.55 45.59 0.169 7.42 4.93 11.66
11/15/2021 1:45:00 AM 7.54 45.572 0.169 7.42 5.16 11.66
11/15/2021 2:00:00 AM 7.53 45.554 0.169 7.42 4.98 11.66
11/15/2021 2:15:00 AM 7.52 45.536 0.17 7.38 4.91 11.66
11/15/2021 2:30:00 AM 7.51 45.518 0.17 7.4 5.13 11.66
11/15/2021 2:45:00 AM 7.5 45.5 0.17 7.41 5.04 11.67
11/15/2021 3:00:00 AM 7.5 45.5 0.17 7.39 5.15 11.67
11/15/2021 3:15:00 AM 7.48 45.464 0.17 7.41 4.71 11.67
11/15/2021 3:30:00 AM 7.47 45.446 0.17 7.38 4.7 11.67
11/15/2021 3:45:00 AM 7.46 45.428 0.17 7.41 4.63 11.67
11/15/2021 4:00:00 AM 7.45 45.41 0.17 7.41 5.03 11.67
11/15/2021 4:15:00 AM 7.45 45.41 0.17 7.41 4.79 11.68
11/15/2021 4:30:00 AM 7.44 45.392 0.17 7.36 4.36 11.67
11/15/2021 4:45:00 AM 7.43 45.374 0.17 7.41 4.67 11.68
11/15/2021 5:00:00 AM 7.41 45.338 0.17 7.41 4.62 11.68
11/15/2021 5:15:00 AM 7.4 45.32 0.17 7.38 4.84 11.68
11/15/2021 5:30:00 AM 7.39 45.302 0.17 7.41 4.45 11.68
11/15/2021 5:45:00 AM 7.38 45.284 0.17 7.41 4.65 11.69
11/15/2021 6:00:00 AM 7.38 45.284 0.17 7.38 4.74 11.68
11/15/2021 6:15:00 AM 7.37 45.266 0.17 7.41 4.69 11.68
11/15/2021 6:30:00 AM 7.37 45.266 0.171 7.42 4.37 11.69
11/15/2021 6:45:00 AM 7.36 45.248 0.171 7.41 4.54 11.69
11/15/2021 7:00:00 AM 7.35 45.23 0.171 7.42 4.75 11.69
11/15/2021 7:15:00 AM 7.32 45.176 0.171 7.41 4.73 11.69
11/15/2021 7:30:00 AM 7.3 45.14 0.171 7.41 4.87 11.7
11/15/2021 7:45:00 AM 7.3 45.14 0.171 7.41 4.63 11.71
11/15/2021 8:00:00 AM 7.29 45.122 0.171 7.41 4.83 11.72
11/15/2021 8:15:00 AM 7.29 45.122 0.171 7.42 4.33 11.71
11/15/2021 8:30:00 AM 7.29 45.122 0.171 7.42 4.28 11.74
11/15/2021 8:45:00 AM 7.29 45.122 0.171 7.42